Time,TemperatureF,DewpointF,PressureIn,WindDirection,WindDirectionDegrees,WindSpeedMPH,WindSpeedGustMPH,Humidity,HourlyPrecipIn,Conditions,Clouds,dailyrainin,SoftwareType,DateUTC
2013-08-10 00:00:00,66.0,55.1,30.40,North,0,0.0,0.0,68,0.00,,,0.00,WUHU216HW,2013-08-10 04:00:00,
2013-08-10 00:01:00,66.0,55.1,30.40,North,0,0.0,0.0,68,0.00,,,0.00,WUHU216HW,2013-08-10 04:01:00,
2013-08-10 00:02:00,65.8,54.9,30.40,North,0,0.0,0.0,68,0.00,,,0.00,WUHU216HW,2013-08-10 04:02:00,
2013-08-10 00:03:00,65.8,54.9,30.40,North,0,0.0,0.0,68,0.00,,,0.00,WUHU216HW,2013-08-10 04:03:00,
2013-08-10 00:04:00,65.8,54.9,30.40,North,0,0.0,0.0,68,0.00,,,0.00,WUHU216HW,2013-08-10 04:04:00,
2013-08-10 00:05:00,65.8,54.9,30.40,North,0,0.0,0.0,68,0.00,,,0.00,WUHU216HW,2013-08-10 04:05:00,
2013-08-10 00:06:00,65.8,54.9,30.40,North,0,0.0,0.0,68,0.00,,,0.00,WUHU216HW,2013-08-10 04:06:00,
2013-08-10 00:07:00,65.8,54.9,30.40,North,0,0.0,0.0,68,0.00,,,0.00,WUHU216HW,2013-08-10 04:07:00,
2013-08-10 00:08:00,65.6,54.3,30.40,North,0,0.0,0.0,67,0.00,,,0.00,WUHU216HW,2013-08-10 04:08:00,
2013-08-10 00:09:00,65.6,54.3,30.40,North,0,0.0,0.0,67,0.00,,,0.00,WUHU216HW,2013-08-10 04:09:00,
2013-08-10 00:10:00,65.6,54.3,30.40,North,0,0.0,0.0,67,0.00,,,0.00,WUHU216HW,2013-08-10 04:10:00,
2013-08-10 00:11:00,65.6,54.3,30.40,North,0,0.0,0.0,67,0.00,,,0.00,WUHU216HW,2013-08-10 04:11:00,
2013-08-10 00:12:00,65.4,54.1,30.40,North,0,0.0,0.0,67,0.00,,,0.00,WUHU216HW,2013-08-10 04:12:00,
2013-08-10 00:13:00,65.4,54.1,30.40,North,0,0.0,0.0,67,0.00,,,0.00,WUHU216HW,2013-08-10 04:13:00,
2013-08-10 00:14:00,65.4,54.1,30.40,North,0,0.0,0.0,67,0.00,,,0.00,WUHU216HW,2013-08-10 04:14:00,
2013-08-10 00:15:00,65.4,54.1,30.40,North,0,0.0,0.0,67,0.00,,,0.00,WUHU216HW,2013-08-10 04:15:00,
2013-08-10 00:16:00,65.4,54.1,30.40,North,0,0.0,0.0,67,0.00,,,0.00,WUHU216HW,2013-08-10 04:16:00,
2013-08-10 00:17:00,65.4,54.1,30.40,North,0,0.0,0.0,67,0.00,,,0.00,WUHU216HW,2013-08-10 04:17:00,
2013-08-10 00:18:00,65.4,54.1,30.40,North,0,0.0,0.0,67,0.00,,,0.00,WUHU216HW,2013-08-10 04:18:00,
2013-08-10 00:19:00,65.4,54.1,30.40,North,0,0.0,0.0,67,0.00,,,0.00,WUHU216HW,2013-08-10 04:19:00,
2013-08-10 00:20:00,65.4,54.1,30.40,North,0,0.0,0.0,67,0.00,,,0.00,WUHU216HW,2013-08-10 04:20:00,
2013-08-10 00:21:00,65.3,54.0,30.40,North,0,0.0,0.0,67,0.00,,,0.00,WUHU216HW,2013-08-10 04:21:00,
2013-08-10 00:22:00,65.3,54.0,30.40,North,0,0.0,0.0,67,0.00,,,0.00,WUHU216HW,2013-08-10 04:22:00,
2013-08-10 00:23:00,65.3,54.0,30.40,North,0,0.0,0.0,67,0.00,,,0.00,WUHU216HW,2013-08-10 04:23:00,
2013-08-10 00:24:00,65.3,54.0,30.41,North,0,0.0,0.0,67,0.00,,,0.00,WUHU216HW,2013-08-10 04:24:00,
2013-08-10 00:25:00,65.3,54.0,30.40,North,0,0.0,0.0,67,0.00,,,0.00,WUHU216HW,2013-08-10 04:25:00,
2013-08-10 00:26:00,65.3,54.0,30.40,North,0,0.0,0.0,67,0.00,,,0.00,WUHU216HW,2013-08-10 04:26:00,
2013-08-10 00:27:00,65.3,54.0,30.41,North,0,0.0,0.0,67,0.00,,,0.00,WUHU216HW,2013-08-10 04:27:00,
2013-08-10 00:28:00,65.1,53.8,30.41,North,0,0.0,0.0,67,0.00,,,0.00,WUHU216HW,2013-08-10 04:28:00,
2013-08-10 00:29:00,65.1,53.8,30.41,North,0,0.0,0.0,67,0.00,,,0.00,WUHU216HW,2013-08-10 04:29:00,
2013-08-10 00:30:00,65.1,53.8,30.41,North,0,0.0,0.0,67,0.00,,,0.00,WUHU216HW,2013-08-10 04:30:00,
2013-08-10 00:31:00,65.1,53.8,30.41,North,0,0.0,0.0,67,0.00,,,0.00,WUHU216HW,2013-08-10 04:31:00,
2013-08-10 00:32:00,65.1,53.8,30.41,North,0,0.0,0.0,67,0.00,,,0.00,WUHU216HW,2013-08-10 04:32:00,
2013-08-10 00:33:00,65.1,53.8,30.40,North,0,0.0,0.0,67,0.00,,,0.00,WUHU216HW,2013-08-10 04:33:00,
2013-08-10 00:34:00,65.1,53.8,30.40,North,0,0.0,0.0,67,0.00,,,0.00,WUHU216HW,2013-08-10 04:34:00,
2013-08-10 00:35:00,65.1,53.8,30.41,North,0,0.0,0.0,67,0.00,,,0.00,WUHU216HW,2013-08-10 04:35:00,
2013-08-10 00:36:00,64.9,53.6,30.41,North,0,0.0,0.0,67,0.00,,,0.00,WUHU216HW,2013-08-10 04:36:00,
2013-08-10 00:37:00,64.9,53.6,30.41,North,0,0.0,0.0,67,0.00,,,0.00,WUHU216HW,2013-08-10 04:37:00,
2013-08-10 00:38:00,64.9,53.6,30.41,North,0,0.0,0.0,67,0.00,,,0.00,WUHU216HW,2013-08-10 04:38:00,
2013-08-10 00:39:00,64.9,53.6,30.40,North,0,0.0,0.0,67,0.00,,,0.00,WUHU216HW,2013-08-10 04:39:00,
2013-08-10 00:40:00,64.7,53.9,30.40,North,0,0.0,0.0,68,0.00,,,0.00,WUHU216HW,2013-08-10 04:40:00,
2013-08-10 00:41:00,64.7,53.9,30.40,North,0,0.0,0.0,68,0.00,,,0.00,WUHU216HW,2013-08-10 04:41:00,
2013-08-10 00:42:00,64.7,53.9,30.41,North,0,0.0,0.0,68,0.00,,,0.00,WUHU216HW,2013-08-10 04:42:00,
2013-08-10 00:43:00,64.5,53.7,30.41,North,0,0.0,0.0,68,0.00,,,0.00,WUHU216HW,2013-08-10 04:43:00,
2013-08-10 00:44:00,64.5,53.7,30.41,North,0,0.0,0.0,68,0.00,,,0.00,WUHU216HW,2013-08-10 04:44:00,
2013-08-10 00:45:00,64.2,53.4,30.41,North,0,0.0,0.0,68,0.00,,,0.00,WUHU216HW,2013-08-10 04:45:00,
2013-08-10 00:46:00,64.2,53.4,30.41,North,0,0.0,0.0,68,0.00,,,0.00,WUHU216HW,2013-08-10 04:46:00,
2013-08-10 00:47:00,64.2,53.4,30.41,North,0,0.0,0.0,68,0.00,,,0.00,WUHU216HW,2013-08-10 04:47:00,
2013-08-10 00:48:00,64.2,53.4,30.41,North,0,0.0,0.0,68,0.00,,,0.00,WUHU216HW,2013-08-10 04:48:00,
2013-08-10 00:49:00,64.0,53.2,30.41,North,0,0.0,0.0,68,0.00,,,0.00,WUHU216HW,2013-08-10 04:49:00,
2013-08-10 00:50:00,64.0,53.2,30.41,North,0,0.0,0.0,68,0.00,,,0.00,WUHU216HW,2013-08-10 04:50:00,
2013-08-10 00:51:00,63.8,53.5,30.40,North,0,0.0,0.0,69,0.00,,,0.00,WUHU216HW,2013-08-10 04:51:00,
2013-08-10 00:52:00,63.8,53.5,30.41,North,0,0.0,0.0,69,0.00,,,0.00,WUHU216HW,2013-08-10 04:52:00,
2013-08-10 00:53:00,63.6,53.3,30.41,North,0,0.0,0.0,69,0.00,,,0.00,WUHU216HW,2013-08-10 04:53:00,
2013-08-10 00:54:00,63.6,53.3,30.41,North,0,0.0,0.0,69,0.00,,,0.00,WUHU216HW,2013-08-10 04:54:00,
2013-08-10 00:55:00,63.6,53.3,30.41,North,0,0.0,0.0,69,0.00,,,0.00,WUHU216HW,2013-08-10 04:55:00,
2013-08-10 00:56:00,63.6,53.3,30.41,North,0,0.0,0.0,69,0.00,,,0.00,WUHU216HW,2013-08-10 04:56:00,
2013-08-10 00:57:00,63.6,53.3,30.41,North,0,0.0,0.0,69,0.00,,,0.00,WUHU216HW,2013-08-10 04:57:00,
2013-08-10 00:58:00,63.5,53.1,30.41,North,0,0.0,0.0,69,0.00,,,0.00,WUHU216HW,2013-08-10 04:58:00,
2013-08-10 00:59:00,63.5,53.1,30.41,North,0,0.0,0.0,69,0.00,,,0.00,WUHU216HW,2013-08-10 04:59:00,
2013-08-10 01:00:00,63.3,52.9,30.41,North,0,0.0,0.0,69,0.00,,,0.00,WUHU216HW,2013-08-10 05:00:00,
2013-08-10 01:01:00,63.3,52.9,30.41,North,0,0.0,0.0,69,0.00,,,0.00,WUHU216HW,2013-08-10 05:01:00,
2013-08-10 01:02:00,63.3,52.9,30.41,North,0,0.0,0.0,69,0.00,,,0.00,WUHU216HW,2013-08-10 05:02:00,
2013-08-10 01:03:00,63.3,52.9,30.41,North,0,0.0,0.0,69,0.00,,,0.00,WUHU216HW,2013-08-10 05:03:00,
2013-08-10 01:04:00,63.1,53.2,30.41,North,0,0.0,0.0,70,0.00,,,0.00,WUHU216HW,2013-08-10 05:04:00,
2013-08-10 01:05:00,63.1,53.2,30.41,North,0,0.0,0.0,70,0.00,,,0.00,WUHU216HW,2013-08-10 05:05:00,
2013-08-10 01:06:00,62.9,53.0,30.41,North,0,0.0,0.0,70,0.00,,,0.00,WUHU216HW,2013-08-10 05:06:00,
2013-08-10 01:07:00,62.9,53.0,30.42,North,0,0.0,0.0,70,0.00,,,0.00,WUHU216HW,2013-08-10 05:07:00,
2013-08-10 01:08:00,62.7,52.8,30.41,North,0,0.0,0.0,70,0.00,,,0.00,WUHU216HW,2013-08-10 05:08:00,
2013-08-10 01:09:00,62.7,52.8,30.42,North,0,0.0,0.0,70,0.00,,,0.00,WUHU216HW,2013-08-10 05:09:00,
2013-08-10 01:10:00,62.4,52.5,30.42,North,0,0.0,0.0,70,0.00,,,0.00,WUHU216HW,2013-08-10 05:10:00,
2013-08-10 01:11:00,62.4,52.5,30.41,North,0,0.0,0.0,70,0.00,,,0.00,WUHU216HW,2013-08-10 05:11:00,
2013-08-10 01:12:00,62.4,52.5,30.42,North,0,0.0,0.0,70,0.00,,,0.00,WUHU216HW,2013-08-10 05:12:00,
2013-08-10 01:13:00,62.4,52.5,30.41,North,0,0.0,0.0,70,0.00,,,0.00,WUHU216HW,2013-08-10 05:13:00,
2013-08-10 01:14:00,62.4,52.5,30.41,North,0,0.0,0.0,70,0.00,,,0.00,WUHU216HW,2013-08-10 05:14:00,
2013-08-10 01:15:00,62.4,52.8,30.42,North,0,0.0,0.0,71,0.00,,,0.00,WUHU216HW,2013-08-10 05:15:00,
2013-08-10 01:16:00,62.4,52.8,30.42,North,0,0.0,0.0,71,0.00,,,0.00,WUHU216HW,2013-08-10 05:16:00,
2013-08-10 01:17:00,62.2,52.7,30.42,North,0,0.0,0.0,71,0.00,,,0.00,WUHU216HW,2013-08-10 05:17:00,
2013-08-10 01:18:00,62.2,52.7,30.41,North,0,0.0,0.0,71,0.00,,,0.00,WUHU216HW,2013-08-10 05:18:00,
2013-08-10 01:19:00,62.2,52.7,30.42,North,0,0.0,0.0,71,0.00,,,0.00,WUHU216HW,2013-08-10 05:19:00,
2013-08-10 01:20:00,62.2,52.7,30.42,North,0,0.0,0.0,71,0.00,,,0.00,WUHU216HW,2013-08-10 05:20:00,
2013-08-10 01:21:00,62.0,52.5,30.42,North,0,0.0,0.0,71,0.00,,,0.00,WUHU216HW,2013-08-10 05:21:00,
2013-08-10 01:22:00,62.0,52.5,30.42,North,0,0.0,0.0,71,0.00,,,0.00,WUHU216HW,2013-08-10 05:22:00,
2013-08-10 01:23:00,62.0,52.5,30.42,North,0,0.0,0.0,71,0.00,,,0.00,WUHU216HW,2013-08-10 05:23:00,
2013-08-10 01:24:00,62.0,52.5,30.42,North,0,0.0,0.0,71,0.00,,,0.00,WUHU216HW,2013-08-10 05:24:00,
2013-08-10 01:25:00,62.0,52.5,30.42,North,0,0.0,0.0,71,0.00,,,0.00,WUHU216HW,2013-08-10 05:25:00,
2013-08-10 01:26:00,62.0,52.5,30.42,North,0,0.0,0.0,71,0.00,,,0.00,WUHU216HW,2013-08-10 05:26:00,
2013-08-10 01:27:00,61.8,52.7,30.42,North,0,0.0,0.0,72,0.00,,,0.00,WUHU216HW,2013-08-10 05:27:00,
2013-08-10 01:28:00,61.8,52.7,30.42,North,0,0.0,0.0,72,0.00,,,0.00,WUHU216HW,2013-08-10 05:28:00,
2013-08-10 01:29:00,61.8,52.7,30.42,North,0,0.0,0.0,72,0.00,,,0.00,WUHU216HW,2013-08-10 05:29:00,
2013-08-10 01:30:00,61.8,52.7,30.42,North,0,0.0,0.0,72,0.00,,,0.00,WUHU216HW,2013-08-10 05:30:00,
2013-08-10 01:31:00,61.8,52.7,30.42,North,0,0.0,0.0,72,0.00,,,0.00,WUHU216HW,2013-08-10 05:31:00,
2013-08-10 01:32:00,61.8,52.4,30.42,North,0,0.0,0.0,71,0.00,,,0.00,WUHU216HW,2013-08-10 05:32:00,
2013-08-10 01:33:00,61.8,52.4,30.42,North,0,0.0,0.0,71,0.00,,,0.00,WUHU216HW,2013-08-10 05:33:00,
2013-08-10 01:34:00,61.8,52.4,30.42,North,0,0.0,0.0,71,0.00,,,0.00,WUHU216HW,2013-08-10 05:34:00,
2013-08-10 01:35:00,61.8,52.4,30.42,North,0,0.0,0.0,71,0.00,,,0.00,WUHU216HW,2013-08-10 05:35:00,
2013-08-10 01:36:00,61.8,52.4,30.42,North,0,0.0,0.0,71,0.00,,,0.00,WUHU216HW,2013-08-10 05:36:00,
2013-08-10 01:37:00,61.8,52.4,30.42,North,0,0.0,0.0,71,0.00,,,0.00,WUHU216HW,2013-08-10 05:37:00,
2013-08-10 01:38:00,61.8,52.4,30.43,North,0,0.0,0.0,71,0.00,,,0.00,WUHU216HW,2013-08-10 05:38:00,
2013-08-10 01:39:00,61.8,52.4,30.43,North,0,0.0,0.0,71,0.00,,,0.00,WUHU216HW,2013-08-10 05:39:00,
2013-08-10 01:40:00,61.8,52.4,30.43,North,0,0.0,0.0,71,0.00,,,0.00,WUHU216HW,2013-08-10 05:40:00,
2013-08-10 01:41:00,61.8,52.4,30.43,North,0,0.0,0.0,71,0.00,,,0.00,WUHU216HW,2013-08-10 05:41:00,
2013-08-10 01:42:00,61.8,52.4,30.42,North,0,0.0,0.0,71,0.00,,,0.00,WUHU216HW,2013-08-10 05:42:00,
2013-08-10 01:43:00,61.8,52.4,30.42,North,0,0.0,0.0,71,0.00,,,0.00,WUHU216HW,2013-08-10 05:43:00,
2013-08-10 01:44:00,61.8,52.4,30.42,North,0,0.0,0.0,71,0.00,,,0.00,WUHU216HW,2013-08-10 05:44:00,
2013-08-10 01:45:00,61.8,52.0,30.42,North,0,0.0,0.0,70,0.00,,,0.00,WUHU216HW,2013-08-10 05:45:00,
2013-08-10 01:46:00,61.8,52.0,30.42,North,0,0.0,0.0,70,0.00,,,0.00,WUHU216HW,2013-08-10 05:46:00,
2013-08-10 01:47:00,61.8,52.0,30.43,North,0,0.0,0.0,70,0.00,,,0.00,WUHU216HW,2013-08-10 05:47:00,
2013-08-10 01:48:00,61.8,52.0,30.43,North,0,0.0,0.0,70,0.00,,,0.00,WUHU216HW,2013-08-10 05:48:00,
2013-08-10 01:49:00,61.8,52.0,30.42,North,0,0.0,0.0,70,0.00,,,0.00,WUHU216HW,2013-08-10 05:49:00,
2013-08-10 01:50:00,61.8,52.0,30.43,North,0,0.0,0.0,70,0.00,,,0.00,WUHU216HW,2013-08-10 05:50:00,
2013-08-10 01:51:00,61.8,52.0,30.43,North,0,0.0,0.0,70,0.00,,,0.00,WUHU216HW,2013-08-10 05:51:00,
2013-08-10 01:52:00,61.8,52.0,30.43,North,0,0.0,0.0,70,0.00,,,0.00,WUHU216HW,2013-08-10 05:52:00,
2013-08-10 01:53:00,61.8,52.0,30.43,North,0,0.0,0.0,70,0.00,,,0.00,WUHU216HW,2013-08-10 05:53:00,
2013-08-10 01:54:00,61.8,52.0,30.43,North,0,0.0,0.0,70,0.00,,,0.00,WUHU216HW,2013-08-10 05:54:00,
2013-08-10 01:55:00,61.7,51.8,30.44,North,0,0.0,0.0,70,0.00,,,0.00,WUHU216HW,2013-08-10 05:55:00,
2013-08-10 01:56:00,61.7,51.8,30.44,North,0,0.0,0.0,70,0.00,,,0.00,WUHU216HW,2013-08-10 05:56:00,
2013-08-10 01:57:00,61.7,51.8,30.44,North,0,0.0,0.0,70,0.00,,,0.00,WUHU216HW,2013-08-10 05:57:00,
2013-08-10 01:58:00,61.7,51.8,30.43,North,0,0.0,0.0,70,0.00,,,0.00,WUHU216HW,2013-08-10 05:58:00,
2013-08-10 01:59:00,61.7,51.8,30.43,North,0,0.0,0.0,70,0.00,,,0.00,WUHU216HW,2013-08-10 05:59:00,
2013-08-10 02:00:00,61.7,51.8,30.44,North,0,0.0,0.0,70,0.00,,,0.00,WUHU216HW,2013-08-10 06:00:00,
2013-08-10 02:01:00,61.7,51.8,30.44,North,0,0.0,0.0,70,0.00,,,0.00,WUHU216HW,2013-08-10 06:01:00,
2013-08-10 02:02:00,61.7,51.8,30.44,North,0,0.0,0.0,70,0.00,,,0.00,WUHU216HW,2013-08-10 06:02:00,
2013-08-10 02:03:00,61.7,51.8,30.44,North,0,0.0,0.0,70,0.00,,,0.00,WUHU216HW,2013-08-10 06:03:00,
2013-08-10 02:04:00,61.7,51.8,30.44,North,0,0.0,0.0,70,0.00,,,0.00,WUHU216HW,2013-08-10 06:04:00,
2013-08-10 02:05:00,61.7,51.8,30.44,North,0,0.0,0.0,70,0.00,,,0.00,WUHU216HW,2013-08-10 06:05:00,
2013-08-10 02:06:00,61.7,51.8,30.44,North,0,0.0,0.0,70,0.00,,,0.00,WUHU216HW,2013-08-10 06:06:00,
2013-08-10 02:07:00,61.7,51.8,30.44,North,0,0.0,0.0,70,0.00,,,0.00,WUHU216HW,2013-08-10 06:07:00,
2013-08-10 02:08:00,61.5,51.7,30.44,North,0,0.0,0.0,70,0.00,,,0.00,WUHU216HW,2013-08-10 06:08:00,
2013-08-10 02:09:00,61.5,51.7,30.44,North,0,0.0,0.0,70,0.00,,,0.00,WUHU216HW,2013-08-10 06:09:00,
2013-08-10 02:10:00,61.5,52.0,30.44,North,0,0.0,0.0,71,0.00,,,0.00,WUHU216HW,2013-08-10 06:10:00,
2013-08-10 02:11:00,61.5,52.0,30.43,North,0,0.0,0.0,71,0.00,,,0.00,WUHU216HW,2013-08-10 06:11:00,
2013-08-10 02:12:00,61.5,52.0,30.44,North,0,0.0,0.0,71,0.00,,,0.00,WUHU216HW,2013-08-10 06:12:00,
2013-08-10 02:13:00,61.5,52.0,30.44,North,0,0.0,0.0,71,0.00,,,0.00,WUHU216HW,2013-08-10 06:13:00,
2013-08-10 02:14:00,61.5,52.0,30.44,North,0,0.0,0.0,71,0.00,,,0.00,WUHU216HW,2013-08-10 06:14:00,
2013-08-10 02:15:00,61.3,51.9,30.44,North,0,0.0,0.0,71,0.00,,,0.00,WUHU216HW,2013-08-10 06:15:00,
2013-08-10 02:16:00,61.3,51.9,30.44,North,0,0.0,0.0,71,0.00,,,0.00,WUHU216HW,2013-08-10 06:16:00,
2013-08-10 02:17:00,61.3,51.9,30.44,North,0,0.0,0.0,71,0.00,,,0.00,WUHU216HW,2013-08-10 06:17:00,
2013-08-10 02:18:00,61.3,51.9,30.43,North,0,0.0,0.0,71,0.00,,,0.00,WUHU216HW,2013-08-10 06:18:00,
2013-08-10 02:19:00,61.1,51.7,30.43,North,0,0.0,0.0,71,0.00,,,0.00,WUHU216HW,2013-08-10 06:19:00,
2013-08-10 02:20:00,61.1,51.7,30.43,North,0,0.0,0.0,71,0.00,,,0.00,WUHU216HW,2013-08-10 06:20:00,
2013-08-10 02:21:00,60.9,51.6,30.43,North,0,0.0,0.0,71,0.00,,,0.00,WUHU216HW,2013-08-10 06:21:00,
2013-08-10 02:22:00,60.9,51.6,30.43,North,0,0.0,0.0,71,0.00,,,0.00,WUHU216HW,2013-08-10 06:22:00,
2013-08-10 02:23:00,60.9,51.6,30.43,North,0,0.0,0.0,71,0.00,,,0.00,WUHU216HW,2013-08-10 06:23:00,
2013-08-10 02:24:00,60.9,51.6,30.43,North,0,0.0,0.0,71,0.00,,,0.00,WUHU216HW,2013-08-10 06:24:00,
2013-08-10 02:25:00,60.6,51.2,30.43,North,0,0.0,0.0,71,0.00,,,0.00,WUHU216HW,2013-08-10 06:25:00,
2013-08-10 02:26:00,60.6,51.2,30.43,North,0,0.0,0.0,71,0.00,,,0.00,WUHU216HW,2013-08-10 06:26:00,
2013-08-10 02:27:00,60.6,51.2,30.43,North,0,0.0,0.0,71,0.00,,,0.00,WUHU216HW,2013-08-10 06:27:00,
2013-08-10 02:28:00,60.6,51.2,30.43,North,0,0.0,0.0,71,0.00,,,0.00,WUHU216HW,2013-08-10 06:28:00,
2013-08-10 02:29:00,60.6,51.2,30.43,North,0,0.0,0.0,71,0.00,,,0.00,WUHU216HW,2013-08-10 06:29:00,
2013-08-10 02:30:00,60.4,51.4,30.43,North,0,0.0,0.0,72,0.00,,,0.00,WUHU216HW,2013-08-10 06:30:00,
2013-08-10 02:31:00,60.4,51.4,30.43,North,0,0.0,0.0,72,0.00,,,0.00,WUHU216HW,2013-08-10 06:31:00,
2013-08-10 02:32:00,60.0,51.0,30.43,North,0,0.0,0.0,72,0.00,,,0.00,WUHU216HW,2013-08-10 06:32:00,
2013-08-10 02:33:00,60.0,51.0,30.43,North,0,0.0,0.0,72,0.00,,,0.00,WUHU216HW,2013-08-10 06:33:00,
2013-08-10 02:34:00,60.0,51.0,30.44,North,0,0.0,0.0,72,0.00,,,0.00,WUHU216HW,2013-08-10 06:34:00,
2013-08-10 02:35:00,60.0,51.0,30.44,North,0,0.0,0.0,72,0.00,,,0.00,WUHU216HW,2013-08-10 06:35:00,
2013-08-10 02:36:00,59.9,50.9,30.44,North,0,0.0,0.0,72,0.00,,,0.00,WUHU216HW,2013-08-10 06:36:00,
2013-08-10 02:37:00,59.9,50.9,30.44,North,0,0.0,0.0,72,0.00,,,0.00,WUHU216HW,2013-08-10 06:37:00,
2013-08-10 02:38:00,59.7,50.7,30.44,North,0,0.0,0.0,72,0.00,,,0.00,WUHU216HW,2013-08-10 06:38:00,
2013-08-10 02:39:00,59.7,50.7,30.44,North,0,0.0,0.0,72,0.00,,,0.00,WUHU216HW,2013-08-10 06:39:00,
2013-08-10 02:40:00,59.7,51.0,30.44,North,0,0.0,0.0,73,0.00,,,0.00,WUHU216HW,2013-08-10 06:40:00,
2013-08-10 02:41:00,59.7,51.0,30.44,North,0,0.0,0.0,73,0.00,,,0.00,WUHU216HW,2013-08-10 06:41:00,
2013-08-10 02:42:00,59.7,51.0,30.44,North,0,0.0,0.0,73,0.00,,,0.00,WUHU216HW,2013-08-10 06:42:00,
2013-08-10 02:43:00,59.7,51.0,30.44,North,0,0.0,0.0,73,0.00,,,0.00,WUHU216HW,2013-08-10 06:43:00,
2013-08-10 02:44:00,59.7,51.0,30.44,North,0,0.0,0.0,73,0.00,,,0.00,WUHU216HW,2013-08-10 06:44:00,
2013-08-10 02:45:00,59.5,50.9,30.45,North,0,0.0,0.0,73,0.00,,,0.00,WUHU216HW,2013-08-10 06:45:00,
2013-08-10 02:46:00,59.5,50.9,30.45,North,0,0.0,0.0,73,0.00,,,0.00,WUHU216HW,2013-08-10 06:46:00,
2013-08-10 02:47:00,59.5,50.9,30.45,North,0,0.0,0.0,73,0.00,,,0.00,WUHU216HW,2013-08-10 06:47:00,
2013-08-10 02:48:00,59.5,50.9,30.45,North,0,0.0,0.0,73,0.00,,,0.00,WUHU216HW,2013-08-10 06:48:00,
2013-08-10 02:49:00,59.5,50.9,30.45,North,0,0.0,0.0,73,0.00,,,0.00,WUHU216HW,2013-08-10 06:49:00,
2013-08-10 02:50:00,59.5,50.9,30.45,North,0,0.0,0.0,73,0.00,,,0.00,WUHU216HW,2013-08-10 06:50:00,
2013-08-10 02:51:00,59.3,50.7,30.45,North,0,0.0,0.0,73,0.00,,,0.00,WUHU216HW,2013-08-10 06:51:00,
2013-08-10 02:52:00,59.3,50.7,30.45,North,0,0.0,0.0,73,0.00,,,0.00,WUHU216HW,2013-08-10 06:52:00,
2013-08-10 02:53:00,59.1,50.5,30.45,North,0,0.0,0.0,73,0.00,,,0.00,WUHU216HW,2013-08-10 06:53:00,
2013-08-10 02:54:00,59.1,50.5,30.45,North,0,0.0,0.0,73,0.00,,,0.00,WUHU216HW,2013-08-10 06:54:00,
2013-08-10 02:55:00,59.1,50.5,30.45,North,0,0.0,0.0,73,0.00,,,0.00,WUHU216HW,2013-08-10 06:55:00,
2013-08-10 02:56:00,59.1,50.5,30.45,North,0,0.0,0.0,73,0.00,,,0.00,WUHU216HW,2013-08-10 06:56:00,
2013-08-10 02:57:00,58.8,50.1,30.45,North,0,0.0,0.0,73,0.00,,,0.00,WUHU216HW,2013-08-10 06:57:00,
2013-08-10 02:58:00,58.8,50.1,30.45,North,0,0.0,0.0,73,0.00,,,0.00,WUHU216HW,2013-08-10 06:58:00,
2013-08-10 02:59:00,58.8,50.1,30.45,North,0,0.0,0.0,73,0.00,,,0.00,WUHU216HW,2013-08-10 06:59:00,
2013-08-10 03:00:00,58.8,50.1,30.45,North,0,0.0,0.0,73,0.00,,,0.00,WUHU216HW,2013-08-10 07:00:00,
2013-08-10 03:01:00,58.8,50.1,30.45,North,0,0.0,0.0,73,0.00,,,0.00,WUHU216HW,2013-08-10 07:01:00,
2013-08-10 03:02:00,58.8,50.1,30.45,North,0,0.0,0.0,73,0.00,,,0.00,WUHU216HW,2013-08-10 07:02:00,
2013-08-10 03:03:00,58.8,50.1,30.45,North,0,0.0,0.0,73,0.00,,,0.00,WUHU216HW,2013-08-10 07:03:00,
2013-08-10 03:04:00,58.8,50.5,30.45,North,0,0.0,0.0,74,0.00,,,0.00,WUHU216HW,2013-08-10 07:04:00,
2013-08-10 03:05:00,58.8,50.5,30.45,North,0,0.0,0.0,74,0.00,,,0.00,WUHU216HW,2013-08-10 07:05:00,
2013-08-10 03:06:00,58.6,50.3,30.45,North,0,0.0,0.0,74,0.00,,,0.00,WUHU216HW,2013-08-10 07:06:00,
2013-08-10 03:07:00,58.6,50.3,30.45,North,0,0.0,0.0,74,0.00,,,0.00,WUHU216HW,2013-08-10 07:07:00,
2013-08-10 03:08:00,58.6,50.3,30.45,North,0,0.0,0.0,74,0.00,,,0.00,WUHU216HW,2013-08-10 07:08:00,
2013-08-10 03:09:00,58.6,50.3,30.45,North,0,0.0,0.0,74,0.00,,,0.00,WUHU216HW,2013-08-10 07:09:00,
2013-08-10 03:10:00,58.2,50.0,30.45,North,0,0.0,0.0,74,0.00,,,0.00,WUHU216HW,2013-08-10 07:10:00,
2013-08-10 03:11:00,58.2,50.0,30.45,North,0,0.0,0.0,74,0.00,,,0.00,WUHU216HW,2013-08-10 07:11:00,
2013-08-10 03:12:00,58.2,50.0,30.45,North,0,0.0,0.0,74,0.00,,,0.00,WUHU216HW,2013-08-10 07:12:00,
2013-08-10 03:13:00,58.2,50.0,30.45,North,0,0.0,0.0,74,0.00,,,0.00,WUHU216HW,2013-08-10 07:13:00,
2013-08-10 03:14:00,58.1,50.0,30.45,North,0,0.0,0.0,74,0.00,,,0.00,WUHU216HW,2013-08-10 07:14:00,
2013-08-10 03:15:00,58.1,49.8,30.45,North,0,0.0,0.0,74,0.00,,,0.00,WUHU216HW,2013-08-10 07:15:00,
2013-08-10 03:16:00,58.1,49.8,30.45,North,0,0.0,0.0,74,0.00,,,0.00,WUHU216HW,2013-08-10 07:16:00,
2013-08-10 03:17:00,57.9,49.6,30.45,North,0,0.0,0.0,74,0.00,,,0.00,WUHU216HW,2013-08-10 07:17:00,
2013-08-10 03:18:00,57.9,49.6,30.45,North,0,0.0,0.0,74,0.00,,,0.00,WUHU216HW,2013-08-10 07:18:00,
2013-08-10 03:19:00,57.9,49.6,30.46,North,0,0.0,0.0,74,0.00,,,0.00,WUHU216HW,2013-08-10 07:19:00,
2013-08-10 03:20:00,57.9,49.6,30.45,North,0,0.0,0.0,74,0.00,,,0.00,WUHU216HW,2013-08-10 07:20:00,
2013-08-10 03:21:00,57.9,49.6,30.45,North,0,0.0,0.0,74,0.00,,,0.00,WUHU216HW,2013-08-10 07:21:00,
2013-08-10 03:22:00,57.9,49.6,30.46,North,0,0.0,0.0,74,0.00,,,0.00,WUHU216HW,2013-08-10 07:22:00,
2013-08-10 03:23:00,57.7,49.8,30.45,North,0,0.0,0.0,75,0.00,,,0.00,WUHU216HW,2013-08-10 07:23:00,
2013-08-10 03:24:00,57.7,49.8,30.45,North,0,0.0,0.0,75,0.00,,,0.00,WUHU216HW,2013-08-10 07:24:00,
2013-08-10 03:25:00,57.7,49.8,30.45,North,0,0.0,0.0,75,0.00,,,0.00,WUHU216HW,2013-08-10 07:25:00,
2013-08-10 03:26:00,57.7,49.8,30.45,North,0,0.0,0.0,75,0.00,,,0.00,WUHU216HW,2013-08-10 07:26:00,
2013-08-10 03:27:00,57.5,49.6,30.45,North,0,0.0,0.0,75,0.00,,,0.00,WUHU216HW,2013-08-10 07:27:00,
2013-08-10 03:28:00,57.5,49.6,30.45,North,0,0.0,0.0,75,0.00,,,0.00,WUHU216HW,2013-08-10 07:28:00,
2013-08-10 03:29:00,57.5,49.6,30.45,North,0,0.0,0.0,75,0.00,,,0.00,WUHU216HW,2013-08-10 07:29:00,
2013-08-10 03:30:00,57.3,49.4,30.45,North,0,0.0,0.0,75,0.00,,,0.00,WUHU216HW,2013-08-10 07:30:00,
2013-08-10 03:31:00,57.3,49.4,30.45,North,0,0.0,0.0,75,0.00,,,0.00,WUHU216HW,2013-08-10 07:31:00,
2013-08-10 03:32:00,57.3,49.4,30.45,North,0,0.0,0.0,75,0.00,,,0.00,WUHU216HW,2013-08-10 07:32:00,
2013-08-10 03:33:00,57.3,49.4,30.45,North,0,0.0,0.0,75,0.00,,,0.00,WUHU216HW,2013-08-10 07:33:00,
2013-08-10 03:34:00,57.3,49.4,30.45,North,0,0.0,0.0,75,0.00,,,0.00,WUHU216HW,2013-08-10 07:34:00,
2013-08-10 03:35:00,57.3,49.4,30.45,North,0,0.0,0.0,75,0.00,,,0.00,WUHU216HW,2013-08-10 07:35:00,
2013-08-10 03:36:00,57.2,49.6,30.45,North,0,0.0,0.0,76,0.00,,,0.00,WUHU216HW,2013-08-10 07:36:00,
2013-08-10 03:37:00,57.2,49.6,30.45,North,0,0.0,0.0,76,0.00,,,0.00,WUHU216HW,2013-08-10 07:37:00,
2013-08-10 03:38:00,57.0,49.4,30.45,North,0,0.0,0.0,76,0.00,,,0.00,WUHU216HW,2013-08-10 07:38:00,
2013-08-10 03:39:00,57.0,49.4,30.45,North,0,0.0,0.0,76,0.00,,,0.00,WUHU216HW,2013-08-10 07:39:00,
2013-08-10 03:40:00,57.0,49.4,30.45,North,0,0.0,0.0,76,0.00,,,0.00,WUHU216HW,2013-08-10 07:40:00,
2013-08-10 03:41:00,57.0,49.4,30.45,North,0,0.0,0.0,76,0.00,,,0.00,WUHU216HW,2013-08-10 07:41:00,
2013-08-10 03:42:00,57.0,49.4,30.45,North,0,0.0,0.0,76,0.00,,,0.00,WUHU216HW,2013-08-10 07:42:00,
2013-08-10 03:43:00,57.0,49.4,30.45,North,0,0.0,0.0,76,0.00,,,0.00,WUHU216HW,2013-08-10 07:43:00,
2013-08-10 03:44:00,57.0,49.4,30.45,North,0,0.0,0.0,76,0.00,,,0.00,WUHU216HW,2013-08-10 07:44:00,
2013-08-10 03:45:00,56.8,49.2,30.46,North,0,0.0,0.0,76,0.00,,,0.00,WUHU216HW,2013-08-10 07:45:00,
2013-08-10 03:46:00,56.8,49.2,30.46,North,0,0.0,0.0,76,0.00,,,0.00,WUHU216HW,2013-08-10 07:46:00,
2013-08-10 03:47:00,56.8,49.2,30.46,North,0,0.0,0.0,76,0.00,,,0.00,WUHU216HW,2013-08-10 07:47:00,
2013-08-10 03:48:00,56.8,49.2,30.45,North,0,0.0,0.0,76,0.00,,,0.00,WUHU216HW,2013-08-10 07:48:00,
2013-08-10 03:49:00,56.8,49.2,30.46,North,0,0.0,0.0,76,0.00,,,0.00,WUHU216HW,2013-08-10 07:49:00,
2013-08-10 03:50:00,56.8,49.2,30.45,North,0,0.0,0.0,76,0.00,,,0.00,WUHU216HW,2013-08-10 07:50:00,
2013-08-10 03:51:00,56.4,48.9,30.45,North,0,0.0,0.0,76,0.00,,,0.00,WUHU216HW,2013-08-10 07:51:00,
2013-08-10 03:52:00,56.4,48.9,30.46,North,0,0.0,0.0,76,0.00,,,0.00,WUHU216HW,2013-08-10 07:52:00,
2013-08-10 03:53:00,56.4,48.9,30.46,North,0,0.0,0.0,76,0.00,,,0.00,WUHU216HW,2013-08-10 07:53:00,
2013-08-10 03:54:00,56.4,48.9,30.46,North,0,0.0,0.0,76,0.00,,,0.00,WUHU216HW,2013-08-10 07:54:00,
2013-08-10 03:55:00,56.4,48.9,30.46,North,0,0.0,0.0,76,0.00,,,0.00,WUHU216HW,2013-08-10 07:55:00,
2013-08-10 03:56:00,56.4,48.9,30.46,North,0,0.0,0.0,76,0.00,,,0.00,WUHU216HW,2013-08-10 07:56:00,
2013-08-10 03:57:00,56.4,48.9,30.46,North,0,0.0,0.0,76,0.00,,,0.00,WUHU216HW,2013-08-10 07:57:00,
2013-08-10 03:58:00,56.4,48.9,30.46,North,0,0.0,0.0,76,0.00,,,0.00,WUHU216HW,2013-08-10 07:58:00,
2013-08-10 03:59:00,56.3,48.9,30.47,North,0,0.0,0.0,76,0.00,,,0.00,WUHU216HW,2013-08-10 07:59:00,
2013-08-10 04:00:00,56.3,48.7,30.46,North,0,0.0,0.0,76,0.00,,,0.00,WUHU216HW,2013-08-10 08:00:00,
2013-08-10 04:01:00,56.3,48.7,30.46,North,0,0.0,0.0,76,0.00,,,0.00,WUHU216HW,2013-08-10 08:01:00,
2013-08-10 04:02:00,56.3,49.1,30.46,North,0,0.0,0.0,77,0.00,,,0.00,WUHU216HW,2013-08-10 08:02:00,
2013-08-10 04:03:00,56.3,49.1,30.46,North,0,0.0,0.0,77,0.00,,,0.00,WUHU216HW,2013-08-10 08:03:00,
2013-08-10 04:04:00,56.1,48.9,30.47,North,0,0.0,0.0,77,0.00,,,0.00,WUHU216HW,2013-08-10 08:04:00,
2013-08-10 04:05:00,56.1,48.9,30.46,North,0,0.0,0.0,77,0.00,,,0.00,WUHU216HW,2013-08-10 08:05:00,
2013-08-10 04:06:00,56.1,48.9,30.46,North,0,0.0,0.0,77,0.00,,,0.00,WUHU216HW,2013-08-10 08:06:00,
2013-08-10 04:07:00,56.1,48.9,30.46,North,0,0.0,0.0,77,0.00,,,0.00,WUHU216HW,2013-08-10 08:07:00,
2013-08-10 04:08:00,55.9,48.7,30.46,North,0,0.0,0.0,77,0.00,,,0.00,WUHU216HW,2013-08-10 08:08:00,
2013-08-10 04:09:00,55.9,48.7,30.46,North,0,0.0,0.0,77,0.00,,,0.00,WUHU216HW,2013-08-10 08:09:00,
2013-08-10 04:10:00,55.9,48.7,30.47,North,0,0.0,0.0,77,0.00,,,0.00,WUHU216HW,2013-08-10 08:10:00,
2013-08-10 04:11:00,55.9,48.7,30.46,North,0,0.0,0.0,77,0.00,,,0.00,WUHU216HW,2013-08-10 08:11:00,
2013-08-10 04:12:00,55.7,48.5,30.46,North,0,0.0,0.0,77,0.00,,,0.00,WUHU216HW,2013-08-10 08:12:00,
2013-08-10 04:13:00,55.7,48.5,30.46,North,0,0.0,0.0,77,0.00,,,0.00,WUHU216HW,2013-08-10 08:13:00,
2013-08-10 04:14:00,55.7,48.5,30.46,North,0,0.0,0.0,78,0.00,,,0.00,WUHU216HW,2013-08-10 08:14:00,
2013-08-10 04:15:00,55.7,48.9,30.46,North,0,0.0,0.0,78,0.00,,,0.00,WUHU216HW,2013-08-10 08:15:00,
2013-08-10 04:16:00,55.7,48.9,30.46,North,0,0.0,0.0,78,0.00,,,0.00,WUHU216HW,2013-08-10 08:16:00,
2013-08-10 04:17:00,55.7,48.5,30.46,North,0,0.0,0.0,77,0.00,,,0.00,WUHU216HW,2013-08-10 08:17:00,
2013-08-10 04:18:00,55.7,48.5,30.46,North,0,0.0,0.0,77,0.00,,,0.00,WUHU216HW,2013-08-10 08:18:00,
2013-08-10 04:19:00,55.7,48.5,30.47,North,0,0.0,0.0,77,0.00,,,0.00,WUHU216HW,2013-08-10 08:19:00,
2013-08-10 04:20:00,55.7,48.5,30.47,North,0,0.0,0.0,77,0.00,,,0.00,WUHU216HW,2013-08-10 08:20:00,
2013-08-10 04:21:00,55.5,48.7,30.47,North,0,0.0,0.0,78,0.00,,,0.00,WUHU216HW,2013-08-10 08:21:00,
2013-08-10 04:22:00,55.5,48.7,30.47,North,0,0.0,0.0,78,0.00,,,0.00,WUHU216HW,2013-08-10 08:22:00,
2013-08-10 04:23:00,55.5,48.7,30.47,North,0,0.0,0.0,78,0.00,,,0.00,WUHU216HW,2013-08-10 08:23:00,
2013-08-10 04:24:00,55.5,48.7,30.47,North,0,0.0,0.0,78,0.00,,,0.00,WUHU216HW,2013-08-10 08:24:00,
2013-08-10 04:25:00,55.5,48.7,30.47,North,0,0.0,0.0,78,0.00,,,0.00,WUHU216HW,2013-08-10 08:25:00,
2013-08-10 04:26:00,55.5,48.7,30.47,North,0,0.0,0.0,78,0.00,,,0.00,WUHU216HW,2013-08-10 08:26:00,
2013-08-10 04:27:00,55.5,48.7,30.47,North,0,0.0,0.0,78,0.00,,,0.00,WUHU216HW,2013-08-10 08:27:00,
2013-08-10 04:28:00,55.5,48.7,30.47,North,0,0.0,0.0,78,0.00,,,0.00,WUHU216HW,2013-08-10 08:28:00,
2013-08-10 04:29:00,55.5,48.7,30.47,North,0,0.0,0.0,78,0.00,,,0.00,WUHU216HW,2013-08-10 08:29:00,
2013-08-10 04:30:00,55.5,48.7,30.47,North,0,0.0,0.0,78,0.00,,,0.00,WUHU216HW,2013-08-10 08:30:00,
2013-08-10 04:31:00,55.5,48.7,30.47,North,0,0.0,0.0,78,0.00,,,0.00,WUHU216HW,2013-08-10 08:31:00,
2013-08-10 04:32:00,55.5,48.7,30.46,North,0,0.0,0.0,78,0.00,,,0.00,WUHU216HW,2013-08-10 08:32:00,
2013-08-10 04:33:00,55.5,48.7,30.46,North,0,0.0,0.0,78,0.00,,,0.00,WUHU216HW,2013-08-10 08:33:00,
2013-08-10 04:34:00,55.5,48.7,30.46,North,0,0.0,0.0,78,0.00,,,0.00,WUHU216HW,2013-08-10 08:34:00,
2013-08-10 04:35:00,55.5,48.7,30.46,North,0,0.0,0.0,78,0.00,,,0.00,WUHU216HW,2013-08-10 08:35:00,
2013-08-10 04:36:00,55.4,48.5,30.47,North,0,0.0,0.0,78,0.00,,,0.00,WUHU216HW,2013-08-10 08:36:00,
2013-08-10 04:37:00,55.4,48.5,30.47,North,0,0.0,0.0,78,0.00,,,0.00,WUHU216HW,2013-08-10 08:37:00,
2013-08-10 04:38:00,55.4,48.9,30.47,North,0,0.0,0.0,79,0.00,,,0.00,WUHU216HW,2013-08-10 08:38:00,
2013-08-10 04:39:00,55.4,48.9,30.47,North,0,0.0,0.0,79,0.00,,,0.00,WUHU216HW,2013-08-10 08:39:00,
2013-08-10 04:40:00,55.4,48.9,30.47,North,0,0.0,0.0,79,0.00,,,0.00,WUHU216HW,2013-08-10 08:40:00,
2013-08-10 04:41:00,55.4,48.9,30.47,North,0,0.0,0.0,79,0.00,,,0.00,WUHU216HW,2013-08-10 08:41:00,
2013-08-10 04:42:00,55.4,48.9,30.46,North,0,0.0,0.0,79,0.00,,,0.00,WUHU216HW,2013-08-10 08:42:00,
2013-08-10 04:43:00,55.4,48.9,30.47,North,0,0.0,0.0,79,0.00,,,0.00,WUHU216HW,2013-08-10 08:43:00,
2013-08-10 04:44:00,55.4,49.1,30.47,North,0,0.0,0.0,79,0.00,,,0.00,WUHU216HW,2013-08-10 08:44:00,
2013-08-10 04:45:00,55.5,49.1,30.47,North,0,0.0,0.0,79,0.00,,,0.00,WUHU216HW,2013-08-10 08:45:00,
2013-08-10 04:46:00,55.5,49.1,30.47,North,0,0.0,0.0,79,0.00,,,0.00,WUHU216HW,2013-08-10 08:46:00,
2013-08-10 04:47:00,55.5,49.1,30.47,North,0,0.0,0.0,79,0.00,,,0.00,WUHU216HW,2013-08-10 08:47:00,
2013-08-10 04:48:00,55.5,49.1,30.47,North,0,0.0,0.0,79,0.00,,,0.00,WUHU216HW,2013-08-10 08:48:00,
2013-08-10 04:49:00,55.5,49.1,30.47,North,0,0.0,0.0,79,0.00,,,0.00,WUHU216HW,2013-08-10 08:49:00,
2013-08-10 04:50:00,55.5,49.1,30.47,North,0,0.0,0.0,79,0.00,,,0.00,WUHU216HW,2013-08-10 08:50:00,
2013-08-10 04:51:00,55.5,49.1,30.47,North,0,0.0,0.0,79,0.00,,,0.00,WUHU216HW,2013-08-10 08:51:00,
2013-08-10 04:52:00,55.5,49.1,30.47,North,0,0.0,0.0,79,0.00,,,0.00,WUHU216HW,2013-08-10 08:52:00,
2013-08-10 04:53:00,55.5,49.1,30.47,North,0,0.0,0.0,79,0.00,,,0.00,WUHU216HW,2013-08-10 08:53:00,
2013-08-10 04:54:00,55.5,49.1,30.47,North,0,0.0,0.0,79,0.00,,,0.00,WUHU216HW,2013-08-10 08:54:00,
2013-08-10 04:55:00,55.5,49.1,30.47,North,0,0.0,0.0,79,0.00,,,0.00,WUHU216HW,2013-08-10 08:55:00,
2013-08-10 04:56:00,55.5,49.1,30.47,North,0,0.0,0.0,79,0.00,,,0.00,WUHU216HW,2013-08-10 08:56:00,
2013-08-10 04:57:00,55.5,49.1,30.47,North,0,0.0,0.0,79,0.00,,,0.00,WUHU216HW,2013-08-10 08:57:00,
2013-08-10 04:58:00,55.5,49.1,30.47,North,0,0.0,0.0,79,0.00,,,0.00,WUHU216HW,2013-08-10 08:58:00,
2013-08-10 04:59:00,55.5,49.1,30.47,North,0,0.0,0.0,79,0.00,,,0.00,WUHU216HW,2013-08-10 08:59:00,
2013-08-10 05:00:00,55.5,49.1,30.47,North,0,0.0,0.0,79,0.00,,,0.00,WUHU216HW,2013-08-10 09:00:00,
2013-08-10 05:01:00,55.5,49.1,30.47,North,0,0.0,0.0,79,0.00,,,0.00,WUHU216HW,2013-08-10 09:01:00,
2013-08-10 05:02:00,55.5,49.1,30.47,North,0,0.0,0.0,79,0.00,,,0.00,WUHU216HW,2013-08-10 09:02:00,
2013-08-10 05:03:00,55.5,49.1,30.47,North,0,0.0,0.0,79,0.00,,,0.00,WUHU216HW,2013-08-10 09:03:00,
2013-08-10 05:04:00,55.5,49.4,30.47,North,0,0.0,0.0,80,0.00,,,0.00,WUHU216HW,2013-08-10 09:04:00,
2013-08-10 05:05:00,55.5,49.4,30.47,North,0,0.0,0.0,80,0.00,,,0.00,WUHU216HW,2013-08-10 09:05:00,
2013-08-10 05:06:00,55.5,49.4,30.47,North,0,0.0,0.0,80,0.00,,,0.00,WUHU216HW,2013-08-10 09:06:00,
2013-08-10 05:07:00,55.5,49.4,30.47,North,0,0.0,0.0,80,0.00,,,0.00,WUHU216HW,2013-08-10 09:07:00,
2013-08-10 05:08:00,55.5,49.1,30.47,North,0,0.0,0.0,79,0.00,,,0.00,WUHU216HW,2013-08-10 09:08:00,
2013-08-10 05:09:00,55.5,49.1,30.47,North,0,0.0,0.0,79,0.00,,,0.00,WUHU216HW,2013-08-10 09:09:00,
2013-08-10 05:10:00,55.5,49.1,30.47,North,0,0.0,0.0,79,0.00,,,0.00,WUHU216HW,2013-08-10 09:10:00,
2013-08-10 05:11:00,55.5,49.1,30.47,North,0,0.0,0.0,79,0.00,,,0.00,WUHU216HW,2013-08-10 09:11:00,
2013-08-10 05:12:00,55.5,49.1,30.47,North,0,0.0,0.0,79,0.00,,,0.00,WUHU216HW,2013-08-10 09:12:00,
2013-08-10 05:13:00,55.5,49.1,30.47,North,0,0.0,0.0,79,0.00,,,0.00,WUHU216HW,2013-08-10 09:13:00,
2013-08-10 05:14:00,55.4,48.9,30.47,North,0,0.0,0.0,79,0.00,,,0.00,WUHU216HW,2013-08-10 09:14:00,
2013-08-10 05:15:00,55.4,48.9,30.47,North,0,0.0,0.0,79,0.00,,,0.00,WUHU216HW,2013-08-10 09:15:00,
2013-08-10 05:16:00,55.4,48.9,30.47,North,0,0.0,0.0,79,0.00,,,0.00,WUHU216HW,2013-08-10 09:16:00,
2013-08-10 05:17:00,55.2,48.7,30.47,North,0,0.0,0.0,79,0.00,,,0.00,WUHU216HW,2013-08-10 09:17:00,
2013-08-10 05:18:00,55.2,48.7,30.47,North,0,0.0,0.0,79,0.00,,,0.00,WUHU216HW,2013-08-10 09:18:00,
2013-08-10 05:19:00,55.2,48.7,30.47,North,0,0.0,0.0,79,0.00,,,0.00,WUHU216HW,2013-08-10 09:19:00,
2013-08-10 05:20:00,55.2,48.7,30.47,North,0,0.0,0.0,79,0.00,,,0.00,WUHU216HW,2013-08-10 09:20:00,
2013-08-10 05:21:00,55.2,48.7,30.47,North,0,0.0,0.0,79,0.00,,,0.00,WUHU216HW,2013-08-10 09:21:00,
2013-08-10 05:22:00,55.2,48.7,30.47,North,0,0.0,0.0,79,0.00,,,0.00,WUHU216HW,2013-08-10 09:22:00,
2013-08-10 05:23:00,55.2,48.7,30.47,North,0,0.0,0.0,79,0.00,,,0.00,WUHU216HW,2013-08-10 09:23:00,
2013-08-10 05:24:00,55.2,48.7,30.47,North,0,0.0,0.0,79,0.00,,,0.00,WUHU216HW,2013-08-10 09:24:00,
2013-08-10 05:25:00,55.2,48.7,30.47,North,0,0.0,0.0,79,0.00,,,0.00,WUHU216HW,2013-08-10 09:25:00,
2013-08-10 05:26:00,55.2,48.7,30.47,North,0,0.0,0.0,79,0.00,,,0.00,WUHU216HW,2013-08-10 09:26:00,
2013-08-10 05:27:00,55.2,48.7,30.47,North,0,0.0,0.0,79,0.00,,,0.00,WUHU216HW,2013-08-10 09:27:00,
2013-08-10 05:28:00,55.2,48.7,30.47,North,0,0.0,0.0,79,0.00,,,0.00,WUHU216HW,2013-08-10 09:28:00,
2013-08-10 05:29:00,55.2,48.7,30.47,North,0,0.0,0.0,79,0.00,,,0.00,WUHU216HW,2013-08-10 09:29:00,
2013-08-10 05:30:00,55.2,48.7,30.47,North,0,0.0,0.0,79,0.00,,,0.00,WUHU216HW,2013-08-10 09:30:00,
2013-08-10 05:31:00,55.2,48.7,30.47,North,0,0.0,0.0,79,0.00,,,0.00,WUHU216HW,2013-08-10 09:31:00,
2013-08-10 05:32:00,55.2,48.7,30.47,North,0,0.0,0.0,79,0.00,,,0.00,WUHU216HW,2013-08-10 09:32:00,
2013-08-10 05:33:00,55.2,48.7,30.47,North,0,0.0,0.0,79,0.00,,,0.00,WUHU216HW,2013-08-10 09:33:00,
2013-08-10 05:34:00,55.2,48.7,30.47,North,0,0.0,0.0,79,0.00,,,0.00,WUHU216HW,2013-08-10 09:34:00,
2013-08-10 05:35:00,55.2,48.7,30.47,North,0,0.0,0.0,79,0.00,,,0.00,WUHU216HW,2013-08-10 09:35:00,
2013-08-10 05:36:00,55.2,48.7,30.47,North,0,0.0,0.0,79,0.00,,,0.00,WUHU216HW,2013-08-10 09:36:00,
2013-08-10 05:37:00,55.2,48.7,30.47,North,0,0.0,0.0,79,0.00,,,0.00,WUHU216HW,2013-08-10 09:37:00,
2013-08-10 05:38:00,55.2,48.7,30.47,North,0,0.0,0.0,79,0.00,,,0.00,WUHU216HW,2013-08-10 09:38:00,
2013-08-10 05:39:00,55.2,48.7,30.47,North,0,0.0,0.0,79,0.00,,,0.00,WUHU216HW,2013-08-10 09:39:00,
2013-08-10 05:40:00,55.2,48.7,30.47,North,0,0.0,0.0,79,0.00,,,0.00,WUHU216HW,2013-08-10 09:40:00,
2013-08-10 05:41:00,55.2,48.7,30.47,North,0,0.0,0.0,79,0.00,,,0.00,WUHU216HW,2013-08-10 09:41:00,
2013-08-10 05:42:00,55.2,48.7,30.47,North,0,0.0,0.0,79,0.00,,,0.00,WUHU216HW,2013-08-10 09:42:00,
2013-08-10 05:43:00,55.2,48.7,30.47,North,0,0.0,0.0,79,0.00,,,0.00,WUHU216HW,2013-08-10 09:43:00,
2013-08-10 05:44:00,55.2,48.7,30.47,North,0,0.0,0.0,79,0.00,,,0.00,WUHU216HW,2013-08-10 09:44:00,
2013-08-10 05:45:00,55.2,48.7,30.47,North,0,0.0,0.0,79,0.00,,,0.00,WUHU216HW,2013-08-10 09:45:00,
2013-08-10 05:46:00,55.2,48.7,30.47,North,0,0.0,0.0,79,0.00,,,0.00,WUHU216HW,2013-08-10 09:46:00,
2013-08-10 05:47:00,55.2,48.7,30.47,North,0,0.0,0.0,79,0.00,,,0.00,WUHU216HW,2013-08-10 09:47:00,
2013-08-10 05:48:00,55.2,48.7,30.47,North,0,0.0,0.0,79,0.00,,,0.00,WUHU216HW,2013-08-10 09:48:00,
2013-08-10 05:49:00,55.2,48.7,30.47,North,0,0.0,0.0,79,0.00,,,0.00,WUHU216HW,2013-08-10 09:49:00,
2013-08-10 05:50:00,55.2,48.7,30.47,North,0,0.0,0.0,79,0.00,,,0.00,WUHU216HW,2013-08-10 09:50:00,
2013-08-10 05:51:00,55.2,48.7,30.47,North,0,0.0,0.0,79,0.00,,,0.00,WUHU216HW,2013-08-10 09:51:00,
2013-08-10 05:52:00,55.2,48.7,30.47,North,0,0.0,0.0,79,0.00,,,0.00,WUHU216HW,2013-08-10 09:52:00,
2013-08-10 05:53:00,55.2,48.7,30.47,North,0,0.0,0.0,79,0.00,,,0.00,WUHU216HW,2013-08-10 09:53:00,
2013-08-10 05:54:00,55.2,48.7,30.47,North,0,0.0,0.0,79,0.00,,,0.00,WUHU216HW,2013-08-10 09:54:00,
2013-08-10 05:55:00,55.2,48.7,30.47,North,0,0.0,0.0,79,0.00,,,0.00,WUHU216HW,2013-08-10 09:55:00,
2013-08-10 05:56:00,55.2,48.7,30.47,North,0,0.0,0.0,79,0.00,,,0.00,WUHU216HW,2013-08-10 09:56:00,
2013-08-10 05:57:00,55.2,48.7,30.47,North,0,0.0,0.0,79,0.00,,,0.00,WUHU216HW,2013-08-10 09:57:00,
2013-08-10 05:58:00,55.2,48.7,30.47,North,0,0.0,0.0,79,0.00,,,0.00,WUHU216HW,2013-08-10 09:58:00,
2013-08-10 05:59:00,55.2,48.7,30.47,North,0,0.0,0.0,79,0.00,,,0.00,WUHU216HW,2013-08-10 09:59:00,
2013-08-10 06:00:00,55.2,48.7,30.47,North,0,0.0,0.0,79,0.00,,,0.00,WUHU216HW,2013-08-10 10:00:00,
2013-08-10 06:01:00,55.2,48.7,30.47,North,0,0.0,0.0,79,0.00,,,0.00,WUHU216HW,2013-08-10 10:01:00,
2013-08-10 06:02:00,55.2,48.7,30.47,North,0,0.0,0.0,79,0.00,,,0.00,WUHU216HW,2013-08-10 10:02:00,
2013-08-10 06:03:00,55.2,48.7,30.48,North,0,0.0,0.0,79,0.00,,,0.00,WUHU216HW,2013-08-10 10:03:00,
2013-08-10 06:04:00,55.2,48.7,30.47,North,0,0.0,0.0,79,0.00,,,0.00,WUHU216HW,2013-08-10 10:04:00,
2013-08-10 06:05:00,55.2,48.7,30.48,North,0,0.0,0.0,79,0.00,,,0.00,WUHU216HW,2013-08-10 10:05:00,
2013-08-10 06:06:00,55.2,48.7,30.47,North,0,0.0,0.0,79,0.00,,,0.00,WUHU216HW,2013-08-10 10:06:00,
2013-08-10 06:07:00,55.2,48.7,30.47,North,0,0.0,0.0,79,0.00,,,0.00,WUHU216HW,2013-08-10 10:07:00,
2013-08-10 06:08:00,55.2,48.7,30.48,North,0,0.0,0.0,79,0.00,,,0.00,WUHU216HW,2013-08-10 10:08:00,
2013-08-10 06:09:00,55.2,48.7,30.48,North,0,0.0,0.0,79,0.00,,,0.00,WUHU216HW,2013-08-10 10:09:00,
2013-08-10 06:10:00,55.0,48.5,30.47,North,0,0.0,0.0,79,0.00,,,0.00,WUHU216HW,2013-08-10 10:10:00,
2013-08-10 06:11:00,55.0,48.5,30.48,North,0,0.0,0.0,79,0.00,,,0.00,WUHU216HW,2013-08-10 10:11:00,
2013-08-10 06:12:00,55.0,48.5,30.48,North,0,0.0,0.0,79,0.00,,,0.00,WUHU216HW,2013-08-10 10:12:00,
2013-08-10 06:13:00,55.0,48.5,30.48,North,0,0.0,0.0,79,0.00,,,0.00,WUHU216HW,2013-08-10 10:13:00,
2013-08-10 06:14:00,54.8,48.4,30.48,North,0,0.0,0.0,79,0.00,,,0.00,WUHU216HW,2013-08-10 10:14:00,
2013-08-10 06:15:00,54.8,48.4,30.47,North,0,0.0,0.0,79,0.00,,,0.00,WUHU216HW,2013-08-10 10:15:00,
2013-08-10 06:16:00,54.8,48.4,30.48,North,0,0.0,0.0,79,0.00,,,0.00,WUHU216HW,2013-08-10 10:16:00,
2013-08-10 06:17:00,54.6,48.2,30.48,North,0,0.0,0.0,79,0.00,,,0.00,WUHU216HW,2013-08-10 10:17:00,
2013-08-10 06:18:00,54.6,48.2,30.48,North,0,0.0,0.0,79,0.00,,,0.00,WUHU216HW,2013-08-10 10:18:00,
2013-08-10 06:19:00,54.5,48.1,30.48,North,0,0.0,0.0,79,0.00,,,0.00,WUHU216HW,2013-08-10 10:19:00,
2013-08-10 06:20:00,54.5,48.1,30.48,North,0,0.0,0.0,79,0.00,,,0.00,WUHU216HW,2013-08-10 10:20:00,
2013-08-10 06:21:00,54.3,47.9,30.48,North,0,0.0,0.0,79,0.00,,,0.00,WUHU216HW,2013-08-10 10:21:00,
2013-08-10 06:22:00,54.3,47.9,30.48,North,0,0.0,0.0,79,0.00,,,0.00,WUHU216HW,2013-08-10 10:22:00,
2013-08-10 06:23:00,54.3,47.9,30.48,North,0,0.0,0.0,79,0.00,,,0.00,WUHU216HW,2013-08-10 10:23:00,
2013-08-10 06:24:00,54.3,47.9,30.48,North,0,0.0,0.0,79,0.00,,,0.00,WUHU216HW,2013-08-10 10:24:00,
2013-08-10 06:25:00,54.1,47.7,30.48,North,0,0.0,0.0,79,0.00,,,0.00,WUHU216HW,2013-08-10 10:25:00,
2013-08-10 06:26:00,54.1,47.7,30.48,North,0,0.0,0.0,79,0.00,,,0.00,WUHU216HW,2013-08-10 10:26:00,
2013-08-10 06:27:00,54.1,47.7,30.48,North,0,0.0,0.0,79,0.00,,,0.00,WUHU216HW,2013-08-10 10:27:00,
2013-08-10 06:28:00,54.1,47.7,30.48,North,0,0.0,0.0,79,0.00,,,0.00,WUHU216HW,2013-08-10 10:28:00,
2013-08-10 06:29:00,54.1,47.7,30.48,North,0,0.0,0.0,79,0.00,,,0.00,WUHU216HW,2013-08-10 10:29:00,
2013-08-10 06:30:00,53.9,47.6,30.48,North,0,0.0,0.0,79,0.00,,,0.00,WUHU216HW,2013-08-10 10:30:00,
2013-08-10 06:31:00,53.9,47.6,30.48,North,0,0.0,0.0,79,0.00,,,0.00,WUHU216HW,2013-08-10 10:31:00,
2013-08-10 06:32:00,53.7,47.4,30.49,North,0,0.0,0.0,79,0.00,,,0.00,WUHU216HW,2013-08-10 10:32:00,
2013-08-10 06:33:00,53.7,47.4,30.48,North,0,0.0,0.0,79,0.00,,,0.00,WUHU216HW,2013-08-10 10:33:00,
2013-08-10 06:34:00,53.7,47.4,30.49,North,0,0.0,0.0,79,0.00,,,0.00,WUHU216HW,2013-08-10 10:34:00,
2013-08-10 06:35:00,53.7,47.4,30.49,North,0,0.0,0.0,79,0.00,,,0.00,WUHU216HW,2013-08-10 10:35:00,
2013-08-10 06:36:00,53.7,47.4,30.49,North,0,0.0,0.0,79,0.00,,,0.00,WUHU216HW,2013-08-10 10:36:00,
2013-08-10 06:37:00,53.7,47.4,30.49,North,0,0.0,0.0,79,0.00,,,0.00,WUHU216HW,2013-08-10 10:37:00,
2013-08-10 06:38:00,53.7,47.8,30.49,North,0,0.0,0.0,80,0.00,,,0.00,WUHU216HW,2013-08-10 10:38:00,
2013-08-10 06:39:00,53.7,47.8,30.49,North,0,0.0,0.0,80,0.00,,,0.00,WUHU216HW,2013-08-10 10:39:00,
2013-08-10 06:40:00,53.4,47.4,30.49,North,0,0.0,0.0,80,0.00,,,0.00,WUHU216HW,2013-08-10 10:40:00,
2013-08-10 06:41:00,53.4,47.4,30.49,North,0,0.0,0.0,80,0.00,,,0.00,WUHU216HW,2013-08-10 10:41:00,
2013-08-10 06:42:00,53.4,47.4,30.49,North,0,0.0,0.0,80,0.00,,,0.00,WUHU216HW,2013-08-10 10:42:00,
2013-08-10 06:43:00,53.4,47.4,30.49,North,0,0.0,0.0,80,0.00,,,0.00,WUHU216HW,2013-08-10 10:43:00,
2013-08-10 06:44:00,53.4,47.4,30.49,North,0,0.0,0.0,80,0.00,,,0.00,WUHU216HW,2013-08-10 10:44:00,
2013-08-10 06:45:00,53.4,47.4,30.49,North,0,0.0,0.0,80,0.00,,,0.00,WUHU216HW,2013-08-10 10:45:00,
2013-08-10 06:46:00,53.4,47.4,30.49,North,0,0.0,0.0,80,0.00,,,0.00,WUHU216HW,2013-08-10 10:46:00,
2013-08-10 06:47:00,53.4,47.4,30.49,North,0,0.0,0.0,80,0.00,,,0.00,WUHU216HW,2013-08-10 10:47:00,
2013-08-10 06:48:00,53.4,47.4,30.49,North,0,0.0,0.0,80,0.00,,,0.00,WUHU216HW,2013-08-10 10:48:00,
2013-08-10 06:49:00,53.4,47.4,30.49,North,0,0.0,0.0,80,0.00,,,0.00,WUHU216HW,2013-08-10 10:49:00,
2013-08-10 06:50:00,53.4,47.4,30.49,North,0,0.0,0.0,80,0.00,,,0.00,WUHU216HW,2013-08-10 10:50:00,
2013-08-10 06:51:00,53.4,47.4,30.49,North,0,0.0,0.0,80,0.00,,,0.00,WUHU216HW,2013-08-10 10:51:00,
2013-08-10 06:52:00,53.4,47.4,30.49,North,0,0.0,0.0,80,0.00,,,0.00,WUHU216HW,2013-08-10 10:52:00,
2013-08-10 06:53:00,53.4,47.4,30.49,North,0,0.0,0.0,80,0.00,,,0.00,WUHU216HW,2013-08-10 10:53:00,
2013-08-10 06:54:00,53.4,47.4,30.49,North,0,0.0,0.0,80,0.00,,,0.00,WUHU216HW,2013-08-10 10:54:00,
2013-08-10 06:55:00,53.2,47.3,30.49,North,0,0.0,0.0,80,0.00,,,0.00,WUHU216HW,2013-08-10 10:55:00,
2013-08-10 06:56:00,53.2,47.3,30.49,North,0,0.0,0.0,80,0.00,,,0.00,WUHU216HW,2013-08-10 10:56:00,
2013-08-10 06:57:00,53.2,47.3,30.49,North,0,0.0,0.0,80,0.00,,,0.00,WUHU216HW,2013-08-10 10:57:00,
2013-08-10 06:58:00,53.2,47.3,30.49,North,0,0.0,0.0,80,0.00,,,0.00,WUHU216HW,2013-08-10 10:58:00,
2013-08-10 06:59:00,53.2,47.3,30.49,North,0,0.0,0.0,80,0.00,,,0.00,WUHU216HW,2013-08-10 10:59:00,
2013-08-10 07:00:00,53.2,47.3,30.49,North,0,0.0,0.0,80,0.00,,,0.00,WUHU216HW,2013-08-10 11:00:00,
2013-08-10 07:01:00,52.8,46.9,30.49,North,0,0.0,0.0,80,0.00,,,0.00,WUHU216HW,2013-08-10 11:01:00,
2013-08-10 07:02:00,52.8,46.9,30.49,North,0,0.0,0.0,80,0.00,,,0.00,WUHU216HW,2013-08-10 11:02:00,
2013-08-10 07:03:00,52.8,46.9,30.50,North,0,0.0,0.0,80,0.00,,,0.00,WUHU216HW,2013-08-10 11:03:00,
2013-08-10 07:04:00,52.8,46.9,30.50,North,0,0.0,0.0,80,0.00,,,0.00,WUHU216HW,2013-08-10 11:04:00,
2013-08-10 07:05:00,52.8,46.9,30.50,North,0,0.0,0.0,80,0.00,,,0.00,WUHU216HW,2013-08-10 11:05:00,
2013-08-10 07:06:00,52.8,46.9,30.50,North,0,0.0,0.0,80,0.00,,,0.00,WUHU216HW,2013-08-10 11:06:00,
2013-08-10 07:07:00,52.8,46.9,30.49,North,0,0.0,0.0,80,0.00,,,0.00,WUHU216HW,2013-08-10 11:07:00,
2013-08-10 07:08:00,52.8,46.9,30.49,North,0,0.0,0.0,80,0.00,,,0.00,WUHU216HW,2013-08-10 11:08:00,
2013-08-10 07:09:00,52.8,46.9,30.49,North,0,0.0,0.0,80,0.00,,,0.00,WUHU216HW,2013-08-10 11:09:00,
2013-08-10 07:10:00,52.8,46.9,30.50,North,0,0.0,0.0,80,0.00,,,0.00,WUHU216HW,2013-08-10 11:10:00,
2013-08-10 07:11:00,52.8,46.9,30.50,North,0,0.0,0.0,80,0.00,,,0.00,WUHU216HW,2013-08-10 11:11:00,
2013-08-10 07:12:00,52.8,46.9,30.50,North,0,0.0,0.0,80,0.00,,,0.00,WUHU216HW,2013-08-10 11:12:00,
2013-08-10 07:13:00,52.8,46.9,30.49,North,0,0.0,0.0,80,0.00,,,0.00,WUHU216HW,2013-08-10 11:13:00,
2013-08-10 07:14:00,52.8,46.9,30.49,North,0,0.0,0.0,80,0.00,,,0.00,WUHU216HW,2013-08-10 11:14:00,
2013-08-10 07:15:00,52.8,46.9,30.49,North,0,0.0,0.0,80,0.00,,,0.00,WUHU216HW,2013-08-10 11:15:00,
2013-08-10 07:16:00,52.8,46.9,30.49,North,0,0.0,0.0,80,0.00,,,0.00,WUHU216HW,2013-08-10 11:16:00,
2013-08-10 07:17:00,52.8,46.9,30.49,North,0,0.0,0.0,80,0.00,,,0.00,WUHU216HW,2013-08-10 11:17:00,
2013-08-10 07:18:00,52.8,46.9,30.50,North,0,0.0,0.0,80,0.00,,,0.00,WUHU216HW,2013-08-10 11:18:00,
2013-08-10 07:19:00,52.7,46.7,30.49,North,0,0.0,0.0,80,0.00,,,0.00,WUHU216HW,2013-08-10 11:19:00,
2013-08-10 07:20:00,52.7,46.7,30.50,North,0,0.0,0.0,80,0.00,,,0.00,WUHU216HW,2013-08-10 11:20:00,
2013-08-10 07:21:00,52.7,47.0,30.49,North,0,0.0,0.0,81,0.00,,,0.00,WUHU216HW,2013-08-10 11:21:00,
2013-08-10 07:22:00,52.7,47.0,30.49,North,0,0.0,0.0,81,0.00,,,0.00,WUHU216HW,2013-08-10 11:22:00,
2013-08-10 07:23:00,52.5,46.8,30.50,North,0,0.0,0.0,81,0.00,,,0.00,WUHU216HW,2013-08-10 11:23:00,
2013-08-10 07:24:00,52.5,46.8,30.50,North,0,0.0,0.0,81,0.00,,,0.00,WUHU216HW,2013-08-10 11:24:00,
2013-08-10 07:25:00,52.5,46.8,30.50,North,0,0.0,0.0,81,0.00,,,0.00,WUHU216HW,2013-08-10 11:25:00,
2013-08-10 07:26:00,52.5,46.8,30.50,North,0,0.0,0.0,81,0.00,,,0.00,WUHU216HW,2013-08-10 11:26:00,
2013-08-10 07:27:00,52.7,47.0,30.50,North,0,0.0,0.0,81,0.00,,,0.00,WUHU216HW,2013-08-10 11:27:00,
2013-08-10 07:28:00,52.7,47.0,30.50,North,0,0.0,0.0,81,0.00,,,0.00,WUHU216HW,2013-08-10 11:28:00,
2013-08-10 07:29:00,52.7,47.0,30.50,North,0,0.0,0.0,81,0.00,,,0.00,WUHU216HW,2013-08-10 11:29:00,
2013-08-10 07:30:00,52.7,47.0,30.50,North,0,0.0,0.0,81,0.00,,,0.00,WUHU216HW,2013-08-10 11:30:00,
2013-08-10 07:31:00,52.7,47.0,30.50,North,0,0.0,0.0,81,0.00,,,0.00,WUHU216HW,2013-08-10 11:31:00,
2013-08-10 07:32:00,52.7,47.0,30.50,North,0,0.0,0.0,81,0.00,,,0.00,WUHU216HW,2013-08-10 11:32:00,
2013-08-10 07:33:00,52.7,47.0,30.50,North,0,0.0,0.0,81,0.00,,,0.00,WUHU216HW,2013-08-10 11:33:00,
2013-08-10 07:34:00,52.7,47.3,30.50,North,0,0.0,0.0,82,0.00,,,0.00,WUHU216HW,2013-08-10 11:34:00,
2013-08-10 07:35:00,52.7,47.3,30.50,North,0,0.0,0.0,82,0.00,,,0.00,WUHU216HW,2013-08-10 11:35:00,
2013-08-10 07:36:00,52.8,47.5,30.50,North,0,0.0,0.0,82,0.00,,,0.00,WUHU216HW,2013-08-10 11:36:00,
2013-08-10 07:37:00,52.8,47.5,30.50,North,0,0.0,0.0,82,0.00,,,0.00,WUHU216HW,2013-08-10 11:37:00,
2013-08-10 07:38:00,52.8,47.5,30.50,North,0,0.0,0.0,82,0.00,,,0.00,WUHU216HW,2013-08-10 11:38:00,
2013-08-10 07:39:00,52.8,47.5,30.50,North,0,0.0,0.0,82,0.00,,,0.00,WUHU216HW,2013-08-10 11:39:00,
2013-08-10 07:40:00,52.8,47.5,30.50,North,0,0.0,0.0,82,0.00,,,0.00,WUHU216HW,2013-08-10 11:40:00,
2013-08-10 07:41:00,52.8,47.5,30.50,North,0,0.0,0.0,82,0.00,,,0.00,WUHU216HW,2013-08-10 11:41:00,
2013-08-10 07:42:00,52.8,47.5,30.50,North,0,0.0,0.0,82,0.00,,,0.00,WUHU216HW,2013-08-10 11:42:00,
2013-08-10 07:43:00,52.8,47.5,30.50,North,0,0.0,0.0,82,0.00,,,0.00,WUHU216HW,2013-08-10 11:43:00,
2013-08-10 07:44:00,52.8,47.5,30.50,North,0,0.0,0.0,82,0.00,,,0.00,WUHU216HW,2013-08-10 11:44:00,
2013-08-10 07:45:00,52.8,47.5,30.50,North,0,0.0,0.0,82,0.00,,,0.00,WUHU216HW,2013-08-10 11:45:00,
2013-08-10 07:46:00,52.8,47.5,30.50,North,0,0.0,0.0,82,0.00,,,0.00,WUHU216HW,2013-08-10 11:46:00,
2013-08-10 07:47:00,52.8,47.5,30.50,North,0,0.0,0.0,82,0.00,,,0.00,WUHU216HW,2013-08-10 11:47:00,
2013-08-10 07:48:00,52.8,47.5,30.50,North,0,0.0,0.0,82,0.00,,,0.00,WUHU216HW,2013-08-10 11:48:00,
2013-08-10 07:49:00,52.8,47.5,30.50,North,0,0.0,0.0,82,0.00,,,0.00,WUHU216HW,2013-08-10 11:49:00,
2013-08-10 07:50:00,52.8,47.5,30.50,North,0,0.0,0.0,82,0.00,,,0.00,WUHU216HW,2013-08-10 11:50:00,
2013-08-10 07:51:00,52.8,47.5,30.50,North,0,0.0,0.0,82,0.00,,,0.00,WUHU216HW,2013-08-10 11:51:00,
2013-08-10 07:52:00,52.8,47.5,30.50,North,0,0.0,0.0,82,0.00,,,0.00,WUHU216HW,2013-08-10 11:52:00,
2013-08-10 07:53:00,52.8,47.5,30.50,North,0,0.0,0.0,82,0.00,,,0.00,WUHU216HW,2013-08-10 11:53:00,
2013-08-10 07:54:00,52.8,47.5,30.50,North,0,0.0,0.0,82,0.00,,,0.00,WUHU216HW,2013-08-10 11:54:00,
2013-08-10 07:55:00,53.2,47.9,30.50,North,0,0.0,0.0,82,0.00,,,0.00,WUHU216HW,2013-08-10 11:55:00,
2013-08-10 07:56:00,53.2,47.9,30.50,North,0,0.0,0.0,82,0.00,,,0.00,WUHU216HW,2013-08-10 11:56:00,
2013-08-10 07:57:00,53.2,47.9,30.50,North,0,0.0,0.0,82,0.00,,,0.00,WUHU216HW,2013-08-10 11:57:00,
2013-08-10 07:58:00,53.2,47.9,30.50,North,0,0.0,0.0,82,0.00,,,0.00,WUHU216HW,2013-08-10 11:58:00,
2013-08-10 07:59:00,53.2,47.9,30.50,North,0,0.0,0.0,82,0.00,,,0.00,WUHU216HW,2013-08-10 11:59:00,
2013-08-10 08:00:00,53.2,47.9,30.50,North,0,0.0,0.0,82,0.00,,,0.00,WUHU216HW,2013-08-10 12:00:00,
2013-08-10 08:01:00,53.4,47.9,30.50,North,0,0.0,0.0,82,0.00,,,0.00,WUHU216HW,2013-08-10 12:01:00,
2013-08-10 08:02:00,53.4,48.0,30.51,North,0,0.0,0.0,82,0.00,,,0.00,WUHU216HW,2013-08-10 12:02:00,
2013-08-10 08:03:00,53.4,48.0,30.50,North,0,0.0,0.0,82,0.00,,,0.00,WUHU216HW,2013-08-10 12:03:00,
2013-08-10 08:04:00,53.4,48.0,30.50,North,0,0.0,0.0,82,0.00,,,0.00,WUHU216HW,2013-08-10 12:04:00,
2013-08-10 08:05:00,53.4,48.0,30.51,North,0,0.0,0.0,82,0.00,,,0.00,WUHU216HW,2013-08-10 12:05:00,
2013-08-10 08:06:00,53.4,48.0,30.51,North,0,0.0,0.0,82,0.00,,,0.00,WUHU216HW,2013-08-10 12:06:00,
2013-08-10 08:07:00,53.4,48.0,30.50,North,0,0.0,0.0,82,0.00,,,0.00,WUHU216HW,2013-08-10 12:07:00,
2013-08-10 08:08:00,53.7,48.4,30.51,North,0,0.0,0.0,82,0.00,,,0.00,WUHU216HW,2013-08-10 12:08:00,
2013-08-10 08:09:00,53.7,48.4,30.51,North,0,0.0,0.0,82,0.00,,,0.00,WUHU216HW,2013-08-10 12:09:00,
2013-08-10 08:10:00,53.9,48.5,30.51,North,0,0.0,0.0,82,0.00,,,0.00,WUHU216HW,2013-08-10 12:10:00,
2013-08-10 08:11:00,53.9,48.5,30.50,North,0,0.0,0.0,82,0.00,,,0.00,WUHU216HW,2013-08-10 12:11:00,
2013-08-10 08:12:00,54.1,48.7,30.50,North,0,0.0,0.0,82,0.00,,,0.00,WUHU216HW,2013-08-10 12:12:00,
2013-08-10 08:13:00,54.1,48.7,30.50,North,0,0.0,0.0,82,0.00,,,0.00,WUHU216HW,2013-08-10 12:13:00,
2013-08-10 08:14:00,54.3,48.9,30.51,North,0,0.0,0.0,82,0.00,,,0.00,WUHU216HW,2013-08-10 12:14:00,
2013-08-10 08:15:00,54.3,48.9,30.50,North,0,0.0,0.0,82,0.00,,,0.00,WUHU216HW,2013-08-10 12:15:00,
2013-08-10 08:16:00,54.3,48.7,30.50,North,0,0.0,0.0,81,0.00,,,0.00,WUHU216HW,2013-08-10 12:16:00,
2013-08-10 08:17:00,54.5,48.7,30.50,North,0,0.0,0.0,81,0.00,,,0.00,WUHU216HW,2013-08-10 12:17:00,
2013-08-10 08:18:00,54.5,48.7,30.50,North,0,0.0,0.0,81,0.00,,,0.00,WUHU216HW,2013-08-10 12:18:00,
2013-08-10 08:19:00,54.6,48.9,30.50,North,0,0.0,0.0,81,0.00,,,0.00,WUHU216HW,2013-08-10 12:19:00,
2013-08-10 08:20:00,54.6,48.9,30.50,North,0,0.0,0.0,81,0.00,,,0.00,WUHU216HW,2013-08-10 12:20:00,
2013-08-10 08:21:00,54.8,49.1,30.50,North,0,0.0,0.0,81,0.00,,,0.00,WUHU216HW,2013-08-10 12:21:00,
2013-08-10 08:22:00,54.8,49.1,30.50,North,0,0.0,0.0,81,0.00,,,0.00,WUHU216HW,2013-08-10 12:22:00,
2013-08-10 08:23:00,55.0,49.2,30.50,North,0,0.0,0.0,81,0.00,,,0.00,WUHU216HW,2013-08-10 12:23:00,
2013-08-10 08:24:00,55.0,49.2,30.50,North,0,0.0,0.0,81,0.00,,,0.00,WUHU216HW,2013-08-10 12:24:00,
2013-08-10 08:25:00,55.2,49.1,30.51,North,0,0.0,0.0,80,0.00,,,0.00,WUHU216HW,2013-08-10 12:25:00,
2013-08-10 08:26:00,55.2,49.1,30.51,North,0,0.0,0.0,80,0.00,,,0.00,WUHU216HW,2013-08-10 12:26:00,
2013-08-10 08:27:00,55.2,49.1,30.50,North,0,0.0,0.0,80,0.00,,,0.00,WUHU216HW,2013-08-10 12:27:00,
2013-08-10 08:28:00,55.2,49.1,30.50,North,0,0.0,0.0,80,0.00,,,0.00,WUHU216HW,2013-08-10 12:28:00,
2013-08-10 08:29:00,55.4,48.9,30.50,North,0,0.0,0.0,79,0.00,,,0.00,WUHU216HW,2013-08-10 12:29:00,
2013-08-10 08:30:00,55.4,48.9,30.51,North,0,0.0,0.0,79,0.00,,,0.00,WUHU216HW,2013-08-10 12:30:00,
2013-08-10 08:31:00,55.5,49.1,30.50,North,0,0.0,0.0,79,0.00,,,0.00,WUHU216HW,2013-08-10 12:31:00,
2013-08-10 08:32:00,55.5,49.1,30.50,North,0,0.0,0.0,79,0.00,,,0.00,WUHU216HW,2013-08-10 12:32:00,
2013-08-10 08:33:00,55.5,49.1,30.50,North,0,0.0,0.0,79,0.00,,,0.00,WUHU216HW,2013-08-10 12:33:00,
2013-08-10 08:34:00,55.7,48.9,30.50,North,0,0.0,0.0,78,0.00,,,0.00,WUHU216HW,2013-08-10 12:34:00,
2013-08-10 08:35:00,55.7,48.9,30.51,North,0,0.0,0.0,78,0.00,,,0.00,WUHU216HW,2013-08-10 12:35:00,
2013-08-10 08:36:00,55.9,49.1,30.50,North,0,0.0,0.0,78,0.00,,,0.00,WUHU216HW,2013-08-10 12:36:00,
2013-08-10 08:37:00,55.9,49.1,30.50,North,0,0.0,0.0,78,0.00,,,0.00,WUHU216HW,2013-08-10 12:37:00,
2013-08-10 08:38:00,56.1,49.2,30.51,North,0,0.0,0.0,78,0.00,,,0.00,WUHU216HW,2013-08-10 12:38:00,
2013-08-10 08:39:00,56.1,49.2,30.51,North,0,0.0,0.0,78,0.00,,,0.00,WUHU216HW,2013-08-10 12:39:00,
2013-08-10 08:40:00,56.1,49.2,30.51,North,0,0.0,0.0,78,0.00,,,0.00,WUHU216HW,2013-08-10 12:40:00,
2013-08-10 08:41:00,56.1,49.2,30.51,North,0,0.0,0.0,78,0.00,,,0.00,WUHU216HW,2013-08-10 12:41:00,
2013-08-10 08:42:00,56.3,49.4,30.51,North,0,0.0,0.0,78,0.00,,,0.00,WUHU216HW,2013-08-10 12:42:00,
2013-08-10 08:43:00,56.3,49.4,30.51,North,0,0.0,0.0,78,0.00,,,0.00,WUHU216HW,2013-08-10 12:43:00,
2013-08-10 08:44:00,56.3,49.1,30.51,North,0,0.0,0.0,77,0.00,,,0.00,WUHU216HW,2013-08-10 12:44:00,
2013-08-10 08:45:00,56.3,49.1,30.51,North,0,0.0,0.0,77,0.00,,,0.00,WUHU216HW,2013-08-10 12:45:00,
2013-08-10 08:46:00,56.3,49.1,30.51,North,0,0.0,0.0,77,0.00,,,0.00,WUHU216HW,2013-08-10 12:46:00,
2013-08-10 08:47:00,56.3,49.1,30.51,North,0,0.0,0.0,77,0.00,,,0.00,WUHU216HW,2013-08-10 12:47:00,
2013-08-10 08:48:00,56.3,49.2,30.51,North,0,0.0,0.0,77,0.00,,,0.00,WUHU216HW,2013-08-10 12:48:00,
2013-08-10 08:49:00,56.4,49.2,30.51,North,0,0.0,0.0,77,0.00,,,0.00,WUHU216HW,2013-08-10 12:49:00,
2013-08-10 08:50:00,56.4,49.2,30.51,North,0,0.0,0.0,77,0.00,,,0.00,WUHU216HW,2013-08-10 12:50:00,
2013-08-10 08:51:00,56.4,49.2,30.51,North,0,0.0,0.0,77,0.00,,,0.00,WUHU216HW,2013-08-10 12:51:00,
2013-08-10 08:52:00,56.4,49.2,30.51,North,0,0.0,0.0,77,0.00,,,0.00,WUHU216HW,2013-08-10 12:52:00,
2013-08-10 08:53:00,56.4,48.9,30.51,North,0,0.0,0.0,76,0.00,,,0.00,WUHU216HW,2013-08-10 12:53:00,
2013-08-10 08:54:00,56.4,48.9,30.51,North,0,0.0,0.0,76,0.00,,,0.00,WUHU216HW,2013-08-10 12:54:00,
2013-08-10 08:55:00,56.8,49.2,30.51,North,0,0.0,0.0,76,0.00,,,0.00,WUHU216HW,2013-08-10 12:55:00,
2013-08-10 08:56:00,56.8,49.2,30.51,North,0,0.0,0.0,76,0.00,,,0.00,WUHU216HW,2013-08-10 12:56:00,
2013-08-10 08:57:00,56.8,49.6,30.51,North,0,0.0,0.0,77,0.00,,,0.00,WUHU216HW,2013-08-10 12:57:00,
2013-08-10 08:58:00,56.8,49.6,30.51,North,0,0.0,0.0,77,0.00,,,0.00,WUHU216HW,2013-08-10 12:58:00,
2013-08-10 08:59:00,56.8,49.6,30.51,North,0,0.0,0.0,77,0.00,,,0.00,WUHU216HW,2013-08-10 12:59:00,
2013-08-10 09:00:00,56.8,49.6,30.51,North,0,0.0,0.0,77,0.00,,,0.00,WUHU216HW,2013-08-10 13:00:00,
2013-08-10 09:01:00,56.8,49.6,30.51,North,0,0.0,0.0,77,0.00,,,0.00,WUHU216HW,2013-08-10 13:01:00,
2013-08-10 09:02:00,56.8,49.6,30.51,North,0,0.0,0.0,77,0.00,,,0.00,WUHU216HW,2013-08-10 13:02:00,
2013-08-10 09:03:00,56.8,49.6,30.51,North,0,0.0,0.0,77,0.00,,,0.00,WUHU216HW,2013-08-10 13:03:00,
2013-08-10 09:04:00,56.8,49.6,30.51,North,0,0.0,0.0,77,0.00,,,0.00,WUHU216HW,2013-08-10 13:04:00,
2013-08-10 09:05:00,56.8,49.6,30.50,North,0,0.0,0.0,77,0.00,,,0.00,WUHU216HW,2013-08-10 13:05:00,
2013-08-10 09:06:00,56.8,49.6,30.51,North,0,0.0,0.0,77,0.00,,,0.00,WUHU216HW,2013-08-10 13:06:00,
2013-08-10 09:07:00,56.8,49.6,30.51,North,0,0.0,0.0,77,0.00,,,0.00,WUHU216HW,2013-08-10 13:07:00,
2013-08-10 09:08:00,57.0,49.8,30.51,North,0,0.0,0.0,77,0.00,,,0.00,WUHU216HW,2013-08-10 13:08:00,
2013-08-10 09:09:00,57.0,49.8,30.51,North,0,0.0,0.0,77,0.00,,,0.00,WUHU216HW,2013-08-10 13:09:00,
2013-08-10 09:10:00,57.0,49.8,30.51,North,0,0.0,0.0,77,0.00,,,0.00,WUHU216HW,2013-08-10 13:10:00,
2013-08-10 09:11:00,57.0,49.8,30.51,North,0,0.0,0.0,77,0.00,,,0.00,WUHU216HW,2013-08-10 13:11:00,
2013-08-10 09:12:00,57.0,49.4,30.51,North,0,0.0,0.0,76,0.00,,,0.00,WUHU216HW,2013-08-10 13:12:00,
2013-08-10 09:13:00,57.0,49.4,30.51,North,0,0.0,0.0,76,0.00,,,0.00,WUHU216HW,2013-08-10 13:13:00,
2013-08-10 09:14:00,57.2,49.6,30.51,North,0,0.0,0.0,76,0.00,,,0.00,WUHU216HW,2013-08-10 13:14:00,
2013-08-10 09:15:00,57.2,49.6,30.51,North,0,0.0,0.0,76,0.00,,,0.00,WUHU216HW,2013-08-10 13:15:00,
2013-08-10 09:16:00,57.3,49.8,30.51,North,0,0.0,0.0,76,0.00,,,0.00,WUHU216HW,2013-08-10 13:16:00,
2013-08-10 09:17:00,57.3,49.8,30.51,North,0,0.0,0.0,76,0.00,,,0.00,WUHU216HW,2013-08-10 13:17:00,
2013-08-10 09:18:00,57.3,49.8,30.51,North,0,0.0,0.0,76,0.00,,,0.00,WUHU216HW,2013-08-10 13:18:00,
2013-08-10 09:19:00,57.3,49.8,30.51,North,0,0.0,0.0,76,0.00,,,0.00,WUHU216HW,2013-08-10 13:19:00,
2013-08-10 09:20:00,57.3,49.8,30.51,North,0,0.0,0.0,76,0.00,,,0.00,WUHU216HW,2013-08-10 13:20:00,
2013-08-10 09:21:00,57.5,50.0,30.51,North,0,0.0,0.0,76,0.00,,,0.00,WUHU216HW,2013-08-10 13:21:00,
2013-08-10 09:22:00,57.5,50.0,30.51,North,0,0.0,0.0,76,0.00,,,0.00,WUHU216HW,2013-08-10 13:22:00,
2013-08-10 09:23:00,57.5,50.0,30.51,North,0,0.0,0.0,76,0.00,,,0.00,WUHU216HW,2013-08-10 13:23:00,
2013-08-10 09:24:00,57.5,50.0,30.51,North,0,0.0,0.0,76,0.00,,,0.00,WUHU216HW,2013-08-10 13:24:00,
2013-08-10 09:25:00,57.5,49.6,30.51,North,0,0.0,0.0,75,0.00,,,0.00,WUHU216HW,2013-08-10 13:25:00,
2013-08-10 09:26:00,57.5,49.6,30.51,North,0,0.0,0.0,75,0.00,,,0.00,WUHU216HW,2013-08-10 13:26:00,
2013-08-10 09:27:00,57.7,49.4,30.51,North,0,0.0,0.0,74,0.00,,,0.00,WUHU216HW,2013-08-10 13:27:00,
2013-08-10 09:28:00,57.7,49.4,30.51,North,0,0.0,0.0,74,0.00,,,0.00,WUHU216HW,2013-08-10 13:28:00,
2013-08-10 09:29:00,57.9,49.2,30.51,North,0,0.0,0.0,73,0.00,,,0.00,WUHU216HW,2013-08-10 13:29:00,
2013-08-10 09:30:00,57.9,49.2,30.51,North,0,0.0,0.0,73,0.00,,,0.00,WUHU216HW,2013-08-10 13:30:00,
2013-08-10 09:31:00,57.9,48.9,30.51,North,0,0.0,0.0,72,0.00,,,0.00,WUHU216HW,2013-08-10 13:31:00,
2013-08-10 09:32:00,57.9,48.9,30.51,North,0,0.0,0.0,72,0.00,,,0.00,WUHU216HW,2013-08-10 13:32:00,
2013-08-10 09:33:00,57.9,48.9,30.51,North,0,0.0,0.0,72,0.00,,,0.00,WUHU216HW,2013-08-10 13:33:00,
2013-08-10 09:34:00,58.2,49.2,30.51,North,0,0.0,0.0,72,0.00,,,0.00,WUHU216HW,2013-08-10 13:34:00,
2013-08-10 09:35:00,58.2,49.2,30.51,North,0,0.0,0.0,72,0.00,,,0.00,WUHU216HW,2013-08-10 13:35:00,
2013-08-10 09:36:00,58.2,48.9,30.51,North,0,0.0,0.0,71,0.00,,,0.00,WUHU216HW,2013-08-10 13:36:00,
2013-08-10 09:37:00,58.2,48.9,30.51,North,0,0.0,0.0,71,0.00,,,0.00,WUHU216HW,2013-08-10 13:37:00,
2013-08-10 09:38:00,58.6,49.2,30.51,North,0,0.0,0.0,71,0.00,,,0.00,WUHU216HW,2013-08-10 13:38:00,
2013-08-10 09:39:00,58.6,49.2,30.51,North,0,0.0,0.0,71,0.00,,,0.00,WUHU216HW,2013-08-10 13:39:00,
2013-08-10 09:40:00,58.8,49.1,30.51,North,0,0.0,0.0,70,0.00,,,0.00,WUHU216HW,2013-08-10 13:40:00,
2013-08-10 09:41:00,58.8,49.1,30.52,North,0,0.0,0.0,70,0.00,,,0.00,WUHU216HW,2013-08-10 13:41:00,
2013-08-10 09:42:00,58.8,49.1,30.51,North,0,0.0,0.0,70,0.00,,,0.00,WUHU216HW,2013-08-10 13:42:00,
2013-08-10 09:43:00,58.8,49.1,30.51,North,0,0.0,0.0,70,0.00,,,0.00,WUHU216HW,2013-08-10 13:43:00,
2013-08-10 09:44:00,58.8,48.6,30.51,North,0,0.0,0.0,69,0.00,,,0.00,WUHU216HW,2013-08-10 13:44:00,
2013-08-10 09:45:00,58.8,48.6,30.51,North,0,0.0,0.0,69,0.00,,,0.00,WUHU216HW,2013-08-10 13:45:00,
2013-08-10 09:46:00,59.1,48.6,30.51,North,0,0.0,0.0,69,0.00,,,0.00,WUHU216HW,2013-08-10 13:46:00,
2013-08-10 09:47:00,59.1,49.0,30.52,North,0,0.0,0.0,69,0.00,,,0.00,WUHU216HW,2013-08-10 13:47:00,
2013-08-10 09:48:00,59.3,49.2,30.52,North,0,0.0,0.0,69,0.00,,,0.00,WUHU216HW,2013-08-10 13:48:00,
2013-08-10 09:49:00,59.3,49.2,30.51,North,0,0.0,0.0,69,0.00,,,0.00,WUHU216HW,2013-08-10 13:49:00,
2013-08-10 09:50:00,59.3,49.2,30.52,North,0,0.0,0.0,69,0.00,,,0.00,WUHU216HW,2013-08-10 13:50:00,
2013-08-10 09:51:00,59.3,49.2,30.52,North,0,0.0,0.0,69,0.00,,,0.00,WUHU216HW,2013-08-10 13:51:00,
2013-08-10 09:52:00,59.3,49.2,30.52,North,0,0.0,0.0,69,0.00,,,0.00,WUHU216HW,2013-08-10 13:52:00,
2013-08-10 09:53:00,59.5,49.4,30.52,North,0,0.0,0.0,69,0.00,,,0.00,WUHU216HW,2013-08-10 13:53:00,
2013-08-10 09:54:00,59.5,49.4,30.52,North,0,0.0,0.0,69,0.00,,,0.00,WUHU216HW,2013-08-10 13:54:00,
2013-08-10 09:55:00,59.7,49.5,30.52,North,0,0.0,0.0,69,0.00,,,0.00,WUHU216HW,2013-08-10 13:55:00,
2013-08-10 09:56:00,59.7,49.5,30.52,North,0,0.0,0.0,69,0.00,,,0.00,WUHU216HW,2013-08-10 13:56:00,
2013-08-10 09:57:00,59.7,50.0,30.52,North,0,0.0,0.0,70,0.00,,,0.00,WUHU216HW,2013-08-10 13:57:00,
2013-08-10 09:58:00,59.7,50.0,30.52,North,0,0.0,0.0,70,0.00,,,0.00,WUHU216HW,2013-08-10 13:58:00,
2013-08-10 09:59:00,59.7,50.0,30.52,North,0,0.0,0.0,70,0.00,,,0.00,WUHU216HW,2013-08-10 13:59:00,
2013-08-10 10:00:00,59.7,50.0,30.52,North,0,0.0,0.0,70,0.00,,,0.00,WUHU216HW,2013-08-10 14:00:00,
2013-08-10 10:01:00,59.9,49.7,30.52,North,0,0.0,0.0,70,0.00,,,0.00,WUHU216HW,2013-08-10 14:01:00,
2013-08-10 10:02:00,59.9,49.7,30.52,North,0,0.0,0.0,69,0.00,,,0.00,WUHU216HW,2013-08-10 14:02:00,
2013-08-10 10:03:00,59.9,49.7,30.52,North,0,0.0,0.0,69,0.00,,,0.00,WUHU216HW,2013-08-10 14:03:00,
2013-08-10 10:04:00,60.0,49.5,30.52,North,0,0.0,0.0,68,0.00,,,0.00,WUHU216HW,2013-08-10 14:04:00,
2013-08-10 10:05:00,60.0,49.5,30.52,North,0,0.0,0.0,68,0.00,,,0.00,WUHU216HW,2013-08-10 14:05:00,
2013-08-10 10:06:00,60.2,49.2,30.52,North,0,0.0,0.0,67,0.00,,,0.00,WUHU216HW,2013-08-10 14:06:00,
2013-08-10 10:07:00,60.2,49.2,30.52,North,0,0.0,0.0,67,0.00,,,0.00,WUHU216HW,2013-08-10 14:07:00,
2013-08-10 10:08:00,60.4,49.0,30.52,North,0,0.0,0.0,66,0.00,,,0.00,WUHU216HW,2013-08-10 14:08:00,
2013-08-10 10:09:00,60.4,49.0,30.52,North,0,0.0,0.0,66,0.00,,,0.00,WUHU216HW,2013-08-10 14:09:00,
2013-08-10 10:10:00,60.6,49.2,30.52,North,0,0.0,0.0,66,0.00,,,0.00,WUHU216HW,2013-08-10 14:10:00,
2013-08-10 10:11:00,60.6,49.2,30.52,North,0,0.0,0.0,66,0.00,,,0.00,WUHU216HW,2013-08-10 14:11:00,
2013-08-10 10:12:00,60.6,49.2,30.52,North,0,0.0,0.0,66,0.00,,,0.00,WUHU216HW,2013-08-10 14:12:00,
2013-08-10 10:13:00,60.6,49.2,30.52,North,0,0.0,0.0,66,0.00,,,0.00,WUHU216HW,2013-08-10 14:13:00,
2013-08-10 10:14:00,60.9,49.5,30.52,North,0,0.0,0.0,66,0.00,,,0.00,WUHU216HW,2013-08-10 14:14:00,
2013-08-10 10:15:00,60.9,49.5,30.52,North,0,0.0,0.0,66,0.00,,,0.00,WUHU216HW,2013-08-10 14:15:00,
2013-08-10 10:16:00,60.9,49.7,30.52,North,0,0.0,0.0,66,0.00,,,0.00,WUHU216HW,2013-08-10 14:16:00,
2013-08-10 10:17:00,61.1,49.7,30.52,North,0,0.0,0.0,66,0.00,,,0.00,WUHU216HW,2013-08-10 14:17:00,
2013-08-10 10:18:00,61.1,49.0,30.52,North,0,0.0,0.0,66,0.00,,,0.00,WUHU216HW,2013-08-10 14:18:00,
2013-08-10 10:19:00,61.3,49.0,30.52,North,0,0.0,0.0,64,0.00,,,0.00,WUHU216HW,2013-08-10 14:19:00,
2013-08-10 10:20:00,61.3,49.0,30.52,North,0,0.0,0.0,64,0.00,,,0.00,WUHU216HW,2013-08-10 14:20:00,
2013-08-10 10:21:00,61.3,48.6,30.52,North,0,0.0,0.0,63,0.00,,,0.00,WUHU216HW,2013-08-10 14:21:00,
2013-08-10 10:22:00,61.3,48.6,30.52,North,0,0.0,0.0,63,0.00,,,0.00,WUHU216HW,2013-08-10 14:22:00,
2013-08-10 10:23:00,61.3,48.6,30.52,North,0,0.0,0.0,63,0.00,,,0.00,WUHU216HW,2013-08-10 14:23:00,
2013-08-10 10:24:00,61.3,48.6,30.52,North,0,0.0,0.0,63,0.00,,,0.00,WUHU216HW,2013-08-10 14:24:00,
2013-08-10 10:25:00,61.5,49.2,30.52,North,0,0.0,0.0,64,0.00,,,0.00,WUHU216HW,2013-08-10 14:25:00,
2013-08-10 10:26:00,61.5,49.2,30.52,North,0,0.0,0.0,64,0.00,,,0.00,WUHU216HW,2013-08-10 14:26:00,
2013-08-10 10:27:00,61.5,49.2,30.52,North,0,0.0,0.0,64,0.00,,,0.00,WUHU216HW,2013-08-10 14:27:00,
2013-08-10 10:28:00,61.5,49.2,30.52,North,0,0.0,0.0,64,0.00,,,0.00,WUHU216HW,2013-08-10 14:28:00,
2013-08-10 10:29:00,61.5,49.6,30.52,North,0,0.0,0.0,65,0.00,,,0.00,WUHU216HW,2013-08-10 14:29:00,
2013-08-10 10:30:00,61.5,49.6,30.52,North,0,0.0,0.0,65,0.00,,,0.00,WUHU216HW,2013-08-10 14:30:00,
2013-08-10 10:31:00,61.5,49.8,30.52,North,0,0.0,0.0,65,0.00,,,0.00,WUHU216HW,2013-08-10 14:31:00,
2013-08-10 10:32:00,61.7,49.8,30.52,North,0,0.0,0.0,65,0.00,,,0.00,WUHU216HW,2013-08-10 14:32:00,
2013-08-10 10:33:00,61.7,49.9,30.52,North,0,0.0,0.0,65,0.00,,,0.00,WUHU216HW,2013-08-10 14:33:00,
2013-08-10 10:34:00,61.8,49.9,30.52,North,0,0.0,0.0,65,0.00,,,0.00,WUHU216HW,2013-08-10 14:34:00,
2013-08-10 10:35:00,61.8,49.9,30.52,North,0,0.0,0.0,65,0.00,,,0.00,WUHU216HW,2013-08-10 14:35:00,
2013-08-10 10:36:00,61.8,49.9,30.52,North,0,0.0,0.0,65,0.00,,,0.00,WUHU216HW,2013-08-10 14:36:00,
2013-08-10 10:37:00,61.8,49.9,30.52,North,0,0.0,0.0,65,0.00,,,0.00,WUHU216HW,2013-08-10 14:37:00,
2013-08-10 10:38:00,61.8,49.9,30.52,North,0,0.0,0.0,65,0.00,,,0.00,WUHU216HW,2013-08-10 14:38:00,
2013-08-10 10:39:00,61.8,49.9,30.52,North,0,0.0,0.0,65,0.00,,,0.00,WUHU216HW,2013-08-10 14:39:00,
2013-08-10 10:40:00,62.0,49.7,30.53,North,0,0.0,0.0,64,0.00,,,0.00,WUHU216HW,2013-08-10 14:40:00,
2013-08-10 10:41:00,62.0,49.7,30.52,North,0,0.0,0.0,64,0.00,,,0.00,WUHU216HW,2013-08-10 14:41:00,
2013-08-10 10:42:00,62.2,49.8,30.52,North,0,0.0,0.0,64,0.00,,,0.00,WUHU216HW,2013-08-10 14:42:00,
2013-08-10 10:43:00,62.2,49.8,30.52,North,0,0.0,0.0,64,0.00,,,0.00,WUHU216HW,2013-08-10 14:43:00,
2013-08-10 10:44:00,62.2,49.8,30.52,North,0,0.0,0.0,64,0.00,,,0.00,WUHU216HW,2013-08-10 14:44:00,
2013-08-10 10:45:00,62.2,49.8,30.52,North,0,0.0,0.0,64,0.00,,,0.00,WUHU216HW,2013-08-10 14:45:00,
2013-08-10 10:46:00,62.4,49.6,30.52,North,0,0.0,0.0,63,0.00,,,0.00,WUHU216HW,2013-08-10 14:46:00,
2013-08-10 10:47:00,62.4,49.6,30.52,North,0,0.0,0.0,63,0.00,,,0.00,WUHU216HW,2013-08-10 14:47:00,
2013-08-10 10:48:00,62.4,49.6,30.53,North,0,0.0,0.0,63,0.00,,,0.00,WUHU216HW,2013-08-10 14:48:00,
2013-08-10 10:49:00,62.4,49.6,30.53,North,0,0.0,0.0,63,0.00,,,0.00,WUHU216HW,2013-08-10 14:49:00,
2013-08-10 10:50:00,62.4,49.6,30.53,North,0,0.0,0.0,63,0.00,,,0.00,WUHU216HW,2013-08-10 14:50:00,
2013-08-10 10:51:00,62.6,49.8,30.53,North,0,0.0,0.0,63,0.00,,,0.00,WUHU216HW,2013-08-10 14:51:00,
2013-08-10 10:52:00,62.6,49.8,30.52,North,0,0.0,0.0,63,0.00,,,0.00,WUHU216HW,2013-08-10 14:52:00,
2013-08-10 10:53:00,62.7,49.9,30.52,North,0,0.0,0.0,63,0.00,,,0.00,WUHU216HW,2013-08-10 14:53:00,
2013-08-10 10:54:00,62.7,49.9,30.52,North,0,0.0,0.0,63,0.00,,,0.00,WUHU216HW,2013-08-10 14:54:00,
2013-08-10 10:55:00,62.7,49.9,30.52,North,0,0.0,0.0,63,0.00,,,0.00,WUHU216HW,2013-08-10 14:55:00,
2013-08-10 10:56:00,62.7,49.9,30.52,North,0,0.0,0.0,63,0.00,,,0.00,WUHU216HW,2013-08-10 14:56:00,
2013-08-10 10:57:00,62.7,50.3,30.52,North,0,0.0,0.0,64,0.00,,,0.00,WUHU216HW,2013-08-10 14:57:00,
2013-08-10 10:58:00,62.7,50.3,30.52,North,0,0.0,0.0,64,0.00,,,0.00,WUHU216HW,2013-08-10 14:58:00,
2013-08-10 10:59:00,62.9,50.5,30.52,North,0,0.0,0.0,64,0.00,,,0.00,WUHU216HW,2013-08-10 14:59:00,
2013-08-10 11:00:00,62.9,50.5,30.53,North,0,0.0,0.0,64,0.00,,,0.00,WUHU216HW,2013-08-10 15:00:00,
2013-08-10 11:01:00,63.1,51.1,30.52,North,0,0.0,0.0,65,0.00,,,0.00,WUHU216HW,2013-08-10 15:01:00,
2013-08-10 11:02:00,63.1,51.1,30.52,North,0,0.0,0.0,65,0.00,,,0.00,WUHU216HW,2013-08-10 15:02:00,
2013-08-10 11:03:00,63.3,51.1,30.52,North,0,0.0,0.0,65,0.00,,,0.00,WUHU216HW,2013-08-10 15:03:00,
2013-08-10 11:04:00,63.3,51.3,30.52,North,0,0.0,0.0,65,0.00,,,0.00,WUHU216HW,2013-08-10 15:04:00,
2013-08-10 11:05:00,63.3,51.3,30.52,North,0,0.0,0.0,65,0.00,,,0.00,WUHU216HW,2013-08-10 15:05:00,
2013-08-10 11:06:00,63.3,51.3,30.52,North,0,0.0,0.0,65,0.00,,,0.00,WUHU216HW,2013-08-10 15:06:00,
2013-08-10 11:07:00,63.3,51.3,30.52,North,0,0.0,0.0,65,0.00,,,0.00,WUHU216HW,2013-08-10 15:07:00,
2013-08-10 11:08:00,63.5,50.6,30.52,North,0,0.0,0.0,63,0.00,,,0.00,WUHU216HW,2013-08-10 15:08:00,
2013-08-10 11:09:00,63.5,50.6,30.52,North,0,0.0,0.0,63,0.00,,,0.00,WUHU216HW,2013-08-10 15:09:00,
2013-08-10 11:10:00,63.5,50.6,30.52,North,0,0.0,0.0,63,0.00,,,0.00,WUHU216HW,2013-08-10 15:10:00,
2013-08-10 11:11:00,63.5,50.6,30.52,North,0,0.0,0.0,63,0.00,,,0.00,WUHU216HW,2013-08-10 15:11:00,
2013-08-10 11:12:00,63.6,50.7,30.52,NNW,338,0.0,0.0,63,0.00,,,0.00,WUHU216HW,2013-08-10 15:12:00,
2013-08-10 11:13:00,63.6,50.7,30.52,NNW,338,0.0,0.0,63,0.00,,,0.00,WUHU216HW,2013-08-10 15:13:00,
2013-08-10 11:14:00,63.6,50.3,30.52,NNW,338,0.0,0.0,62,0.00,,,0.00,WUHU216HW,2013-08-10 15:14:00,
2013-08-10 11:15:00,63.6,50.3,30.52,NNW,338,0.0,0.0,62,0.00,,,0.00,WUHU216HW,2013-08-10 15:15:00,
2013-08-10 11:16:00,63.6,50.3,30.52,NNW,338,0.0,0.0,62,0.00,,,0.00,WUHU216HW,2013-08-10 15:16:00,
2013-08-10 11:17:00,64.0,51.1,30.53,NNW,338,0.0,0.0,63,0.00,,,0.00,WUHU216HW,2013-08-10 15:17:00,
2013-08-10 11:18:00,64.0,50.7,30.53,NNW,338,0.0,0.0,63,0.00,,,0.00,WUHU216HW,2013-08-10 15:18:00,
2013-08-10 11:19:00,64.0,50.7,30.52,NNW,338,0.0,0.0,62,0.00,,,0.00,WUHU216HW,2013-08-10 15:19:00,
2013-08-10 11:20:00,64.0,50.7,30.52,NNW,338,0.0,0.0,62,0.00,,,0.00,WUHU216HW,2013-08-10 15:20:00,
2013-08-10 11:21:00,64.0,50.7,30.53,NNW,338,0.0,0.0,62,0.00,,,0.00,WUHU216HW,2013-08-10 15:21:00,
2013-08-10 11:22:00,64.0,50.7,30.53,NNW,338,0.0,0.0,62,0.00,,,0.00,WUHU216HW,2013-08-10 15:22:00,
2013-08-10 11:23:00,64.2,50.4,30.52,NNW,338,0.0,0.0,61,0.00,,,0.00,WUHU216HW,2013-08-10 15:23:00,
2013-08-10 11:24:00,64.2,50.4,30.52,NNW,338,0.0,0.0,61,0.00,,,0.00,WUHU216HW,2013-08-10 15:24:00,
2013-08-10 11:25:00,64.2,50.4,30.52,NNW,338,0.0,0.0,61,0.00,,,0.00,WUHU216HW,2013-08-10 15:25:00,
2013-08-10 11:26:00,64.2,50.4,30.52,NNW,338,0.0,0.0,61,0.00,,,0.00,WUHU216HW,2013-08-10 15:26:00,
2013-08-10 11:27:00,64.2,50.4,30.52,North,0,0.0,0.0,61,0.00,,,0.00,WUHU216HW,2013-08-10 15:27:00,
2013-08-10 11:28:00,64.2,50.4,30.53,North,0,0.0,0.0,61,0.00,,,0.00,WUHU216HW,2013-08-10 15:28:00,
2013-08-10 11:29:00,64.4,50.6,30.52,North,0,0.0,0.0,61,0.00,,,0.00,WUHU216HW,2013-08-10 15:29:00,
2013-08-10 11:30:00,64.4,50.6,30.52,North,0,0.0,0.0,61,0.00,,,0.00,WUHU216HW,2013-08-10 15:30:00,
2013-08-10 11:31:00,64.4,50.1,30.52,North,0,0.0,0.0,60,0.00,,,0.00,WUHU216HW,2013-08-10 15:31:00,
2013-08-10 11:32:00,64.4,50.1,30.52,North,0,0.0,0.0,60,0.00,,,0.00,WUHU216HW,2013-08-10 15:32:00,
2013-08-10 11:33:00,64.5,50.1,30.52,WSW,248,0.0,0.0,60,0.00,,,0.00,WUHU216HW,2013-08-10 15:33:00,
2013-08-10 11:34:00,64.5,50.7,30.52,WSW,248,0.0,0.0,61,0.00,,,0.00,WUHU216HW,2013-08-10 15:34:00,
2013-08-10 11:35:00,64.5,50.7,30.52,WSW,248,0.0,0.0,61,0.00,,,0.00,WUHU216HW,2013-08-10 15:35:00,
2013-08-10 11:36:00,64.5,50.7,30.52,WSW,248,0.0,0.0,61,0.00,,,0.00,WUHU216HW,2013-08-10 15:36:00,
2013-08-10 11:37:00,64.5,50.7,30.52,WSW,248,0.0,0.0,61,0.00,,,0.00,WUHU216HW,2013-08-10 15:37:00,
2013-08-10 11:38:00,64.7,50.5,30.52,WSW,248,0.0,0.0,60,0.00,,,0.00,WUHU216HW,2013-08-10 15:38:00,
2013-08-10 11:39:00,64.7,50.5,30.52,WSW,248,0.0,0.0,60,0.00,,,0.00,WUHU216HW,2013-08-10 15:39:00,
2013-08-10 11:40:00,64.9,51.1,30.52,WSW,248,0.0,0.0,61,0.00,,,0.00,WUHU216HW,2013-08-10 15:40:00,
2013-08-10 11:41:00,64.9,51.1,30.52,WSW,248,0.0,0.0,61,0.00,,,0.00,WUHU216HW,2013-08-10 15:41:00,
2013-08-10 11:42:00,65.1,51.3,30.52,WSW,248,0.0,0.0,61,0.00,,,0.00,WUHU216HW,2013-08-10 15:42:00,
2013-08-10 11:43:00,65.1,51.3,30.52,WSW,248,0.0,0.0,61,0.00,,,0.00,WUHU216HW,2013-08-10 15:43:00,
2013-08-10 11:44:00,65.3,51.4,30.52,WSW,248,0.0,0.0,61,0.00,,,0.00,WUHU216HW,2013-08-10 15:44:00,
2013-08-10 11:45:00,65.3,51.4,30.52,WSW,248,0.0,0.0,61,0.00,,,0.00,WUHU216HW,2013-08-10 15:45:00,
2013-08-10 11:46:00,65.4,51.4,30.53,WSW,248,0.0,0.0,61,0.00,,,0.00,WUHU216HW,2013-08-10 15:46:00,
2013-08-10 11:47:00,65.4,52.0,30.52,WSW,248,0.0,0.0,62,0.00,,,0.00,WUHU216HW,2013-08-10 15:47:00,
2013-08-10 11:48:00,65.4,52.0,30.52,WSW,248,0.0,0.0,62,0.00,,,0.00,WUHU216HW,2013-08-10 15:48:00,
2013-08-10 11:49:00,65.8,52.0,30.52,WSW,248,0.0,0.0,61,0.00,,,0.00,WUHU216HW,2013-08-10 15:49:00,
2013-08-10 11:50:00,65.8,52.0,30.52,WSW,248,0.0,0.0,61,0.00,,,0.00,WUHU216HW,2013-08-10 15:50:00,
2013-08-10 11:51:00,65.8,52.0,30.52,SW,225,0.0,0.0,61,0.00,,,0.00,WUHU216HW,2013-08-10 15:51:00,
2013-08-10 11:52:00,65.8,52.0,30.52,SW,225,0.0,0.0,61,0.00,,,0.00,WUHU216HW,2013-08-10 15:52:00,
2013-08-10 11:53:00,66.0,52.2,30.52,SW,225,0.0,0.0,61,0.00,,,0.00,WUHU216HW,2013-08-10 15:53:00,
2013-08-10 11:54:00,66.0,52.2,30.52,SW,225,0.0,0.0,61,0.00,,,0.00,WUHU216HW,2013-08-10 15:54:00,
2013-08-10 11:55:00,66.3,52.5,30.53,SW,225,0.0,0.0,61,0.00,,,0.00,WUHU216HW,2013-08-10 15:55:00,
2013-08-10 11:56:00,66.3,52.5,30.52,SW,225,0.0,0.0,61,0.00,,,0.00,WUHU216HW,2013-08-10 15:56:00,
2013-08-10 11:57:00,66.5,52.7,30.52,SW,225,0.0,0.0,61,0.00,,,0.00,WUHU216HW,2013-08-10 15:57:00,
2013-08-10 11:58:00,66.5,52.7,30.52,SW,225,0.0,0.0,61,0.00,,,0.00,WUHU216HW,2013-08-10 15:58:00,
2013-08-10 11:59:00,66.7,52.8,30.52,SW,225,0.0,0.0,61,0.00,,,0.00,WUHU216HW,2013-08-10 15:59:00,
2013-08-10 12:00:00,66.7,52.8,30.53,SW,225,0.0,0.0,61,0.00,,,0.00,WUHU216HW,2013-08-10 16:00:00,
2013-08-10 12:01:00,66.7,52.8,30.52,SW,225,0.0,0.0,60,0.00,,,0.00,WUHU216HW,2013-08-10 16:01:00,
2013-08-10 12:02:00,66.7,52.4,30.52,SW,225,0.0,0.0,60,0.00,,,0.00,WUHU216HW,2013-08-10 16:02:00,
2013-08-10 12:03:00,67.1,52.4,30.53,SW,225,0.0,0.0,61,0.00,,,0.00,WUHU216HW,2013-08-10 16:03:00,
2013-08-10 12:04:00,67.1,53.2,30.53,SW,225,0.0,0.0,61,0.00,,,0.00,WUHU216HW,2013-08-10 16:04:00,
2013-08-10 12:05:00,67.1,53.2,30.53,SW,225,0.0,0.0,61,0.00,,,0.00,WUHU216HW,2013-08-10 16:05:00,
2013-08-10 12:06:00,67.4,53.5,30.53,SW,225,0.0,0.0,61,0.00,,,0.00,WUHU216HW,2013-08-10 16:06:00,
2013-08-10 12:07:00,67.4,53.5,30.53,SW,225,0.0,0.0,61,0.00,,,0.00,WUHU216HW,2013-08-10 16:07:00,
2013-08-10 12:08:00,67.8,53.4,30.53,SW,225,0.0,0.0,60,0.00,,,0.00,WUHU216HW,2013-08-10 16:08:00,
2013-08-10 12:09:00,67.8,53.4,30.53,SW,225,0.0,0.0,60,0.00,,,0.00,WUHU216HW,2013-08-10 16:09:00,
2013-08-10 12:10:00,68.1,53.7,30.53,SW,225,0.0,0.0,60,0.00,,,0.00,WUHU216HW,2013-08-10 16:10:00,
2013-08-10 12:11:00,68.1,53.7,30.53,SW,225,0.0,0.0,60,0.00,,,0.00,WUHU216HW,2013-08-10 16:11:00,
2013-08-10 12:12:00,68.5,54.1,30.53,SW,225,0.0,0.0,60,0.00,,,0.00,WUHU216HW,2013-08-10 16:12:00,
2013-08-10 12:13:00,68.5,54.1,30.53,SW,225,0.0,0.0,60,0.00,,,0.00,WUHU216HW,2013-08-10 16:13:00,
2013-08-10 12:14:00,69.0,54.6,30.53,SW,225,0.0,0.0,60,0.00,,,0.00,WUHU216HW,2013-08-10 16:14:00,
2013-08-10 12:15:00,69.0,54.6,30.53,SW,225,0.0,0.0,60,0.00,,,0.00,WUHU216HW,2013-08-10 16:15:00,
2013-08-10 12:16:00,69.4,55.0,30.53,SW,225,0.0,0.0,60,0.00,,,0.00,WUHU216HW,2013-08-10 16:16:00,
2013-08-10 12:17:00,69.4,55.0,30.53,SW,225,0.0,0.0,60,0.00,,,0.00,WUHU216HW,2013-08-10 16:17:00,
2013-08-10 12:18:00,69.4,55.0,30.53,SW,225,0.0,0.0,59,0.00,,,0.00,WUHU216HW,2013-08-10 16:18:00,
2013-08-10 12:19:00,69.9,55.0,30.53,SW,225,0.0,0.0,59,0.00,,,0.00,WUHU216HW,2013-08-10 16:19:00,
2013-08-10 12:20:00,69.9,55.0,30.53,SW,225,0.0,0.0,59,0.00,,,0.00,WUHU216HW,2013-08-10 16:20:00,
2013-08-10 12:21:00,70.1,54.7,30.53,SW,225,0.0,0.0,58,0.00,,,0.00,WUHU216HW,2013-08-10 16:21:00,
2013-08-10 12:22:00,70.1,54.7,30.53,SW,225,0.0,0.0,58,0.00,,,0.00,WUHU216HW,2013-08-10 16:22:00,
2013-08-10 12:23:00,70.5,55.0,30.53,SW,225,0.0,0.0,58,0.00,,,0.00,WUHU216HW,2013-08-10 16:23:00,
2013-08-10 12:24:00,70.5,55.0,30.53,SW,225,0.0,0.0,58,0.00,,,0.00,WUHU216HW,2013-08-10 16:24:00,
2013-08-10 12:25:00,70.8,55.3,30.53,SW,225,0.0,0.0,58,0.00,,,0.00,WUHU216HW,2013-08-10 16:25:00,
2013-08-10 12:26:00,70.8,55.3,30.53,SW,225,0.0,0.0,58,0.00,,,0.00,WUHU216HW,2013-08-10 16:26:00,
2013-08-10 12:27:00,71.4,55.3,30.53,SW,225,0.0,0.0,57,0.00,,,0.00,WUHU216HW,2013-08-10 16:27:00,
2013-08-10 12:28:00,71.4,55.3,30.53,SW,225,0.0,0.0,57,0.00,,,0.00,WUHU216HW,2013-08-10 16:28:00,
2013-08-10 12:29:00,71.9,56.3,30.53,SW,225,0.0,0.0,58,0.00,,,0.00,WUHU216HW,2013-08-10 16:29:00,
2013-08-10 12:30:00,71.9,56.3,30.53,SW,225,0.0,0.0,58,0.00,,,0.00,WUHU216HW,2013-08-10 16:30:00,
2013-08-10 12:31:00,72.5,56.8,30.53,SW,225,0.0,0.0,58,0.00,,,0.00,WUHU216HW,2013-08-10 16:31:00,
2013-08-10 12:32:00,72.5,56.8,30.53,SW,225,0.0,0.0,58,0.00,,,0.00,WUHU216HW,2013-08-10 16:32:00,
2013-08-10 12:33:00,72.5,56.8,30.53,SW,225,0.0,0.0,58,0.00,,,0.00,WUHU216HW,2013-08-10 16:33:00,
2013-08-10 12:34:00,73.0,56.8,30.53,SW,225,0.0,0.0,57,0.00,,,0.00,WUHU216HW,2013-08-10 16:34:00,
2013-08-10 12:35:00,73.0,56.8,30.53,SW,225,0.0,0.0,57,0.00,,,0.00,WUHU216HW,2013-08-10 16:35:00,
2013-08-10 12:36:00,73.4,56.6,30.53,SW,225,0.0,0.0,56,0.00,,,0.00,WUHU216HW,2013-08-10 16:36:00,
2013-08-10 12:37:00,73.4,56.6,30.53,SW,225,0.0,0.0,56,0.00,,,0.00,WUHU216HW,2013-08-10 16:37:00,
2013-08-10 12:38:00,73.7,56.4,30.53,SW,225,0.0,0.0,55,0.00,,,0.00,WUHU216HW,2013-08-10 16:38:00,
2013-08-10 12:39:00,73.7,56.4,30.53,SW,225,0.0,0.0,55,0.00,,,0.00,WUHU216HW,2013-08-10 16:39:00,
2013-08-10 12:40:00,74.1,56.8,30.53,SW,225,0.0,0.0,55,0.00,,,0.00,WUHU216HW,2013-08-10 16:40:00,
2013-08-10 12:41:00,74.1,56.8,30.53,SW,225,0.0,0.0,55,0.00,,,0.00,WUHU216HW,2013-08-10 16:41:00,
2013-08-10 12:42:00,74.4,56.6,30.53,SW,225,0.0,0.0,54,0.00,,,0.00,WUHU216HW,2013-08-10 16:42:00,
2013-08-10 12:43:00,74.4,56.6,30.53,SW,225,0.0,0.0,54,0.00,,,0.00,WUHU216HW,2013-08-10 16:43:00,
2013-08-10 12:44:00,74.8,57.0,30.53,SW,225,0.0,0.0,54,0.00,,,0.00,WUHU216HW,2013-08-10 16:44:00,
2013-08-10 12:45:00,74.8,57.0,30.53,SW,225,0.0,0.0,54,0.00,,,0.00,WUHU216HW,2013-08-10 16:45:00,
2013-08-10 12:46:00,74.8,56.0,30.53,SW,225,0.0,0.0,52,0.00,,,0.00,WUHU216HW,2013-08-10 16:46:00,
2013-08-10 12:47:00,74.8,56.0,30.53,SW,225,0.0,0.0,52,0.00,,,0.00,WUHU216HW,2013-08-10 16:47:00,
2013-08-10 12:48:00,75.0,56.2,30.53,SW,225,0.0,0.0,52,0.00,,,0.00,WUHU216HW,2013-08-10 16:48:00,
2013-08-10 12:49:00,75.0,56.2,30.53,SW,225,0.0,0.0,52,0.00,,,0.00,WUHU216HW,2013-08-10 16:49:00,
2013-08-10 12:50:00,75.0,56.2,30.53,SW,225,0.0,0.0,52,0.00,,,0.00,WUHU216HW,2013-08-10 16:50:00,
2013-08-10 12:51:00,75.0,55.7,30.53,SW,225,0.0,0.0,51,0.00,,,0.00,WUHU216HW,2013-08-10 16:51:00,
2013-08-10 12:52:00,75.0,55.7,30.53,SW,225,0.0,0.0,51,0.00,,,0.00,WUHU216HW,2013-08-10 16:52:00,
2013-08-10 12:53:00,75.0,55.7,30.53,NW,315,0.0,0.0,51,0.00,,,0.00,WUHU216HW,2013-08-10 16:53:00,
2013-08-10 12:54:00,75.0,55.7,30.53,NW,315,0.0,0.0,51,0.00,,,0.00,WUHU216HW,2013-08-10 16:54:00,
2013-08-10 12:55:00,75.0,56.2,30.53,NNW,338,0.0,0.0,52,0.00,,,0.00,WUHU216HW,2013-08-10 16:55:00,
2013-08-10 12:56:00,75.0,56.2,30.53,NNW,338,0.0,0.0,52,0.00,,,0.00,WUHU216HW,2013-08-10 16:56:00,
2013-08-10 12:57:00,75.0,56.2,30.53,NNW,338,0.0,0.0,52,0.00,,,0.00,WUHU216HW,2013-08-10 16:57:00,
2013-08-10 12:58:00,75.0,56.2,30.53,NNW,338,0.0,0.0,52,0.00,,,0.00,WUHU216HW,2013-08-10 16:58:00,
2013-08-10 12:59:00,75.3,56.5,30.53,NNW,338,0.0,0.0,52,0.00,,,0.00,WUHU216HW,2013-08-10 16:59:00,
2013-08-10 13:00:00,75.3,56.5,30.53,NNW,338,0.0,0.0,52,0.00,,,0.00,WUHU216HW,2013-08-10 17:00:00,
2013-08-10 13:01:00,75.7,56.8,30.53,WNW,293,0.0,0.0,52,0.00,,,0.00,WUHU216HW,2013-08-10 17:01:00,
2013-08-10 13:02:00,75.7,56.8,30.53,WNW,293,0.0,0.0,52,0.00,,,0.00,WUHU216HW,2013-08-10 17:02:00,
2013-08-10 13:03:00,75.7,57.7,30.53,WSW,248,0.0,0.0,53,0.00,,,0.00,WUHU216HW,2013-08-10 17:03:00,
2013-08-10 13:04:00,76.1,57.7,30.53,WSW,248,0.0,0.0,53,0.00,,,0.00,WUHU216HW,2013-08-10 17:04:00,
2013-08-10 13:05:00,76.1,57.7,30.53,WSW,248,0.0,0.0,54,0.00,,,0.00,WUHU216HW,2013-08-10 17:05:00,
2013-08-10 13:06:00,76.4,58.5,30.53,WSW,248,0.0,0.0,54,0.00,,,0.00,WUHU216HW,2013-08-10 17:06:00,
2013-08-10 13:07:00,76.4,58.5,30.53,WSW,248,0.0,0.0,54,0.00,,,0.00,WUHU216HW,2013-08-10 17:07:00,
2013-08-10 13:08:00,76.8,58.8,30.53,WSW,248,0.0,0.0,54,0.00,,,0.00,WUHU216HW,2013-08-10 17:08:00,
2013-08-10 13:09:00,76.8,58.8,30.53,WSW,248,0.0,0.0,54,0.00,,,0.00,WUHU216HW,2013-08-10 17:09:00,
2013-08-10 13:10:00,77.1,58.6,30.53,WSW,248,0.0,0.0,53,0.00,,,0.00,WUHU216HW,2013-08-10 17:10:00,
2013-08-10 13:11:00,77.1,58.6,30.53,WSW,248,0.0,0.0,53,0.00,,,0.00,WUHU216HW,2013-08-10 17:11:00,
2013-08-10 13:12:00,77.5,59.0,30.53,WSW,248,0.0,0.0,53,0.00,,,0.00,WUHU216HW,2013-08-10 17:12:00,
2013-08-10 13:13:00,77.5,59.0,30.53,WSW,248,0.0,0.0,53,0.00,,,0.00,WUHU216HW,2013-08-10 17:13:00,
2013-08-10 13:14:00,77.9,59.3,30.53,WSW,248,0.0,0.0,53,0.00,,,0.00,WUHU216HW,2013-08-10 17:14:00,
2013-08-10 13:15:00,77.9,59.3,30.53,WSW,248,0.0,0.0,53,0.00,,,0.00,WUHU216HW,2013-08-10 17:15:00,
2013-08-10 13:16:00,78.0,59.5,30.52,WSW,248,0.0,0.0,53,0.00,,,0.00,WUHU216HW,2013-08-10 17:16:00,
2013-08-10 13:17:00,78.0,59.5,30.52,WSW,248,0.0,0.0,53,0.00,,,0.00,WUHU216HW,2013-08-10 17:17:00,
2013-08-10 13:18:00,78.0,60.0,30.53,WSW,248,0.0,0.0,53,0.00,,,0.00,WUHU216HW,2013-08-10 17:18:00,
2013-08-10 13:19:00,78.6,60.0,30.53,WSW,248,0.0,0.0,53,0.00,,,0.00,WUHU216HW,2013-08-10 17:19:00,
2013-08-10 13:20:00,78.6,60.0,30.53,SW,225,0.0,0.0,53,0.00,,,0.00,WUHU216HW,2013-08-10 17:20:00,
2013-08-10 13:21:00,78.6,60.0,30.53,SW,225,0.0,0.0,53,0.00,,,0.00,WUHU216HW,2013-08-10 17:21:00,
2013-08-10 13:22:00,78.6,60.0,30.52,SW,225,0.0,0.0,53,0.00,,,0.00,WUHU216HW,2013-08-10 17:22:00,
2013-08-10 13:23:00,78.9,59.8,30.53,SW,225,0.0,0.0,52,0.00,,,0.00,WUHU216HW,2013-08-10 17:23:00,
2013-08-10 13:24:00,78.9,59.8,30.52,SW,225,0.0,0.0,52,0.00,,,0.00,WUHU216HW,2013-08-10 17:24:00,
2013-08-10 13:25:00,79.3,60.1,30.52,SW,225,0.0,0.0,52,0.00,,,0.00,WUHU216HW,2013-08-10 17:25:00,
2013-08-10 13:26:00,79.3,60.1,30.53,SW,225,0.0,0.0,52,0.00,,,0.00,WUHU216HW,2013-08-10 17:26:00,
2013-08-10 13:27:00,79.5,59.8,30.52,SW,225,0.0,0.0,51,0.00,,,0.00,WUHU216HW,2013-08-10 17:27:00,
2013-08-10 13:28:00,79.5,59.8,30.52,SW,225,0.0,0.0,51,0.00,,,0.00,WUHU216HW,2013-08-10 17:28:00,
2013-08-10 13:29:00,79.5,59.2,30.52,SW,225,0.0,0.0,50,0.00,,,0.00,WUHU216HW,2013-08-10 17:29:00,
2013-08-10 13:30:00,79.5,59.2,30.52,SW,225,0.0,0.0,50,0.00,,,0.00,WUHU216HW,2013-08-10 17:30:00,
2013-08-10 13:31:00,79.5,59.2,30.52,SW,225,0.0,0.0,50,0.00,,,0.00,WUHU216HW,2013-08-10 17:31:00,
2013-08-10 13:32:00,79.5,59.2,30.52,SW,225,0.0,0.0,50,0.00,,,0.00,WUHU216HW,2013-08-10 17:32:00,
2013-08-10 13:33:00,79.5,58.0,30.52,SW,225,0.0,0.0,48,0.00,,,0.00,WUHU216HW,2013-08-10 17:33:00,
2013-08-10 13:34:00,79.5,58.0,30.52,SW,225,0.0,0.0,48,0.00,,,0.00,WUHU216HW,2013-08-10 17:34:00,
2013-08-10 13:35:00,79.5,58.0,30.52,SW,225,0.0,0.0,48,0.00,,,0.00,WUHU216HW,2013-08-10 17:35:00,
2013-08-10 13:36:00,79.5,58.0,30.52,SW,225,0.0,0.0,48,0.00,,,0.00,WUHU216HW,2013-08-10 17:36:00,
2013-08-10 13:37:00,79.5,58.0,30.52,SW,225,0.0,0.0,48,0.00,,,0.00,WUHU216HW,2013-08-10 17:37:00,
2013-08-10 13:38:00,79.5,58.6,30.52,SW,225,0.0,0.0,49,0.00,,,0.00,WUHU216HW,2013-08-10 17:38:00,
2013-08-10 13:39:00,79.5,58.6,30.51,SW,225,0.0,0.0,49,0.00,,,0.00,WUHU216HW,2013-08-10 17:39:00,
2013-08-10 13:40:00,79.3,57.2,30.51,SW,225,0.0,0.0,47,0.00,,,0.00,WUHU216HW,2013-08-10 17:40:00,
2013-08-10 13:41:00,79.3,57.2,30.51,SW,225,0.0,0.0,47,0.00,,,0.00,WUHU216HW,2013-08-10 17:41:00,
2013-08-10 13:42:00,78.6,56.6,30.52,SW,225,0.0,0.0,47,0.00,,,0.00,WUHU216HW,2013-08-10 17:42:00,
2013-08-10 13:43:00,78.6,56.6,30.52,SW,225,0.0,0.0,47,0.00,,,0.00,WUHU216HW,2013-08-10 17:43:00,
2013-08-10 13:44:00,78.4,57.0,30.52,SW,225,0.0,0.0,48,0.00,,,0.00,WUHU216HW,2013-08-10 17:44:00,
2013-08-10 13:45:00,78.4,57.0,30.52,SW,225,0.0,0.0,48,0.00,,,0.00,WUHU216HW,2013-08-10 17:45:00,
2013-08-10 13:46:00,78.0,57.3,30.52,SW,225,0.0,0.0,49,0.00,,,0.00,WUHU216HW,2013-08-10 17:46:00,
2013-08-10 13:47:00,78.0,57.3,30.52,SW,225,0.0,0.0,49,0.00,,,0.00,WUHU216HW,2013-08-10 17:47:00,
2013-08-10 13:48:00,77.9,57.2,30.51,SW,225,0.0,0.0,49,0.00,,,0.00,WUHU216HW,2013-08-10 17:48:00,
2013-08-10 13:49:00,77.9,57.2,30.52,SW,225,0.0,0.0,49,0.00,,,0.00,WUHU216HW,2013-08-10 17:49:00,
2013-08-10 13:50:00,77.9,57.2,30.52,SW,225,0.0,0.0,49,0.00,,,0.00,WUHU216HW,2013-08-10 17:50:00,
2013-08-10 13:51:00,77.9,57.8,30.51,SW,225,0.0,0.0,50,0.00,,,0.00,WUHU216HW,2013-08-10 17:51:00,
2013-08-10 13:52:00,77.9,57.8,30.51,SW,225,0.0,0.0,50,0.00,,,0.00,WUHU216HW,2013-08-10 17:52:00,
2013-08-10 13:53:00,77.9,57.8,30.51,SW,225,0.0,0.0,50,0.00,,,0.00,WUHU216HW,2013-08-10 17:53:00,
2013-08-10 13:54:00,77.9,57.8,30.51,SW,225,0.0,0.0,50,0.00,,,0.00,WUHU216HW,2013-08-10 17:54:00,
2013-08-10 13:55:00,77.9,58.3,30.51,SW,225,0.0,0.0,51,0.00,,,0.00,WUHU216HW,2013-08-10 17:55:00,
2013-08-10 13:56:00,77.9,58.3,30.51,SW,225,0.0,0.0,51,0.00,,,0.00,WUHU216HW,2013-08-10 17:56:00,
2013-08-10 13:57:00,78.0,58.4,30.51,SW,225,0.0,0.0,51,0.00,,,0.00,WUHU216HW,2013-08-10 17:57:00,
2013-08-10 13:58:00,78.0,58.4,30.51,SW,225,0.0,0.0,51,0.00,,,0.00,WUHU216HW,2013-08-10 17:58:00,
2013-08-10 13:59:00,78.0,58.4,30.51,SW,225,0.0,0.0,51,0.00,,,0.00,WUHU216HW,2013-08-10 17:59:00,
2013-08-10 14:00:00,78.0,58.4,30.51,SW,225,0.0,0.0,51,0.00,,,0.00,WUHU216HW,2013-08-10 18:00:00,
2013-08-10 14:01:00,78.2,58.6,30.51,SW,225,0.0,0.0,51,0.00,,,0.00,WUHU216HW,2013-08-10 18:01:00,
2013-08-10 14:02:00,78.2,58.6,30.51,SW,225,0.0,0.0,51,0.00,,,0.00,WUHU216HW,2013-08-10 18:02:00,
2013-08-10 14:03:00,78.0,57.9,30.51,SW,225,0.0,0.0,50,0.00,,,0.00,WUHU216HW,2013-08-10 18:03:00,
2013-08-10 14:04:00,78.0,57.9,30.51,SW,225,0.0,0.0,50,0.00,,,0.00,WUHU216HW,2013-08-10 18:04:00,
2013-08-10 14:05:00,78.0,57.9,30.52,SW,225,0.0,0.0,50,0.00,,,0.00,WUHU216HW,2013-08-10 18:05:00,
2013-08-10 14:06:00,78.0,57.9,30.52,SW,225,0.0,0.0,50,0.00,,,0.00,WUHU216HW,2013-08-10 18:06:00,
2013-08-10 14:07:00,78.0,57.9,30.51,SW,225,0.0,0.0,50,0.00,,,0.00,WUHU216HW,2013-08-10 18:07:00,
2013-08-10 14:08:00,78.0,58.4,30.51,SW,225,0.0,0.0,51,0.00,,,0.00,WUHU216HW,2013-08-10 18:08:00,
2013-08-10 14:09:00,78.0,58.4,30.51,SW,225,0.0,0.0,51,0.00,,,0.00,WUHU216HW,2013-08-10 18:09:00,
2013-08-10 14:10:00,78.0,58.4,30.51,SW,225,0.0,0.0,51,0.00,,,0.00,WUHU216HW,2013-08-10 18:10:00,
2013-08-10 14:11:00,78.0,58.4,30.52,SW,225,0.0,0.0,51,0.00,,,0.00,WUHU216HW,2013-08-10 18:11:00,
2013-08-10 14:12:00,78.0,59.0,30.51,SW,225,0.0,0.0,52,0.00,,,0.00,WUHU216HW,2013-08-10 18:12:00,
2013-08-10 14:13:00,78.0,59.0,30.51,SW,225,0.0,0.0,52,0.00,,,0.00,WUHU216HW,2013-08-10 18:13:00,
2013-08-10 14:14:00,78.2,58.1,30.51,SW,225,0.0,0.0,50,0.00,,,0.00,WUHU216HW,2013-08-10 18:14:00,
2013-08-10 14:15:00,78.2,58.1,30.51,SW,225,0.0,0.0,50,0.00,,,0.00,WUHU216HW,2013-08-10 18:15:00,
2013-08-10 14:16:00,78.0,56.7,30.51,SW,225,0.0,0.0,48,0.00,,,0.00,WUHU216HW,2013-08-10 18:16:00,
2013-08-10 14:17:00,78.0,56.7,30.51,SW,225,0.0,0.0,48,0.00,,,0.00,WUHU216HW,2013-08-10 18:17:00,
2013-08-10 14:18:00,77.7,55.8,30.51,SW,225,0.0,0.0,47,0.00,,,0.00,WUHU216HW,2013-08-10 18:18:00,
2013-08-10 14:19:00,77.7,55.8,30.51,SW,225,0.0,0.0,47,0.00,,,0.00,WUHU216HW,2013-08-10 18:19:00,
2013-08-10 14:20:00,77.1,55.8,30.52,SW,225,0.0,0.0,47,0.00,,,0.00,WUHU216HW,2013-08-10 18:20:00,
2013-08-10 14:21:00,77.1,55.3,30.52,SW,225,0.0,0.0,47,0.00,,,0.00,WUHU216HW,2013-08-10 18:21:00,
2013-08-10 14:22:00,77.1,55.3,30.51,SW,225,0.0,0.0,47,0.00,,,0.00,WUHU216HW,2013-08-10 18:22:00,
2013-08-10 14:23:00,76.6,55.4,30.51,SW,225,0.0,0.0,48,0.00,,,0.00,WUHU216HW,2013-08-10 18:23:00,
2013-08-10 14:24:00,76.6,55.4,30.52,SW,225,0.0,0.0,48,0.00,,,0.00,WUHU216HW,2013-08-10 18:24:00,
2013-08-10 14:25:00,76.1,54.9,30.51,WSW,248,0.0,0.0,48,0.00,,,0.00,WUHU216HW,2013-08-10 18:25:00,
2013-08-10 14:26:00,76.1,54.9,30.51,WSW,248,0.0,0.0,48,0.00,,,0.00,WUHU216HW,2013-08-10 18:26:00,
2013-08-10 14:27:00,75.5,54.5,30.51,WSW,248,0.0,0.0,48,0.00,,,0.00,WUHU216HW,2013-08-10 18:27:00,
2013-08-10 14:28:00,75.5,54.5,30.51,WSW,248,0.0,0.0,48,0.00,,,0.00,WUHU216HW,2013-08-10 18:28:00,
2013-08-10 14:29:00,75.0,54.6,30.51,WSW,248,0.0,0.0,49,0.00,,,0.00,WUHU216HW,2013-08-10 18:29:00,
2013-08-10 14:30:00,75.0,54.6,30.51,WSW,248,0.0,0.0,49,0.00,,,0.00,WUHU216HW,2013-08-10 18:30:00,
2013-08-10 14:31:00,74.8,54.4,30.51,WSW,248,0.0,0.0,49,0.00,,,0.00,WUHU216HW,2013-08-10 18:31:00,
2013-08-10 14:32:00,74.8,54.4,30.51,WSW,248,0.0,0.0,49,0.00,,,0.00,WUHU216HW,2013-08-10 18:32:00,
2013-08-10 14:33:00,74.3,53.8,30.51,WSW,248,0.0,0.0,49,0.00,,,0.00,WUHU216HW,2013-08-10 18:33:00,
2013-08-10 14:34:00,74.3,53.8,30.51,WSW,248,0.0,0.0,49,0.00,,,0.00,WUHU216HW,2013-08-10 18:34:00,
2013-08-10 14:35:00,73.9,53.5,30.51,WSW,248,0.0,0.0,49,0.00,,,0.00,WUHU216HW,2013-08-10 18:35:00,
2013-08-10 14:36:00,73.9,53.5,30.51,WSW,248,0.0,0.0,49,0.00,,,0.00,WUHU216HW,2013-08-10 18:36:00,
2013-08-10 14:37:00,73.9,53.5,30.51,WSW,248,0.0,0.0,49,0.00,,,0.00,WUHU216HW,2013-08-10 18:37:00,
2013-08-10 14:38:00,73.4,53.6,30.51,WSW,248,0.0,0.0,50,0.00,,,0.00,WUHU216HW,2013-08-10 18:38:00,
2013-08-10 14:39:00,73.4,53.6,30.51,WSW,248,0.0,0.0,50,0.00,,,0.00,WUHU216HW,2013-08-10 18:39:00,
2013-08-10 14:40:00,73.2,53.4,30.51,WSW,248,0.0,0.0,50,0.00,,,0.00,WUHU216HW,2013-08-10 18:40:00,
2013-08-10 14:41:00,73.2,53.4,30.51,WSW,248,0.0,0.0,50,0.00,,,0.00,WUHU216HW,2013-08-10 18:41:00,
2013-08-10 14:42:00,73.0,53.7,30.51,WSW,248,0.0,0.0,51,0.00,,,0.00,WUHU216HW,2013-08-10 18:42:00,
2013-08-10 14:43:00,73.0,53.7,30.51,WSW,248,0.0,0.0,51,0.00,,,0.00,WUHU216HW,2013-08-10 18:43:00,
2013-08-10 14:44:00,72.6,54.4,30.51,WSW,248,0.0,0.0,53,0.00,,,0.00,WUHU216HW,2013-08-10 18:44:00,
2013-08-10 14:45:00,72.6,54.4,30.51,WSW,248,0.0,0.0,53,0.00,,,0.00,WUHU216HW,2013-08-10 18:45:00,
2013-08-10 14:46:00,72.6,54.4,30.51,WSW,248,0.0,0.0,53,0.00,,,0.00,WUHU216HW,2013-08-10 18:46:00,
2013-08-10 14:47:00,72.6,54.4,30.51,WSW,248,0.0,0.0,53,0.00,,,0.00,WUHU216HW,2013-08-10 18:47:00,
2013-08-10 14:48:00,72.6,54.9,30.51,WSW,248,0.0,0.0,54,0.00,,,0.00,WUHU216HW,2013-08-10 18:48:00,
2013-08-10 14:49:00,72.6,54.9,30.51,WSW,248,0.0,0.0,54,0.00,,,0.00,WUHU216HW,2013-08-10 18:49:00,
2013-08-10 14:50:00,72.6,55.3,30.51,WSW,248,0.0,0.0,55,0.00,,,0.00,WUHU216HW,2013-08-10 18:50:00,
2013-08-10 14:51:00,72.5,55.3,30.51,WSW,248,0.0,0.0,55,0.00,,,0.00,WUHU216HW,2013-08-10 18:51:00,
2013-08-10 14:52:00,72.5,55.1,30.51,WSW,248,0.0,0.0,55,0.00,,,0.00,WUHU216HW,2013-08-10 18:52:00,
2013-08-10 14:53:00,72.3,55.1,30.50,WSW,248,0.0,0.0,55,0.00,,,0.00,WUHU216HW,2013-08-10 18:53:00,
2013-08-10 14:54:00,72.3,55.1,30.51,WSW,248,0.0,0.0,55,0.00,,,0.00,WUHU216HW,2013-08-10 18:54:00,
2013-08-10 14:55:00,72.5,55.8,30.50,WSW,248,0.0,0.0,56,0.00,,,0.00,WUHU216HW,2013-08-10 18:55:00,
2013-08-10 14:56:00,72.5,55.8,30.51,WSW,248,0.0,0.0,56,0.00,,,0.00,WUHU216HW,2013-08-10 18:56:00,
2013-08-10 14:57:00,72.6,56.9,30.50,WSW,248,0.0,0.0,58,0.00,,,0.00,WUHU216HW,2013-08-10 18:57:00,
2013-08-10 14:58:00,72.6,56.9,30.50,WSW,248,0.0,0.0,58,0.00,,,0.00,WUHU216HW,2013-08-10 18:58:00,
2013-08-10 14:59:00,72.8,56.6,30.50,WSW,248,0.0,0.0,57,0.00,,,0.00,WUHU216HW,2013-08-10 18:59:00,
2013-08-10 15:00:00,72.8,56.6,30.50,WSW,248,0.0,0.0,57,0.00,,,0.00,WUHU216HW,2013-08-10 19:00:00,
2013-08-10 15:01:00,73.0,56.8,30.50,WSW,248,0.0,0.0,57,0.00,,,0.00,WUHU216HW,2013-08-10 19:01:00,
2013-08-10 15:02:00,73.0,56.8,30.50,WSW,248,0.0,0.0,57,0.00,,,0.00,WUHU216HW,2013-08-10 19:02:00,
2013-08-10 15:03:00,73.0,56.3,30.50,WSW,248,0.0,0.0,56,0.00,,,0.00,WUHU216HW,2013-08-10 19:03:00,
2013-08-10 15:04:00,73.0,56.3,30.50,WSW,248,0.0,0.0,56,0.00,,,0.00,WUHU216HW,2013-08-10 19:04:00,
2013-08-10 15:05:00,72.8,55.1,30.50,WSW,248,0.0,0.0,54,0.00,,,0.00,WUHU216HW,2013-08-10 19:05:00,
2013-08-10 15:06:00,72.8,55.1,30.50,WSW,248,0.0,0.0,54,0.00,,,0.00,WUHU216HW,2013-08-10 19:06:00,
2013-08-10 15:07:00,72.8,54.6,30.50,WSW,248,0.0,0.0,53,0.00,,,0.00,WUHU216HW,2013-08-10 19:07:00,
2013-08-10 15:08:00,72.8,54.6,30.50,WSW,248,0.0,0.0,53,0.00,,,0.00,WUHU216HW,2013-08-10 19:08:00,
2013-08-10 15:09:00,72.8,54.6,30.50,WSW,248,0.0,0.0,53,0.00,,,0.00,WUHU216HW,2013-08-10 19:09:00,
2013-08-10 15:10:00,73.0,55.2,30.50,WSW,248,0.0,0.0,54,0.00,,,0.00,WUHU216HW,2013-08-10 19:10:00,
2013-08-10 15:11:00,73.0,55.2,30.50,WSW,248,0.0,0.0,54,0.00,,,0.00,WUHU216HW,2013-08-10 19:11:00,
2013-08-10 15:12:00,73.2,55.4,30.50,WSW,248,0.0,0.0,54,0.00,,,0.00,WUHU216HW,2013-08-10 19:12:00,
2013-08-10 15:13:00,73.2,55.4,30.50,WSW,248,0.0,0.0,54,0.00,,,0.00,WUHU216HW,2013-08-10 19:13:00,
2013-08-10 15:14:00,73.2,55.4,30.50,WSW,248,0.0,0.0,54,0.00,,,0.00,WUHU216HW,2013-08-10 19:14:00,
2013-08-10 15:15:00,73.2,55.4,30.50,WSW,248,0.0,0.0,54,0.00,,,0.00,WUHU216HW,2013-08-10 19:15:00,
2013-08-10 15:16:00,73.2,55.4,30.50,West,270,0.0,0.0,54,0.00,,,0.00,WUHU216HW,2013-08-10 19:16:00,
2013-08-10 15:17:00,73.2,55.4,30.50,West,270,0.0,0.0,54,0.00,,,0.00,WUHU216HW,2013-08-10 19:17:00,
2013-08-10 15:18:00,73.2,54.9,30.50,West,270,0.0,0.0,53,0.00,,,0.00,WUHU216HW,2013-08-10 19:18:00,
2013-08-10 15:19:00,73.2,54.9,30.50,West,270,0.0,0.0,53,0.00,,,0.00,WUHU216HW,2013-08-10 19:19:00,
2013-08-10 15:20:00,73.2,55.9,30.50,West,270,0.0,0.0,55,0.00,,,0.00,WUHU216HW,2013-08-10 19:20:00,
2013-08-10 15:21:00,73.2,55.9,30.50,West,270,0.0,0.0,55,0.00,,,0.00,WUHU216HW,2013-08-10 19:21:00,
2013-08-10 15:22:00,73.2,55.9,30.50,West,270,0.0,0.0,55,0.00,,,0.00,WUHU216HW,2013-08-10 19:22:00,
2013-08-10 15:23:00,73.4,56.1,30.49,West,270,0.0,0.0,55,0.00,,,0.00,WUHU216HW,2013-08-10 19:23:00,
2013-08-10 15:24:00,73.4,56.1,30.49,West,270,0.0,0.0,55,0.00,,,0.00,WUHU216HW,2013-08-10 19:24:00,
2013-08-10 15:25:00,73.5,56.3,30.50,West,270,0.0,0.0,55,0.00,,,0.00,WUHU216HW,2013-08-10 19:25:00,
2013-08-10 15:26:00,73.5,56.3,30.50,West,270,0.0,0.0,55,0.00,,,0.00,WUHU216HW,2013-08-10 19:26:00,
2013-08-10 15:27:00,73.5,56.3,30.49,West,270,0.0,0.0,55,0.00,,,0.00,WUHU216HW,2013-08-10 19:27:00,
2013-08-10 15:28:00,73.5,56.3,30.49,West,270,0.0,0.0,55,0.00,,,0.00,WUHU216HW,2013-08-10 19:28:00,
2013-08-10 15:29:00,73.9,56.1,30.49,West,270,0.0,0.0,54,0.00,,,0.00,WUHU216HW,2013-08-10 19:29:00,
2013-08-10 15:30:00,73.9,56.1,30.49,West,270,0.0,0.0,54,0.00,,,0.00,WUHU216HW,2013-08-10 19:30:00,
2013-08-10 15:31:00,73.9,56.1,30.49,West,270,0.0,0.0,54,0.00,,,0.00,WUHU216HW,2013-08-10 19:31:00,
2013-08-10 15:32:00,73.9,56.1,30.49,West,270,0.0,0.0,54,0.00,,,0.00,WUHU216HW,2013-08-10 19:32:00,
2013-08-10 15:33:00,73.9,56.1,30.49,West,270,0.0,0.0,54,0.00,,,0.00,WUHU216HW,2013-08-10 19:33:00,
2013-08-10 15:34:00,73.9,56.1,30.49,West,270,0.0,0.0,54,0.00,,,0.00,WUHU216HW,2013-08-10 19:34:00,
2013-08-10 15:35:00,73.9,56.1,30.49,West,270,0.0,0.0,54,0.00,,,0.00,WUHU216HW,2013-08-10 19:35:00,
2013-08-10 15:36:00,73.9,56.1,30.49,West,270,0.0,0.0,54,0.00,,,0.00,WUHU216HW,2013-08-10 19:36:00,
2013-08-10 15:37:00,73.9,56.1,30.49,West,270,0.0,0.0,54,0.00,,,0.00,WUHU216HW,2013-08-10 19:37:00,
2013-08-10 15:38:00,73.9,56.1,30.49,West,270,0.0,0.0,54,0.00,,,0.00,WUHU216HW,2013-08-10 19:38:00,
2013-08-10 15:39:00,73.9,56.1,30.49,West,270,0.0,0.0,54,0.00,,,0.00,WUHU216HW,2013-08-10 19:39:00,
2013-08-10 15:40:00,73.9,56.1,30.49,West,270,0.0,0.0,54,0.00,,,0.00,WUHU216HW,2013-08-10 19:40:00,
2013-08-10 15:41:00,73.9,56.1,30.49,West,270,0.0,0.0,54,0.00,,,0.00,WUHU216HW,2013-08-10 19:41:00,
2013-08-10 16:03:00,73.5,56.3,30.49,SW,225,0.0,0.0,55,0.00,,,0.00,WUHU216HW,2013-08-10 20:03:00,
2013-08-10 16:08:00,73.5,56.3,30.49,SW,225,1.1,2.6,55,0.00,,,0.00,WUHU216HW,2013-08-10 20:08:00,
2013-08-10 16:13:00,73.7,56.4,30.49,SW,225,2.4,2.6,55,0.00,,,0.00,WUHU216HW,2013-08-10 20:13:00,
2013-08-10 16:18:00,73.9,57.1,30.49,SW,225,0.0,2.4,56,0.00,,,0.00,WUHU216HW,2013-08-10 20:18:00,
2013-08-10 16:23:00,74.1,57.3,30.49,WSW,248,2.2,2.9,56,0.00,,,0.00,WUHU216HW,2013-08-10 20:23:00,
2013-08-10 16:28:00,74.1,56.8,30.49,WSW,248,0.0,2.9,55,0.00,,,0.00,WUHU216HW,2013-08-10 20:28:00,
2013-08-10 16:29:00,74.1,56.8,30.49,SW,225,0.0,2.9,55,0.00,,,0.00,WUHU216HW,2013-08-10 20:29:00,
2013-08-10 16:30:00,74.1,56.8,30.49,SW,225,0.0,2.9,55,0.00,,,0.00,WUHU216HW,2013-08-10 20:30:00,
2013-08-10 16:31:00,74.1,57.3,30.49,SW,225,2.0,2.2,56,0.00,,,0.00,WUHU216HW,2013-08-10 20:31:00,
2013-08-10 16:32:00,74.1,57.3,30.49,SW,225,2.0,2.2,56,0.00,,,0.00,WUHU216HW,2013-08-10 20:32:00,
2013-08-10 16:33:00,74.1,57.3,30.49,SW,225,0.0,2.2,56,0.00,,,0.00,WUHU216HW,2013-08-10 20:33:00,
2013-08-10 16:38:00,74.1,57.3,30.49,SW,225,1.1,2.0,56,0.00,,,0.00,WUHU216HW,2013-08-10 20:38:00,
2013-08-10 16:43:00,74.1,56.8,30.49,WSW,248,0.0,2.9,55,0.00,,,0.00,WUHU216HW,2013-08-10 20:43:00,
2013-08-10 16:48:00,73.9,56.6,30.49,SW,225,0.0,2.9,55,0.00,,,0.00,WUHU216HW,2013-08-10 20:48:00,
2013-08-10 16:53:00,73.7,56.4,30.49,SW,225,0.0,0.0,55,0.00,,,0.00,WUHU216HW,2013-08-10 20:53:00,
2013-08-10 16:58:00,73.5,56.8,30.48,SW,225,0.0,0.0,56,0.00,,,0.00,WUHU216HW,2013-08-10 20:58:00,
2013-08-10 17:03:00,73.2,57.1,30.48,SW,225,0.0,0.6,57,0.00,,,0.00,WUHU216HW,2013-08-10 21:03:00,
2013-08-10 17:08:00,73.2,56.9,30.48,SW,225,0.0,0.6,57,0.00,,,0.00,WUHU216HW,2013-08-10 21:08:00,
2013-08-10 17:13:00,73.2,57.4,30.48,SW,225,0.0,0.0,58,0.00,,,0.00,WUHU216HW,2013-08-10 21:13:00,
2013-08-10 17:18:00,73.0,57.3,30.48,SW,225,0.0,2.6,58,0.00,,,0.00,WUHU216HW,2013-08-10 21:18:00,
2013-08-10 17:23:00,73.0,56.8,30.48,SW,225,0.0,2.6,57,0.00,,,0.00,WUHU216HW,2013-08-10 21:23:00,
2013-08-10 17:28:00,72.8,56.6,30.48,SW,225,0.0,0.0,57,0.00,,,0.00,WUHU216HW,2013-08-10 21:28:00,
2013-08-10 17:33:00,72.8,57.6,30.48,SW,225,2.0,2.0,59,0.00,,,0.00,WUHU216HW,2013-08-10 21:33:00,
2013-08-10 17:38:00,72.6,56.9,30.48,SW,225,0.0,2.0,58,0.00,,,0.00,WUHU216HW,2013-08-10 21:38:00,
2013-08-10 17:43:00,72.6,56.9,30.48,SW,225,0.0,2.0,58,0.00,,,0.00,WUHU216HW,2013-08-10 21:43:00,
2013-08-10 17:48:00,72.8,57.1,30.48,SW,225,0.0,0.0,58,0.00,,,0.00,WUHU216HW,2013-08-10 21:48:00,
2013-08-10 17:53:00,73.0,57.3,30.48,SW,225,0.0,0.0,58,0.00,,,0.00,WUHU216HW,2013-08-10 21:53:00,
2013-08-10 17:58:00,73.2,56.9,30.48,SW,225,2.4,2.4,57,0.00,,,0.00,WUHU216HW,2013-08-10 21:58:00,
2013-08-10 18:03:00,73.2,56.9,30.48,SW,225,0.0,2.4,57,0.00,,,0.00,WUHU216HW,2013-08-10 22:03:00,
2013-08-10 18:08:00,73.2,56.9,30.48,SW,225,0.0,1.1,57,0.00,,,0.00,WUHU216HW,2013-08-10 22:08:00,
2013-08-10 18:13:00,73.4,57.1,30.47,SW,225,0.0,0.0,57,0.00,,,0.00,WUHU216HW,2013-08-10 22:13:00,
2013-08-10 18:18:00,73.4,56.6,30.47,SW,225,0.0,0.0,56,0.00,,,0.00,WUHU216HW,2013-08-10 22:18:00,
2013-08-10 18:23:00,73.2,56.9,30.47,SW,225,0.8,0.8,57,0.00,,,0.00,WUHU216HW,2013-08-10 22:23:00,
2013-08-10 18:28:00,73.4,57.1,30.47,SW,225,0.0,0.8,57,0.00,,,0.00,WUHU216HW,2013-08-10 22:28:00,
2013-08-10 18:33:00,73.5,56.8,30.47,SW,225,0.0,0.0,56,0.00,,,0.00,WUHU216HW,2013-08-10 22:33:00,
2013-08-10 18:38:00,73.5,56.8,30.47,SW,225,0.0,0.0,56,0.00,,,0.00,WUHU216HW,2013-08-10 22:38:00,
2013-08-10 18:43:00,73.4,56.6,30.47,SW,225,0.0,0.0,56,0.00,,,0.00,WUHU216HW,2013-08-10 22:43:00,
2013-08-10 18:48:00,73.2,56.4,30.46,SW,225,0.0,0.0,56,0.00,,,0.00,WUHU216HW,2013-08-10 22:48:00,
2013-08-10 18:53:00,73.2,56.4,30.46,SW,225,0.0,0.0,56,0.00,,,0.00,WUHU216HW,2013-08-10 22:53:00,
2013-08-10 18:58:00,73.0,56.3,30.46,SW,225,0.0,0.0,56,0.00,,,0.00,WUHU216HW,2013-08-10 22:58:00,
2013-08-10 19:03:00,72.8,56.1,30.46,SW,225,0.0,0.0,56,0.00,,,0.00,WUHU216HW,2013-08-10 23:03:00,
2013-08-10 19:08:00,72.6,55.9,30.46,SW,225,0.0,0.0,56,0.00,,,0.00,WUHU216HW,2013-08-10 23:08:00,
2013-08-10 19:13:00,72.6,55.9,30.46,SW,225,0.0,0.0,56,0.00,,,0.00,WUHU216HW,2013-08-10 23:13:00,
2013-08-10 19:18:00,72.5,56.3,30.47,SW,225,0.0,0.0,57,0.00,,,0.00,WUHU216HW,2013-08-10 23:18:00,
2013-08-10 19:23:00,72.3,56.1,30.46,SW,225,0.0,0.0,57,0.00,,,0.00,WUHU216HW,2013-08-10 23:23:00,
2013-08-10 19:28:00,72.1,55.9,30.47,SW,225,0.0,0.0,57,0.00,,,0.00,WUHU216HW,2013-08-10 23:28:00,
2013-08-10 19:30:00,72.1,55.9,30.46,SW,225,0.0,0.0,57,0.00,,,0.00,WUHU216HW,2013-08-10 23:30:00,
2013-08-10 19:31:00,71.9,55.8,30.46,SW,225,0.0,0.0,57,0.00,,,0.00,WUHU216HW,2013-08-10 23:31:00,
2013-08-10 19:32:00,71.9,55.8,30.47,SW,225,0.0,0.0,57,0.00,,,0.00,WUHU216HW,2013-08-10 23:32:00,
2013-08-10 19:33:00,71.9,55.8,30.47,SW,225,0.0,0.0,57,0.00,,,0.00,WUHU216HW,2013-08-10 23:33:00,
2013-08-10 19:34:00,71.9,55.8,30.46,SW,225,0.0,0.0,57,0.00,,,0.00,WUHU216HW,2013-08-10 23:34:00,
2013-08-10 19:35:00,71.7,55.6,30.47,SW,225,0.0,0.0,57,0.00,,,0.00,WUHU216HW,2013-08-10 23:35:00,
2013-08-10 19:36:00,71.7,55.6,30.46,SW,225,0.0,0.0,57,0.00,,,0.00,WUHU216HW,2013-08-10 23:36:00,
2013-08-10 19:37:00,71.7,56.1,30.46,SW,225,0.0,0.0,58,0.00,,,0.00,WUHU216HW,2013-08-10 23:37:00,
2013-08-10 19:38:00,71.7,56.1,30.46,SW,225,0.0,0.0,58,0.00,,,0.00,WUHU216HW,2013-08-10 23:38:00,
2013-08-10 19:39:00,71.7,56.5,30.46,SW,225,0.0,0.0,59,0.00,,,0.00,WUHU216HW,2013-08-10 23:39:00,
2013-08-10 19:40:00,71.6,56.5,30.47,SW,225,0.0,0.0,59,0.00,,,0.00,WUHU216HW,2013-08-10 23:40:00,
2013-08-10 19:41:00,71.6,56.5,30.46,SW,225,0.0,0.0,59,0.00,,,0.00,WUHU216HW,2013-08-10 23:41:00,
2013-08-10 19:42:00,71.4,56.3,30.46,SW,225,0.0,0.0,59,0.00,,,0.00,WUHU216HW,2013-08-10 23:42:00,
2013-08-10 19:43:00,71.4,56.3,30.46,SW,225,0.0,0.0,59,0.00,,,0.00,WUHU216HW,2013-08-10 23:43:00,
2013-08-10 19:44:00,71.2,56.1,30.46,SW,225,0.0,0.0,59,0.00,,,0.00,WUHU216HW,2013-08-10 23:44:00,
2013-08-10 19:45:00,71.2,56.1,30.46,SW,225,0.0,0.0,59,0.00,,,0.00,WUHU216HW,2013-08-10 23:45:00,
2013-08-10 19:46:00,70.8,56.3,30.47,SW,225,0.0,0.0,60,0.00,,,0.00,WUHU216HW,2013-08-10 23:46:00,
2013-08-10 19:47:00,70.8,56.3,30.47,SW,225,0.0,0.0,60,0.00,,,0.00,WUHU216HW,2013-08-10 23:47:00,
2013-08-10 19:48:00,70.7,56.2,30.46,SW,225,0.0,0.0,60,0.00,,,0.00,WUHU216HW,2013-08-10 23:48:00,
2013-08-10 19:49:00,70.7,56.2,30.46,SW,225,0.0,0.0,60,0.00,,,0.00,WUHU216HW,2013-08-10 23:49:00,
2013-08-10 19:50:00,70.5,56.4,30.46,SW,225,0.0,0.0,61,0.00,,,0.00,WUHU216HW,2013-08-10 23:50:00,
2013-08-10 19:51:00,70.5,56.4,30.46,SW,225,0.0,0.0,61,0.00,,,0.00,WUHU216HW,2013-08-10 23:51:00,
2013-08-10 19:52:00,70.1,56.1,30.46,SW,225,0.0,0.0,61,0.00,,,0.00,WUHU216HW,2013-08-10 23:52:00,
2013-08-10 19:53:00,70.1,56.1,30.46,SW,225,0.0,0.0,61,0.00,,,0.00,WUHU216HW,2013-08-10 23:53:00,
2013-08-10 19:54:00,69.9,56.1,30.46,SW,225,0.0,0.0,61,0.00,,,0.00,WUHU216HW,2013-08-10 23:54:00,
2013-08-10 19:55:00,69.9,55.9,30.46,SW,225,0.0,0.0,61,0.00,,,0.00,WUHU216HW,2013-08-10 23:55:00,
2013-08-10 19:56:00,69.9,55.9,30.46,SW,225,0.0,0.0,61,0.00,,,0.00,WUHU216HW,2013-08-10 23:56:00,
2013-08-10 19:57:00,69.6,56.0,30.46,SW,225,0.0,0.0,62,0.00,,,0.00,WUHU216HW,2013-08-10 23:57:00,
2013-08-10 19:58:00,69.6,56.0,30.46,SW,225,0.0,0.0,62,0.00,,,0.00,WUHU216HW,2013-08-10 23:58:00,
2013-08-10 19:59:00,69.4,55.8,30.46,SW,225,0.0,0.0,62,0.00,,,0.00,WUHU216HW,2013-08-10 23:59:00,
2013-08-10 20:00:00,69.4,55.8,30.46,SW,225,0.0,0.0,62,0.00,,,0.00,WUHU216HW,2013-08-11 00:00:00,
2013-08-10 20:01:00,69.0,55.5,30.46,SW,225,0.0,0.0,62,0.00,,,0.00,WUHU216HW,2013-08-11 00:01:00,
2013-08-10 20:02:00,69.0,55.5,30.46,SW,225,0.0,0.0,62,0.00,,,0.00,WUHU216HW,2013-08-11 00:02:00,
2013-08-10 20:03:00,69.0,55.5,30.46,SW,225,0.0,0.0,62,0.00,,,0.00,WUHU216HW,2013-08-11 00:03:00,
2013-08-10 20:04:00,69.0,55.5,30.46,SW,225,0.0,0.0,62,0.00,,,0.00,WUHU216HW,2013-08-11 00:04:00,
2013-08-10 20:05:00,68.7,55.5,30.46,SW,225,0.0,0.0,63,0.00,,,0.00,WUHU216HW,2013-08-11 00:05:00,
2013-08-10 20:06:00,68.7,55.5,30.46,SW,225,0.0,0.0,63,0.00,,,0.00,WUHU216HW,2013-08-11 00:06:00,
2013-08-10 20:07:00,68.5,55.4,30.47,SW,225,0.0,0.0,63,0.00,,,0.00,WUHU216HW,2013-08-11 00:07:00,
2013-08-10 20:08:00,68.5,55.4,30.46,SW,225,0.0,0.0,63,0.00,,,0.00,WUHU216HW,2013-08-11 00:08:00,
2013-08-10 20:09:00,68.5,55.4,30.46,SW,225,0.0,0.0,63,0.00,,,0.00,WUHU216HW,2013-08-11 00:09:00,
2013-08-10 20:10:00,68.5,55.4,30.46,SW,225,0.0,0.0,63,0.00,,,0.00,WUHU216HW,2013-08-11 00:10:00,
2013-08-10 20:11:00,68.5,55.4,30.47,SW,225,0.0,0.0,63,0.00,,,0.00,WUHU216HW,2013-08-11 00:11:00,
2013-08-10 20:12:00,68.1,55.4,30.46,SW,225,0.0,0.0,64,0.00,,,0.00,WUHU216HW,2013-08-11 00:12:00,
2013-08-10 20:13:00,68.1,55.4,30.46,SW,225,0.0,0.0,64,0.00,,,0.00,WUHU216HW,2013-08-11 00:13:00,
2013-08-10 20:14:00,68.1,55.4,30.46,SW,225,0.0,0.0,64,0.00,,,0.00,WUHU216HW,2013-08-11 00:14:00,
2013-08-10 20:15:00,68.1,55.4,30.47,SW,225,0.0,0.0,64,0.00,,,0.00,WUHU216HW,2013-08-11 00:15:00,
2013-08-10 20:16:00,67.8,55.1,30.46,SW,225,0.0,0.0,64,0.00,,,0.00,WUHU216HW,2013-08-11 00:16:00,
2013-08-10 20:17:00,67.8,55.1,30.47,SW,225,0.0,0.0,64,0.00,,,0.00,WUHU216HW,2013-08-11 00:17:00,
2013-08-10 20:18:00,67.8,55.1,30.47,SW,225,0.0,0.0,64,0.00,,,0.00,WUHU216HW,2013-08-11 00:18:00,
2013-08-10 20:19:00,67.8,55.1,30.47,SW,225,0.0,0.0,64,0.00,,,0.00,WUHU216HW,2013-08-11 00:19:00,
2013-08-10 20:20:00,67.6,55.4,30.47,SW,225,0.0,0.0,65,0.00,,,0.00,WUHU216HW,2013-08-11 00:20:00,
2013-08-10 20:21:00,67.6,55.4,30.47,SW,225,0.0,0.0,65,0.00,,,0.00,WUHU216HW,2013-08-11 00:21:00,
2013-08-10 20:22:00,67.6,55.4,30.47,SW,225,0.0,0.0,65,0.00,,,0.00,WUHU216HW,2013-08-11 00:22:00,
2013-08-10 20:23:00,67.6,55.4,30.46,SW,225,0.0,0.0,65,0.00,,,0.00,WUHU216HW,2013-08-11 00:23:00,
2013-08-10 20:24:00,67.6,55.4,30.46,SW,225,0.0,0.0,66,0.00,,,0.00,WUHU216HW,2013-08-11 00:24:00,
2013-08-10 20:25:00,67.2,55.4,30.46,SW,225,0.0,0.0,66,0.00,,,0.00,WUHU216HW,2013-08-11 00:25:00,
2013-08-10 20:26:00,67.2,55.4,30.47,SW,225,0.0,0.0,66,0.00,,,0.00,WUHU216HW,2013-08-11 00:26:00,
2013-08-10 20:27:00,67.1,55.3,30.47,SW,225,0.0,0.0,66,0.00,,,0.00,WUHU216HW,2013-08-11 00:27:00,
2013-08-10 20:28:00,67.1,55.3,30.47,SW,225,0.0,0.0,66,0.00,,,0.00,WUHU216HW,2013-08-11 00:28:00,
2013-08-10 20:29:00,66.9,55.1,30.47,SW,225,0.0,0.0,66,0.00,,,0.00,WUHU216HW,2013-08-11 00:29:00,
2013-08-10 20:30:00,66.9,55.1,30.47,SW,225,0.0,0.0,66,0.00,,,0.00,WUHU216HW,2013-08-11 00:30:00,
2013-08-10 20:31:00,66.7,55.4,30.47,SW,225,0.0,0.0,67,0.00,,,0.00,WUHU216HW,2013-08-11 00:31:00,
2013-08-10 20:32:00,66.7,55.4,30.47,SW,225,0.0,0.0,67,0.00,,,0.00,WUHU216HW,2013-08-11 00:32:00,
2013-08-10 20:33:00,66.7,55.8,30.47,SW,225,0.0,0.0,68,0.00,,,0.00,WUHU216HW,2013-08-11 00:33:00,
2013-08-10 20:34:00,66.7,55.8,30.47,SW,225,0.0,0.0,68,0.00,,,0.00,WUHU216HW,2013-08-11 00:34:00,
2013-08-10 20:35:00,66.5,55.6,30.47,SW,225,0.0,0.0,68,0.00,,,0.00,WUHU216HW,2013-08-11 00:35:00,
2013-08-10 20:36:00,66.5,55.6,30.47,SW,225,0.0,0.0,68,0.00,,,0.00,WUHU216HW,2013-08-11 00:36:00,
2013-08-10 20:37:00,66.3,55.6,30.47,SW,225,0.0,0.0,68,0.00,,,0.00,WUHU216HW,2013-08-11 00:37:00,
2013-08-10 20:38:00,66.3,55.0,30.47,SW,225,0.0,0.0,67,0.00,,,0.00,WUHU216HW,2013-08-11 00:38:00,
2013-08-10 20:39:00,66.2,55.0,30.47,SW,225,0.0,0.0,67,0.00,,,0.00,WUHU216HW,2013-08-11 00:39:00,
2013-08-10 20:40:00,66.2,55.2,30.47,SW,225,0.0,0.0,68,0.00,,,0.00,WUHU216HW,2013-08-11 00:40:00,
2013-08-10 20:41:00,66.2,55.2,30.47,SW,225,0.0,0.0,68,0.00,,,0.00,WUHU216HW,2013-08-11 00:41:00,
2013-08-10 20:42:00,66.0,55.1,30.47,SW,225,0.0,0.0,68,0.00,,,0.00,WUHU216HW,2013-08-11 00:42:00,
2013-08-10 20:43:00,66.0,55.1,30.47,SW,225,0.0,0.0,68,0.00,,,0.00,WUHU216HW,2013-08-11 00:43:00,
2013-08-10 20:44:00,65.8,54.9,30.47,SW,225,0.0,0.0,68,0.00,,,0.00,WUHU216HW,2013-08-11 00:44:00,
2013-08-10 20:45:00,65.8,54.9,30.47,SW,225,0.0,0.0,68,0.00,,,0.00,WUHU216HW,2013-08-11 00:45:00,
2013-08-10 20:46:00,65.6,55.2,30.46,SW,225,0.0,0.0,69,0.00,,,0.00,WUHU216HW,2013-08-11 00:46:00,
2013-08-10 20:47:00,65.6,55.2,30.47,SW,225,0.0,0.0,69,0.00,,,0.00,WUHU216HW,2013-08-11 00:47:00,
2013-08-10 20:48:00,65.4,55.0,30.47,SW,225,0.0,0.0,69,0.00,,,0.00,WUHU216HW,2013-08-11 00:48:00,
2013-08-10 20:49:00,65.4,55.0,30.47,SW,225,0.0,0.0,69,0.00,,,0.00,WUHU216HW,2013-08-11 00:49:00,
2013-08-10 20:50:00,65.3,54.8,30.47,SW,225,0.0,0.0,69,0.00,,,0.00,WUHU216HW,2013-08-11 00:50:00,
2013-08-10 20:51:00,65.3,54.8,30.47,SW,225,0.0,0.0,69,0.00,,,0.00,WUHU216HW,2013-08-11 00:51:00,
2013-08-10 20:52:00,65.1,55.1,30.47,SW,225,0.0,0.0,70,0.00,,,0.00,WUHU216HW,2013-08-11 00:52:00,
2013-08-10 20:53:00,65.1,55.1,30.46,SW,225,0.0,0.0,70,0.00,,,0.00,WUHU216HW,2013-08-11 00:53:00,
2013-08-10 20:54:00,65.1,55.1,30.47,SW,225,0.0,0.0,70,0.00,,,0.00,WUHU216HW,2013-08-11 00:54:00,
2013-08-10 20:55:00,64.9,54.9,30.47,SW,225,0.0,0.0,70,0.00,,,0.00,WUHU216HW,2013-08-11 00:55:00,
2013-08-10 20:56:00,64.9,54.9,30.47,SW,225,0.0,0.0,70,0.00,,,0.00,WUHU216HW,2013-08-11 00:56:00,
2013-08-10 20:57:00,64.7,54.8,30.47,SW,225,0.0,0.0,70,0.00,,,0.00,WUHU216HW,2013-08-11 00:57:00,
2013-08-10 20:58:00,64.7,54.8,30.47,SW,225,0.0,0.0,70,0.00,,,0.00,WUHU216HW,2013-08-11 00:58:00,
2013-08-10 20:59:00,64.5,54.6,30.47,SW,225,0.0,0.0,70,0.00,,,0.00,WUHU216HW,2013-08-11 00:59:00,
2013-08-10 21:00:00,64.5,54.6,30.46,SW,225,0.0,0.0,70,0.00,,,0.00,WUHU216HW,2013-08-11 01:00:00,
2013-08-10 21:01:00,64.5,54.6,30.47,SW,225,0.0,0.0,70,0.00,,,0.00,WUHU216HW,2013-08-11 01:01:00,
2013-08-10 21:02:00,64.5,54.6,30.47,SW,225,0.0,0.0,70,0.00,,,0.00,WUHU216HW,2013-08-11 01:02:00,
2013-08-10 21:03:00,64.2,54.3,30.47,SW,225,0.0,0.0,70,0.00,,,0.00,WUHU216HW,2013-08-11 01:03:00,
2013-08-10 21:04:00,64.2,54.3,30.47,SW,225,0.0,0.0,70,0.00,,,0.00,WUHU216HW,2013-08-11 01:04:00,
2013-08-10 21:05:00,64.2,54.3,30.47,SW,225,0.0,0.0,70,0.00,,,0.00,WUHU216HW,2013-08-11 01:05:00,
2013-08-10 21:06:00,64.2,54.3,30.47,SW,225,0.0,0.0,70,0.00,,,0.00,WUHU216HW,2013-08-11 01:06:00,
2013-08-10 21:07:00,64.0,54.5,30.47,SW,225,0.0,0.0,71,0.00,,,0.00,WUHU216HW,2013-08-11 01:07:00,
2013-08-10 21:08:00,64.0,54.5,30.47,SW,225,0.0,0.0,71,0.00,,,0.00,WUHU216HW,2013-08-11 01:08:00,
2013-08-10 21:09:00,64.0,54.5,30.47,SW,225,0.0,0.0,71,0.00,,,0.00,WUHU216HW,2013-08-11 01:09:00,
2013-08-10 21:10:00,64.0,54.5,30.47,SW,225,0.0,0.0,71,0.00,,,0.00,WUHU216HW,2013-08-11 01:10:00,
2013-08-10 21:11:00,64.0,54.5,30.46,SW,225,0.0,0.0,71,0.00,,,0.00,WUHU216HW,2013-08-11 01:11:00,
2013-08-10 21:12:00,63.8,54.3,30.47,SW,225,0.0,0.0,71,0.00,,,0.00,WUHU216HW,2013-08-11 01:12:00,
2013-08-10 21:13:00,63.8,54.3,30.47,SW,225,0.0,0.0,71,0.00,,,0.00,WUHU216HW,2013-08-11 01:13:00,
2013-08-10 21:14:00,63.6,54.1,30.47,SW,225,0.0,0.0,71,0.00,,,0.00,WUHU216HW,2013-08-11 01:14:00,
2013-08-10 21:15:00,63.6,54.1,30.47,SW,225,0.0,0.0,71,0.00,,,0.00,WUHU216HW,2013-08-11 01:15:00,
2013-08-10 21:16:00,63.6,54.5,30.47,SW,225,0.0,0.0,72,0.00,,,0.00,WUHU216HW,2013-08-11 01:16:00,
2013-08-10 21:17:00,63.6,54.5,30.47,SW,225,0.0,0.0,72,0.00,,,0.00,WUHU216HW,2013-08-11 01:17:00,
2013-08-10 21:18:00,63.5,54.3,30.47,SW,225,0.0,0.0,72,0.00,,,0.00,WUHU216HW,2013-08-11 01:18:00,
2013-08-10 21:19:00,63.5,54.3,30.47,SW,225,0.0,0.0,72,0.00,,,0.00,WUHU216HW,2013-08-11 01:19:00,
2013-08-10 21:20:00,63.3,54.1,30.47,SW,225,0.0,0.0,72,0.00,,,0.00,WUHU216HW,2013-08-11 01:20:00,
2013-08-10 21:21:00,63.3,54.1,30.47,SW,225,0.0,0.0,72,0.00,,,0.00,WUHU216HW,2013-08-11 01:21:00,
2013-08-10 21:22:00,63.3,54.1,30.47,SW,225,0.0,0.0,72,0.00,,,0.00,WUHU216HW,2013-08-11 01:22:00,
2013-08-10 21:23:00,63.3,54.1,30.47,SW,225,0.0,0.0,72,0.00,,,0.00,WUHU216HW,2013-08-11 01:23:00,
2013-08-10 21:24:00,63.1,53.9,30.47,SW,225,0.0,0.0,72,0.00,,,0.00,WUHU216HW,2013-08-11 01:24:00,
2013-08-10 21:25:00,63.1,53.9,30.47,SW,225,0.0,0.0,72,0.00,,,0.00,WUHU216HW,2013-08-11 01:25:00,
2013-08-10 21:26:00,63.1,53.9,30.47,SW,225,0.0,0.0,72,0.00,,,0.00,WUHU216HW,2013-08-11 01:26:00,
2013-08-10 21:27:00,63.1,53.9,30.47,SW,225,0.0,0.0,72,0.00,,,0.00,WUHU216HW,2013-08-11 01:27:00,
2013-08-10 21:28:00,63.1,53.9,30.47,SW,225,0.0,0.0,72,0.00,,,0.00,WUHU216HW,2013-08-11 01:28:00,
2013-08-10 21:29:00,62.9,53.7,30.47,SW,225,0.0,0.0,72,0.00,,,0.00,WUHU216HW,2013-08-11 01:29:00,
2013-08-10 21:30:00,62.9,53.7,30.47,SW,225,0.0,0.0,72,0.00,,,0.00,WUHU216HW,2013-08-11 01:30:00,
2013-08-10 21:31:00,62.9,54.1,30.47,SW,225,0.0,0.0,73,0.00,,,0.00,WUHU216HW,2013-08-11 01:31:00,
2013-08-10 21:32:00,62.9,54.1,30.47,SW,225,0.0,0.0,73,0.00,,,0.00,WUHU216HW,2013-08-11 01:32:00,
2013-08-10 21:33:00,62.7,53.9,30.47,SW,225,0.0,0.0,73,0.00,,,0.00,WUHU216HW,2013-08-11 01:33:00,
2013-08-10 21:34:00,62.7,53.9,30.47,SW,225,0.0,0.0,73,0.00,,,0.00,WUHU216HW,2013-08-11 01:34:00,
2013-08-10 21:35:00,62.7,53.9,30.47,SW,225,0.0,0.0,73,0.00,,,0.00,WUHU216HW,2013-08-11 01:35:00,
2013-08-10 21:36:00,62.7,53.9,30.47,SW,225,0.0,0.0,73,0.00,,,0.00,WUHU216HW,2013-08-11 01:36:00,
2013-08-10 21:37:00,62.6,53.7,30.47,SW,225,0.0,0.0,73,0.00,,,0.00,WUHU216HW,2013-08-11 01:37:00,
2013-08-10 21:38:00,62.6,53.7,30.48,SW,225,0.0,0.0,73,0.00,,,0.00,WUHU216HW,2013-08-11 01:38:00,
2013-08-10 21:39:00,62.6,53.7,30.48,SW,225,0.0,0.0,73,0.00,,,0.00,WUHU216HW,2013-08-11 01:39:00,
2013-08-10 21:40:00,62.6,53.7,30.47,SW,225,0.0,0.0,73,0.00,,,0.00,WUHU216HW,2013-08-11 01:40:00,
2013-08-10 21:41:00,62.4,53.9,30.48,SW,225,0.0,0.0,74,0.00,,,0.00,WUHU216HW,2013-08-11 01:41:00,
2013-08-10 21:42:00,62.4,53.9,30.47,SW,225,0.0,0.0,74,0.00,,,0.00,WUHU216HW,2013-08-11 01:42:00,
2013-08-10 21:43:00,62.4,53.9,30.48,SW,225,0.0,0.0,74,0.00,,,0.00,WUHU216HW,2013-08-11 01:43:00,
2013-08-10 21:44:00,62.4,53.9,30.48,SW,225,0.0,0.0,74,0.00,,,0.00,WUHU216HW,2013-08-11 01:44:00,
2013-08-10 21:45:00,62.4,53.9,30.47,SW,225,0.0,0.0,74,0.00,,,0.00,WUHU216HW,2013-08-11 01:45:00,
2013-08-10 21:46:00,62.4,53.9,30.48,SW,225,0.0,0.0,74,0.00,,,0.00,WUHU216HW,2013-08-11 01:46:00,
2013-08-10 21:47:00,62.4,53.9,30.48,SW,225,0.0,0.0,74,0.00,,,0.00,WUHU216HW,2013-08-11 01:47:00,
2013-08-10 21:48:00,62.4,53.9,30.48,SW,225,0.0,0.0,74,0.00,,,0.00,WUHU216HW,2013-08-11 01:48:00,
2013-08-10 21:49:00,62.4,53.9,30.48,SW,225,0.0,0.0,74,0.00,,,0.00,WUHU216HW,2013-08-11 01:49:00,
2013-08-10 21:50:00,62.4,53.9,30.48,SW,225,0.0,0.0,74,0.00,,,0.00,WUHU216HW,2013-08-11 01:50:00,
2013-08-10 21:51:00,62.4,53.9,30.48,SW,225,0.0,0.0,74,0.00,,,0.00,WUHU216HW,2013-08-11 01:51:00,
2013-08-10 21:52:00,62.4,54.3,30.48,SW,225,0.0,0.0,75,0.00,,,0.00,WUHU216HW,2013-08-11 01:52:00,
2013-08-10 21:53:00,62.4,54.3,30.48,SW,225,0.0,0.0,75,0.00,,,0.00,WUHU216HW,2013-08-11 01:53:00,
2013-08-10 21:54:00,62.2,54.1,30.48,SW,225,0.0,0.0,75,0.00,,,0.00,WUHU216HW,2013-08-11 01:54:00,
2013-08-10 21:55:00,62.2,54.1,30.48,SW,225,0.0,0.0,75,0.00,,,0.00,WUHU216HW,2013-08-11 01:55:00,
2013-08-10 21:56:00,62.2,54.1,30.48,SW,225,0.0,0.0,75,0.00,,,0.00,WUHU216HW,2013-08-11 01:56:00,
2013-08-10 21:57:00,62.2,54.1,30.48,SW,225,0.0,0.0,75,0.00,,,0.00,WUHU216HW,2013-08-11 01:57:00,
2013-08-10 21:58:00,62.2,54.1,30.48,SW,225,0.0,0.0,75,0.00,,,0.00,WUHU216HW,2013-08-11 01:58:00,
2013-08-10 21:59:00,62.2,54.1,30.48,SW,225,0.0,0.0,75,0.00,,,0.00,WUHU216HW,2013-08-11 01:59:00,
2013-08-10 22:00:00,62.2,54.1,30.48,SW,225,0.0,0.0,75,0.00,,,0.00,WUHU216HW,2013-08-11 02:00:00,
2013-08-10 22:01:00,62.2,54.1,30.48,SW,225,0.0,0.0,75,0.00,,,0.00,WUHU216HW,2013-08-11 02:01:00,
2013-08-10 22:02:00,62.2,54.1,30.48,SW,225,0.0,0.0,75,0.00,,,0.00,WUHU216HW,2013-08-11 02:02:00,
2013-08-10 22:03:00,62.2,54.1,30.48,SW,225,0.0,0.0,75,0.00,,,0.00,WUHU216HW,2013-08-11 02:03:00,
2013-08-10 22:04:00,62.2,54.1,30.48,SW,225,0.0,0.0,75,0.00,,,0.00,WUHU216HW,2013-08-11 02:04:00,
2013-08-10 22:05:00,62.2,54.1,30.48,SW,225,0.0,0.0,75,0.00,,,0.00,WUHU216HW,2013-08-11 02:05:00,
2013-08-10 22:06:00,62.2,54.1,30.48,SW,225,0.0,0.0,75,0.00,,,0.00,WUHU216HW,2013-08-11 02:06:00,
2013-08-10 22:07:00,62.2,54.1,30.48,SW,225,0.0,0.0,75,0.00,,,0.00,WUHU216HW,2013-08-11 02:07:00,
2013-08-10 22:08:00,62.2,54.1,30.48,SW,225,0.0,0.0,75,0.00,,,0.00,WUHU216HW,2013-08-11 02:08:00,
2013-08-10 22:09:00,62.2,54.0,30.48,SW,225,0.0,0.0,75,0.00,,,0.00,WUHU216HW,2013-08-11 02:09:00,
2013-08-10 22:10:00,62.0,54.0,30.48,SW,225,0.0,0.0,75,0.00,,,0.00,WUHU216HW,2013-08-11 02:10:00,
2013-08-10 22:11:00,62.0,54.0,30.48,SW,225,0.0,0.0,75,0.00,,,0.00,WUHU216HW,2013-08-11 02:11:00,
2013-08-10 22:12:00,62.0,54.0,30.48,SW,225,0.0,0.0,75,0.00,,,0.00,WUHU216HW,2013-08-11 02:12:00,
2013-08-10 22:13:00,62.0,54.0,30.48,SW,225,0.0,0.0,75,0.00,,,0.00,WUHU216HW,2013-08-11 02:13:00,
2013-08-10 22:14:00,62.0,54.0,30.48,SW,225,0.0,0.0,75,0.00,,,0.00,WUHU216HW,2013-08-11 02:14:00,
2013-08-10 22:15:00,62.0,54.0,30.48,SW,225,0.0,0.0,75,0.00,,,0.00,WUHU216HW,2013-08-11 02:15:00,
2013-08-10 22:16:00,61.8,53.8,30.48,SW,225,0.0,0.0,75,0.00,,,0.00,WUHU216HW,2013-08-11 02:16:00,
2013-08-10 22:17:00,61.8,53.8,30.48,SW,225,0.0,0.0,75,0.00,,,0.00,WUHU216HW,2013-08-11 02:17:00,
2013-08-10 22:18:00,61.8,53.8,30.48,SW,225,0.0,0.0,75,0.00,,,0.00,WUHU216HW,2013-08-11 02:18:00,
2013-08-10 22:19:00,61.8,53.8,30.48,SW,225,0.0,0.0,75,0.00,,,0.00,WUHU216HW,2013-08-11 02:19:00,
2013-08-10 22:20:00,61.8,53.8,30.48,SW,225,0.0,0.0,75,0.00,,,0.00,WUHU216HW,2013-08-11 02:20:00,
2013-08-10 22:21:00,61.8,53.8,30.48,SW,225,0.0,0.0,75,0.00,,,0.00,WUHU216HW,2013-08-11 02:21:00,
2013-08-10 22:22:00,61.7,53.6,30.48,SW,225,0.0,0.0,75,0.00,,,0.00,WUHU216HW,2013-08-11 02:22:00,
2013-08-10 22:23:00,61.7,53.6,30.48,SW,225,0.0,0.0,75,0.00,,,0.00,WUHU216HW,2013-08-11 02:23:00,
2013-08-10 22:24:00,61.7,53.6,30.48,SW,225,0.0,0.0,75,0.00,,,0.00,WUHU216HW,2013-08-11 02:24:00,
2013-08-10 22:25:00,61.7,53.6,30.48,SW,225,0.0,0.0,75,0.00,,,0.00,WUHU216HW,2013-08-11 02:25:00,
2013-08-10 22:26:00,61.7,53.6,30.48,SW,225,0.0,0.0,75,0.00,,,0.00,WUHU216HW,2013-08-11 02:26:00,
2013-08-10 22:27:00,61.7,54.0,30.48,SW,225,0.0,0.0,76,0.00,,,0.00,WUHU216HW,2013-08-11 02:27:00,
2013-08-10 22:28:00,61.7,54.0,30.48,SW,225,0.0,0.0,76,0.00,,,0.00,WUHU216HW,2013-08-11 02:28:00,
2013-08-10 22:29:00,61.5,53.8,30.48,SW,225,0.0,0.0,76,0.00,,,0.00,WUHU216HW,2013-08-11 02:29:00,
2013-08-10 22:30:00,61.5,53.8,30.48,SW,225,0.0,0.0,76,0.00,,,0.00,WUHU216HW,2013-08-11 02:30:00,
2013-08-10 22:31:00,61.5,53.8,30.48,SW,225,0.0,0.0,76,0.00,,,0.00,WUHU216HW,2013-08-11 02:31:00,
2013-08-10 22:32:00,61.5,53.8,30.48,SW,225,0.0,0.0,76,0.00,,,0.00,WUHU216HW,2013-08-11 02:32:00,
2013-08-10 22:33:00,61.5,53.8,30.48,SW,225,0.0,0.0,76,0.00,,,0.00,WUHU216HW,2013-08-11 02:33:00,
2013-08-10 22:34:00,61.5,53.8,30.48,SW,225,0.0,0.0,76,0.00,,,0.00,WUHU216HW,2013-08-11 02:34:00,
2013-08-10 22:35:00,61.3,53.7,30.48,SW,225,0.0,0.0,76,0.00,,,0.00,WUHU216HW,2013-08-11 02:35:00,
2013-08-10 22:36:00,61.3,53.7,30.48,SW,225,0.0,0.0,76,0.00,,,0.00,WUHU216HW,2013-08-11 02:36:00,
2013-08-10 22:37:00,61.3,53.7,30.48,SW,225,0.0,0.0,76,0.00,,,0.00,WUHU216HW,2013-08-11 02:37:00,
2013-08-10 22:38:00,61.3,53.7,30.48,SW,225,0.0,0.0,76,0.00,,,0.00,WUHU216HW,2013-08-11 02:38:00,
2013-08-10 22:39:00,61.3,53.7,30.48,SW,225,0.0,0.0,76,0.00,,,0.00,WUHU216HW,2013-08-11 02:39:00,
2013-08-10 22:40:00,61.3,53.7,30.48,SW,225,0.0,0.0,76,0.00,,,0.00,WUHU216HW,2013-08-11 02:40:00,
2013-08-10 22:41:00,61.3,53.7,30.48,SW,225,0.0,0.0,76,0.00,,,0.00,WUHU216HW,2013-08-11 02:41:00,
2013-08-10 22:42:00,61.1,53.5,30.48,SW,225,0.0,0.0,76,0.00,,,0.00,WUHU216HW,2013-08-11 02:42:00,
2013-08-10 22:43:00,61.1,53.5,30.48,SW,225,0.0,0.0,76,0.00,,,0.00,WUHU216HW,2013-08-11 02:43:00,
2013-08-10 22:44:00,61.1,53.5,30.48,SW,225,0.0,0.0,76,0.00,,,0.00,WUHU216HW,2013-08-11 02:44:00,
2013-08-10 22:45:00,61.1,53.5,30.48,SW,225,0.0,0.0,76,0.00,,,0.00,WUHU216HW,2013-08-11 02:45:00,
2013-08-10 22:46:00,60.9,53.4,30.48,SW,225,0.0,0.0,76,0.00,,,0.00,WUHU216HW,2013-08-11 02:46:00,
2013-08-10 22:47:00,60.9,53.4,30.48,SW,225,0.0,0.0,76,0.00,,,0.00,WUHU216HW,2013-08-11 02:47:00,
2013-08-10 22:48:00,60.9,53.4,30.48,SW,225,0.0,0.0,76,0.00,,,0.00,WUHU216HW,2013-08-11 02:48:00,
2013-08-10 22:49:00,60.9,53.4,30.48,SW,225,0.0,0.0,76,0.00,,,0.00,WUHU216HW,2013-08-11 02:49:00,
2013-08-10 22:50:00,60.8,53.2,30.48,SW,225,0.0,0.0,76,0.00,,,0.00,WUHU216HW,2013-08-11 02:50:00,
2013-08-10 22:51:00,60.8,53.2,30.48,SW,225,0.0,0.0,76,0.00,,,0.00,WUHU216HW,2013-08-11 02:51:00,
2013-08-10 22:52:00,60.6,53.0,30.48,SW,225,0.0,0.0,76,0.00,,,0.00,WUHU216HW,2013-08-11 02:52:00,
2013-08-10 22:53:00,60.6,53.0,30.48,SW,225,0.0,0.0,76,0.00,,,0.00,WUHU216HW,2013-08-11 02:53:00,
2013-08-10 22:54:00,60.6,53.0,30.48,SW,225,0.0,0.0,76,0.00,,,0.00,WUHU216HW,2013-08-11 02:54:00,
2013-08-10 22:55:00,60.6,53.0,30.48,SW,225,0.0,0.0,76,0.00,,,0.00,WUHU216HW,2013-08-11 02:55:00,
2013-08-10 22:56:00,60.6,53.4,30.48,SW,225,0.0,0.0,76,0.00,,,0.00,WUHU216HW,2013-08-11 02:56:00,
2013-08-10 22:57:00,60.6,53.4,30.48,SW,225,0.0,0.0,77,0.00,,,0.00,WUHU216HW,2013-08-11 02:57:00,
2013-08-10 22:58:00,60.6,53.4,30.48,SW,225,0.0,0.0,77,0.00,,,0.00,WUHU216HW,2013-08-11 02:58:00,
2013-08-10 22:59:00,60.6,53.4,30.48,SW,225,0.0,0.0,77,0.00,,,0.00,WUHU216HW,2013-08-11 02:59:00,
2013-08-10 23:00:00,60.6,53.4,30.47,SW,225,0.0,0.0,77,0.00,,,0.00,WUHU216HW,2013-08-11 03:00:00,
2013-08-10 23:01:00,60.4,53.2,30.48,SW,225,0.0,0.0,77,0.00,,,0.00,WUHU216HW,2013-08-11 03:01:00,
2013-08-10 23:02:00,60.4,53.2,30.48,SW,225,0.0,0.0,77,0.00,,,0.00,WUHU216HW,2013-08-11 03:02:00,
2013-08-10 23:03:00,60.4,53.6,30.48,SW,225,0.0,0.0,78,0.00,,,0.00,WUHU216HW,2013-08-11 03:03:00,
2013-08-10 23:04:00,60.4,53.6,30.47,SW,225,0.0,0.0,78,0.00,,,0.00,WUHU216HW,2013-08-11 03:04:00,
2013-08-10 23:05:00,60.4,53.2,30.47,SW,225,0.0,0.0,77,0.00,,,0.00,WUHU216HW,2013-08-11 03:05:00,
2013-08-10 23:06:00,60.4,53.2,30.47,SW,225,0.0,0.0,77,0.00,,,0.00,WUHU216HW,2013-08-11 03:06:00,
2013-08-10 23:07:00,60.4,53.2,30.47,SW,225,0.0,0.0,77,0.00,,,0.00,WUHU216HW,2013-08-11 03:07:00,
2013-08-10 23:08:00,60.4,53.2,30.48,SW,225,0.0,0.0,77,0.00,,,0.00,WUHU216HW,2013-08-11 03:08:00,
2013-08-10 23:09:00,60.4,53.2,30.47,SW,225,0.0,0.0,77,0.00,,,0.00,WUHU216HW,2013-08-11 03:09:00,
2013-08-10 23:10:00,60.4,53.2,30.47,SW,225,0.0,0.0,77,0.00,,,0.00,WUHU216HW,2013-08-11 03:10:00,
2013-08-10 23:11:00,60.4,53.2,30.48,SW,225,0.0,0.0,77,0.00,,,0.00,WUHU216HW,2013-08-11 03:11:00,
2013-08-10 23:12:00,60.4,53.2,30.48,SW,225,0.0,0.0,77,0.00,,,0.00,WUHU216HW,2013-08-11 03:12:00,
2013-08-10 23:13:00,60.4,53.2,30.48,SW,225,0.0,0.0,77,0.00,,,0.00,WUHU216HW,2013-08-11 03:13:00,
2013-08-10 23:14:00,60.4,53.2,30.48,SW,225,0.0,0.0,77,0.00,,,0.00,WUHU216HW,2013-08-11 03:14:00,
2013-08-10 23:15:00,60.4,53.2,30.48,SW,225,0.0,0.0,77,0.00,,,0.00,WUHU216HW,2013-08-11 03:15:00,
2013-08-10 23:16:00,60.4,53.2,30.48,SW,225,0.0,0.0,77,0.00,,,0.00,WUHU216HW,2013-08-11 03:16:00,
2013-08-10 23:17:00,60.4,53.2,30.48,SW,225,0.0,0.0,77,0.00,,,0.00,WUHU216HW,2013-08-11 03:17:00,
2013-08-10 23:18:00,60.2,53.0,30.48,SW,225,0.0,0.0,77,0.00,,,0.00,WUHU216HW,2013-08-11 03:18:00,
2013-08-10 23:19:00,60.2,53.0,30.48,SW,225,0.0,0.0,77,0.00,,,0.00,WUHU216HW,2013-08-11 03:19:00,
2013-08-10 23:20:00,60.0,52.8,30.48,SW,225,0.0,0.0,77,0.00,,,0.00,WUHU216HW,2013-08-11 03:20:00,
2013-08-10 23:21:00,60.0,52.8,30.48,SW,225,0.0,0.0,77,0.00,,,0.00,WUHU216HW,2013-08-11 03:21:00,
2013-08-10 23:22:00,60.0,52.8,30.48,SW,225,0.0,0.0,77,0.00,,,0.00,WUHU216HW,2013-08-11 03:22:00,
2013-08-10 23:23:00,60.0,52.8,30.48,SW,225,0.0,0.0,77,0.00,,,0.00,WUHU216HW,2013-08-11 03:23:00,
2013-08-10 23:24:00,60.0,53.2,30.48,SW,225,0.0,0.0,78,0.00,,,0.00,WUHU216HW,2013-08-11 03:24:00,
2013-08-10 23:25:00,60.0,53.2,30.48,SW,225,0.0,0.0,78,0.00,,,0.00,WUHU216HW,2013-08-11 03:25:00,
2013-08-10 23:26:00,60.0,53.2,30.48,SW,225,0.0,0.0,78,0.00,,,0.00,WUHU216HW,2013-08-11 03:26:00,
2013-08-10 23:27:00,59.9,53.0,30.49,SW,225,0.0,0.0,78,0.00,,,0.00,WUHU216HW,2013-08-11 03:27:00,
2013-08-10 23:28:00,59.9,53.0,30.48,SW,225,0.0,0.0,78,0.00,,,0.00,WUHU216HW,2013-08-11 03:28:00,
2013-08-10 23:29:00,59.9,53.0,30.48,SW,225,0.0,0.0,78,0.00,,,0.00,WUHU216HW,2013-08-11 03:29:00,
2013-08-10 23:30:00,59.9,53.0,30.48,SW,225,0.0,0.0,78,0.00,,,0.00,WUHU216HW,2013-08-11 03:30:00,
2013-08-10 23:31:00,59.9,53.0,30.48,SW,225,0.0,0.0,78,0.00,,,0.00,WUHU216HW,2013-08-11 03:31:00,
2013-08-10 23:32:00,59.9,53.0,30.48,SW,225,0.0,0.0,78,0.00,,,0.00,WUHU216HW,2013-08-11 03:32:00,
2013-08-10 23:33:00,59.7,52.8,30.49,SW,225,0.0,0.0,78,0.00,,,0.00,WUHU216HW,2013-08-11 03:33:00,
2013-08-10 23:34:00,59.7,52.8,30.49,SW,225,0.0,0.0,78,0.00,,,0.00,WUHU216HW,2013-08-11 03:34:00,
2013-08-10 23:35:00,59.7,52.8,30.49,SW,225,0.0,0.0,78,0.00,,,0.00,WUHU216HW,2013-08-11 03:35:00,
2013-08-10 23:36:00,59.7,52.8,30.48,SW,225,0.0,0.0,78,0.00,,,0.00,WUHU216HW,2013-08-11 03:36:00,
2013-08-10 23:37:00,59.5,52.7,30.48,SW,225,0.0,0.0,78,0.00,,,0.00,WUHU216HW,2013-08-11 03:37:00,
2013-08-10 23:38:00,59.5,52.7,30.48,SW,225,0.0,0.0,78,0.00,,,0.00,WUHU216HW,2013-08-11 03:38:00,
2013-08-10 23:39:00,59.5,52.7,30.49,SW,225,0.0,0.0,78,0.00,,,0.00,WUHU216HW,2013-08-11 03:39:00,
2013-08-10 23:40:00,59.5,52.7,30.48,SW,225,0.0,0.0,78,0.00,,,0.00,WUHU216HW,2013-08-11 03:40:00,
2013-08-10 23:41:00,59.5,52.7,30.49,SW,225,0.0,0.0,78,0.00,,,0.00,WUHU216HW,2013-08-11 03:41:00,
2013-08-10 23:42:00,59.5,52.7,30.48,SW,225,0.0,0.0,78,0.00,,,0.00,WUHU216HW,2013-08-11 03:42:00,
2013-08-10 23:43:00,59.5,52.7,30.49,SW,225,0.0,0.0,78,0.00,,,0.00,WUHU216HW,2013-08-11 03:43:00,
2013-08-10 23:44:00,59.3,52.5,30.49,SW,225,0.0,0.0,78,0.00,,,0.00,WUHU216HW,2013-08-11 03:44:00,
2013-08-10 23:45:00,59.3,52.5,30.49,SW,225,0.0,0.0,78,0.00,,,0.00,WUHU216HW,2013-08-11 03:45:00,
2013-08-10 23:46:00,59.3,52.5,30.49,SW,225,0.0,0.0,78,0.00,,,0.00,WUHU216HW,2013-08-11 03:46:00,
2013-08-10 23:47:00,59.3,52.5,30.49,SW,225,0.0,0.0,78,0.00,,,0.00,WUHU216HW,2013-08-11 03:47:00,
2013-08-10 23:48:00,59.3,52.5,30.49,SW,225,0.0,0.0,78,0.00,,,0.00,WUHU216HW,2013-08-11 03:48:00,
2013-08-10 23:49:00,59.3,52.5,30.49,SW,225,0.0,0.0,78,0.00,,,0.00,WUHU216HW,2013-08-11 03:49:00,
2013-08-10 23:50:00,59.1,52.3,30.49,SW,225,0.0,0.0,78,0.00,,,0.00,WUHU216HW,2013-08-11 03:50:00,
2013-08-10 23:51:00,59.1,52.3,30.49,SW,225,0.0,0.0,78,0.00,,,0.00,WUHU216HW,2013-08-11 03:51:00,
2013-08-10 23:52:00,59.1,52.7,30.49,SW,225,0.0,0.0,79,0.00,,,0.00,WUHU216HW,2013-08-11 03:52:00,
2013-08-10 23:53:00,59.1,52.7,30.49,SW,225,0.0,0.0,79,0.00,,,0.00,WUHU216HW,2013-08-11 03:53:00,
2013-08-10 23:54:00,59.1,52.7,30.49,SW,225,0.0,0.0,79,0.00,,,0.00,WUHU216HW,2013-08-11 03:54:00,
2013-08-10 23:55:00,59.1,52.7,30.48,SW,225,0.0,0.0,79,0.00,,,0.00,WUHU216HW,2013-08-11 03:55:00,
2013-08-10 23:56:00,59.1,52.7,30.49,SW,225,0.0,0.0,79,0.00,,,0.00,WUHU216HW,2013-08-11 03:56:00,
2013-08-10 23:57:00,59.1,52.7,30.49,SW,225,0.0,0.0,79,0.00,,,0.00,WUHU216HW,2013-08-11 03:57:00,
2013-08-10 23:58:00,59.1,52.7,30.49,SW,225,0.0,0.0,79,0.00,,,0.00,WUHU216HW,2013-08-11 03:58:00,
2013-08-10 23:59:00,59.1,52.7,30.48,SW,225,0.0,0.0,79,0.00,,,0.00,WUHU216HW,2013-08-11 03:59:00,